Provisional Data: Yellow Breeches Creek near Lisburn, PA


Please select a monitoring station.
Please select start date.
Please select start date.

Toggle Unit: C/F Toggle Unit: C/F
Sample Time Temperature (C) Temperature (F) Specific Conductivity (mS/cm) pH   Turbidity (NTU+) DO (mg/L)
2/4/2021 12:00:00 AM 3.5 38.3 0.302 7.68 1.03 12.73
2/4/2021 12:15:00 AM 3.45 38.21 0.29 7.71 1.09 12.73
2/4/2021 12:30:00 AM 3.46 38.228 0.307 7.74 0.9 12.7
2/4/2021 12:45:00 AM 3.44 38.192 0.312 7.79 1.25 12.7
2/4/2021 1:00:00 AM 3.42 38.156 0.312 7.81 0.89 12.66
2/4/2021 1:15:00 AM 3.4 38.12 0.309 7.8 0.99 12.65
2/4/2021 1:30:00 AM 3.39 38.102 0.309 7.81 1.56 12.67
2/4/2021 1:45:00 AM 3.36 38.048 0.308 7.81 0.82 12.65
2/4/2021 2:00:00 AM 3.34 38.012 0.306 7.86 1.27 12.65
2/4/2021 2:15:00 AM 3.31 37.958 0.305 7.88 1.01 12.67
2/4/2021 2:30:00 AM 3.27 37.886 0.304 7.92 1.24 12.67
2/4/2021 2:45:00 AM 3.25 37.85 0.303 7.9 1.15 12.66
2/4/2021 3:00:00 AM 3.2 37.76 0.302 7.86 0.63 12.67
2/4/2021 3:15:00 AM 3.18 37.724 0.302 7.84 2.82 12.68
2/4/2021 3:30:00 AM 3.15 37.67 0.303 7.83 0.99 12.68
2/4/2021 3:45:00 AM 3.13 37.634 0.304 7.82 3.76 12.69
2/4/2021 4:00:00 AM 3.09 37.562 0.305 7.85 9.25 12.67
2/4/2021 4:15:00 AM 3.06 37.508 0.298 7.88 27.33 12.68
2/4/2021 4:30:00 AM 3.02 37.436 0.301 7.9 9.46 12.7
2/4/2021 4:45:00 AM 2.98 37.364 0.291 7.92 3.02 12.69
2/4/2021 5:00:00 AM 2.94 37.292 0.279 7.95 5.65 12.73
2/4/2021 5:15:00 AM 2.9 37.22 0.289 7.97 1.75 12.73
2/4/2021 5:30:00 AM 2.85 37.13 0.27 7.98 6.55 12.74
2/4/2021 5:45:00 AM 2.81 37.058 0.28 7.99 3.84 12.76
2/4/2021 6:00:00 AM 2.76 36.968 0.288 8 0.96 12.78
2/4/2021 6:15:00 AM 2.73 36.914 0.309 8.01 1.83 12.79
2/4/2021 6:30:00 AM 2.69 36.842 0.304 8.01 1.76 12.81
2/4/2021 6:45:00 AM 2.65 36.77 0.301 8.01 20.54 12.79
2/4/2021 7:00:00 AM 2.61 36.698 0.291 7.99 48.77 12.76
2/4/2021 7:15:00 AM 2.56 36.608 0.265 8.01 2.53 12.79
2/4/2021 7:30:00 AM 2.53 36.554 0.312 8.01 4.74 12.82
2/4/2021 7:45:00 AM 2.5 36.5 0.288 8.02 2.41 12.87
2/4/2021 8:00:00 AM 2.47 36.446 0.295 8.02 2.52 12.89
2/4/2021 8:15:00 AM 2.46 36.428 0.31 8.01 4.47 12.9
2/4/2021 8:30:00 AM 2.48 36.464 0.307 8.01 5.15 12.99
2/4/2021 8:45:00 AM 2.51 36.518 0.281 7.97 0.91 13.06
2/4/2021 9:00:00 AM 2.52 36.536 0.3 7.87 0.91 13.11
2/4/2021 9:15:00 AM 2.54 36.572 0.301 7.79 0.92 13.16
2/4/2021 9:30:00 AM 2.58 36.644 0.275 7.72 0.45 13.24
2/4/2021 9:45:00 AM 2.63 36.734 0.288 7.66 1.1 13.28
2/4/2021 10:00:00 AM 2.68 36.824 0.306 7.65 0.99 13.34
2/4/2021 10:15:00 AM 2.72 36.896 0.301 7.64 0.81 13.39
2/4/2021 10:30:00 AM 2.78 37.004 0.29 7.63 2.21 13.44
2/4/2021 10:45:00 AM 2.85 37.13 0.294 7.61 1.04 13.49
2/4/2021 11:00:00 AM 2.93 37.274 0.3 7.56 0.92 13.57
2/4/2021 11:15:00 AM 3 37.4 0.298 7.53 0.57 13.62
2/4/2021 11:30:00 AM 3.08 37.544 0.297 7.48 1.2 13.65
2/4/2021 11:45:00 AM 3.15 37.67 0.294 7.41 0.87 13.71
2/4/2021 12:00:00 PM 3.22 37.796 0.295 7.33 0.86 13.78
2/4/2021 12:15:00 PM 3.31 37.958 0.294 7.25 1.15 13.79
2/4/2021 12:30:00 PM 3.38 38.084 0.293 7.19 0.69 13.85
2/4/2021 12:45:00 PM 3.47 38.246 0.293 7.12 0.72 13.87
2/4/2021 1:00:00 PM 3.56 38.408 0.293 7.08 1.19 13.89
2/4/2021 1:15:00 PM 3.63 38.534 0.293 7.03 0.89 13.92
2/4/2021 1:30:00 PM 3.71 38.678 0.293 6.95 0.82 13.93
2/4/2021 1:45:00 PM 3.77 38.786 0.292 6.93 0.91 13.97
2/4/2021 2:00:00 PM 3.85 38.93 0.291 6.91 0.49 13.96
2/4/2021 2:15:00 PM 3.91 39.038 0.29 6.9 1.64 13.99
2/4/2021 2:30:00 PM 3.97 39.146 0.289 6.86 0.83 13.99
2/4/2021 2:45:00 PM 4 39.2 0.288 6.86 0.97 14.01
2/4/2021 3:00:00 PM 4.05 39.29 0.287 6.85 0.85 13.99
2/4/2021 3:15:00 PM 4.07 39.326 0.287 6.84 0.86 14
2/4/2021 3:30:00 PM 4.1 39.38 0.287 6.82 0.85 14
2/4/2021 3:45:00 PM 4.12 39.416 0.287 6.82 0.54 14
2/4/2021 4:00:00 PM 4.14 39.452 0.286 6.79 0.52 13.97
2/4/2021 4:15:00 PM 4.13 39.434 0.286 6.82 0.67 13.95
2/4/2021 4:30:00 PM 4.13 39.434 0.286 6.82 0.96 13.94
2/4/2021 4:45:00 PM 4.12 39.416 0.259 6.87 0.85 13.88
2/4/2021 5:00:00 PM 4.08 39.344 0.253 6.94 0.71 13.84
2/4/2021 5:15:00 PM 4.05 39.29 0.277 7.11 0.55 13.79
2/4/2021 5:30:00 PM 4.02 39.236 0.28 7.31 0.57 13.71
2/4/2021 5:45:00 PM 3.99 39.182 0.279 7.52 0.69 13.65
2/4/2021 6:00:00 PM 3.95 39.11 0.281 7.74 0.5 13.6
2/4/2021 6:15:00 PM 3.93 39.074 0.268 7.78 0.69 13.51
2/4/2021 6:30:00 PM 3.9 39.02 0.271 7.85 1.03 13.46
2/4/2021 6:45:00 PM 3.88 38.984 0.258 7.86 0.79 13.4
2/4/2021 7:00:00 PM 3.86 38.948 0.274 7.89 1.16 13.35
2/4/2021 7:15:00 PM 3.84 38.912 0.283 7.89 3.1 13.27
2/4/2021 7:30:00 PM 3.82 38.876 0.258 7.87 1.84 13.24
2/4/2021 7:45:00 PM 3.8 38.84 0.254 7.93 1.75 13.19
2/4/2021 8:00:00 PM 3.79 38.822 0.244 7.91 2.11 13.16
2/4/2021 8:15:00 PM 3.78 38.804 0.249 7.92 1.28 13.13
2/4/2021 8:30:00 PM 3.78 38.804 0.254 7.92 1.45 13.08
2/4/2021 8:45:00 PM 3.77 38.786 0.255 7.94 1.27 13.04
2/4/2021 9:00:00 PM 3.76 38.768 0.244 7.91 0.91 13.01
2/4/2021 9:15:00 PM 3.76 38.768 0.262 7.91 0.89 12.97
2/4/2021 9:30:00 PM 3.77 38.786 0.253 7.9 0.87 12.89
2/4/2021 9:45:00 PM 3.78 38.804 0.24 7.9 1.31 12.86
2/4/2021 10:00:00 PM 3.8 38.84 0.241 7.88 1.01 12.81
2/4/2021 10:15:00 PM 3.82 38.876 0.241 7.89 0.76 12.79
2/4/2021 10:30:00 PM 3.83 38.894 0.246 7.87 1.18 12.75
2/4/2021 10:45:00 PM 3.86 38.948 0.271 7.85 1.28 12.72
2/4/2021 11:00:00 PM 3.87 38.966 0.28 7.83 0.97 12.68
2/4/2021 11:15:00 PM 3.87 38.966 0.28 7.82 1.11 12.64
2/4/2021 11:30:00 PM 3.91 39.038 0.264 7.8 0.8 12.61
2/4/2021 11:45:00 PM 3.92 39.056 0.243 7.77 0.76 12.58
2/5/2021 12:00:00 AM 3.95 39.11 0.238 7.74 0.78 12.55
2/5/2021 12:15:00 AM 3.97 39.146 0.238 7.74 1.31 12.53
2/5/2021 12:30:00 AM 3.99 39.182 0.247 7.72 0.58 12.5
2/5/2021 12:45:00 AM 4.01 39.218 0.231 7.7 1.87 12.46
2/5/2021 1:00:00 AM 4.03 39.254 0.235 7.69 1.04 12.45
2/5/2021 1:15:00 AM 4.06 39.308 0.232 7.6 0.86 12.42
2/5/2021 1:30:00 AM 4.08 39.344 0.236 7.53 1.22 12.42
2/5/2021 1:45:00 AM 4.11 39.398 0.236 7.46 1.32 12.38
2/5/2021 2:00:00 AM 4.13 39.434 0.249 7.38 1.18 12.37
2/5/2021 2:15:00 AM 4.14 39.452 0.244 7.31 0.75 12.34
2/5/2021 2:30:00 AM 4.14 39.452 0.243 7.28 0.85 12.33
2/5/2021 2:45:00 AM 4.15 39.47 0.246 7.28 0.42 12.32
2/5/2021 3:00:00 AM 4.16 39.488 0.243 7.29 1.11 12.31
2/5/2021 3:15:00 AM 4.16 39.488 0.245 7.28 1.4 12.29
2/5/2021 3:30:00 AM 4.17 39.506 0.247 7.27 1.22 12.27
2/5/2021 3:45:00 AM 4.18 39.524 0.248 7.26 1.11 12.29
2/5/2021 4:00:00 AM 4.18 39.524 0.247 7.24 1.92 12.27
2/5/2021 4:15:00 AM 4.18 39.524 0.234 7.16 0.88 12.25
2/5/2021 4:30:00 AM 4.19 39.542 0.244 7.08 1.27 12.27
2/5/2021 4:45:00 AM 4.18 39.524 0.242 7.04 0.75 12.25
2/5/2021 5:00:00 AM 4.18 39.524 0.245 7.04 0.99 12.26
2/5/2021 5:15:00 AM 4.17 39.506 0.237 7.04 0.97 12.26
2/5/2021 5:30:00 AM 4.15 39.47 0.255 7.01 1.22 12.25
2/5/2021 5:45:00 AM 4.14 39.452 0.254 6.99 1.23 12.25
2/5/2021 6:00:00 AM 4.14 39.452 0.253 6.98 0.63 12.24
2/5/2021 6:15:00 AM 4.14 39.452 0.252 6.97 0.98 12.24
2/5/2021 6:30:00 AM 4.14 39.452 0.257 6.97 1.33 12.25
2/5/2021 6:45:00 AM 4.13 39.434 0.257 6.97 1.7 12.23
2/5/2021 7:00:00 AM 4.13 39.434 0.257 6.96 1.89 12.23
2/5/2021 7:15:00 AM 4.13 39.434 0.264 6.95 1.04 12.23
2/5/2021 7:30:00 AM 4.13 39.434 0.26 6.94 0.39 12.22
2/5/2021 7:45:00 AM 4.13 39.434 0.26 6.93 0.87 12.23
2/5/2021 8:00:00 AM 4.12 39.416 0.261 6.91 0.67 12.26
2/5/2021 8:15:00 AM 4.11 39.398 0.261 6.91 1.22 12.28
2/5/2021 8:30:00 AM 4.12 39.416 0.26 6.86 1.04 12.34
2/5/2021 8:45:00 AM 4.15 39.47 0.258 6.69 1.12 12.39
2/5/2021 9:00:00 AM 4.17 39.506 0.257 6.58 2.83 12.47
2/5/2021 9:15:00 AM 4.19 39.542 0.254 6.51 1.77 12.53
2/5/2021 9:30:00 AM 4.24 39.632 0.243 6.42 1.19 12.58
2/5/2021 9:45:00 AM 4.28 39.704 0.246 6.34 1.03 12.66
2/5/2021 10:00:00 AM 4.35 39.83 0.25 6.3 1.17 12.71
2/5/2021 10:15:00 AM 4.41 39.938 0.253 6.27 0.72 12.78
2/5/2021 10:30:00 AM 4.53 40.154 0.252 6.3 0.67 12.84
2/5/2021 10:45:00 AM 4.62 40.316 0.252 6.34 0.68 12.92
2/5/2021 11:00:00 AM 4.68 40.424 0.272 6.34 0.62 12.97
2/5/2021 11:15:00 AM 4.74 40.532 0.248 6.32 0.94 13.04
2/5/2021 11:30:00 AM 4.81 40.658 0.231 6.32 1.29 13.12
2/5/2021 11:45:00 AM 4.92 40.856 0.237 6.34 0.68 13.18
2/5/2021 12:00:00 PM 5.02 41.036 0.222 6.33 0.49 13.24
2/5/2021 12:15:00 PM 5.06 41.108 0.23 6.34 0.56 13.3
2/5/2021 12:30:00 PM 5.12 41.216 0.254 6.33 0.46 13.36
2/5/2021 12:45:00 PM 5.2 41.36 0.252 6.32 0.97 13.37
2/5/2021 1:00:00 PM 5.3 41.54 0.239 6.3 0.69 13.46
2/5/2021 1:15:00 PM 5.38 41.684 0.236 6.37 0.86 13.51
2/5/2021 1:30:00 PM 5.46 41.828 0.241 6.33 0.67 13.57
2/5/2021 1:45:00 PM 5.53 41.954 0.241 6.32 0.75 13.59
2/5/2021 2:00:00 PM 5.61 42.098 0.238 6.36 0.77 13.63
2/5/2021 2:15:00 PM 5.69 42.242 0.237 6.38 0.44 13.65
2/5/2021 2:30:00 PM 5.75 42.35 0.234 6.39 0.78 13.66
2/5/2021 2:45:00 PM 5.81 42.458 0.235 6.4 0.85 13.65
2/5/2021 3:00:00 PM 5.88 42.584 0.235 6.39 0.65 13.68
2/5/2021 3:15:00 PM 5.92 42.656 0.237 6.4 0.67 13.69
2/5/2021 3:30:00 PM 5.95 42.71 0.241 6.37 1.32 13.67
2/5/2021 3:45:00 PM 5.97 42.746 0.241 6.4 0.67 13.65
2/5/2021 4:00:00 PM 5.97 42.746 0.233 6.39 0.87 13.6
2/5/2021 4:15:00 PM 5.99 42.782 0.226 6.45 0.66 13.59
2/5/2021 4:30:00 PM 5.98 42.764 0.229 6.5 0.68 13.53
2/5/2021 4:45:00 PM 5.95 42.71 0.227 6.57 0.76 13.47
2/5/2021 5:00:00 PM 5.91 42.638 0.228 6.64 0.67 13.41
2/5/2021 5:15:00 PM 5.89 42.602 0.229 6.71 1.12 13.34
2/5/2021 5:30:00 PM 5.85 42.53 0.241 6.79 0.8 13.27
2/5/2021 5:45:00 PM 5.81 42.458 0.229 6.92 1.22 13.18
2/5/2021 6:00:00 PM 5.76 42.368 0.239 7.03 0.96 13.07
2/5/2021 6:15:00 PM 5.73 42.314 0.237 7.1 0.63 13
2/5/2021 6:30:00 PM 5.69 42.242 0.223 7.14 2.08 12.92
2/5/2021 6:45:00 PM 5.64 42.152 0.228 7.2 0.73 12.84
2/5/2021 7:00:00 PM 5.61 42.098 0.228 7.27 1.04 12.76
2/5/2021 7:15:00 PM 5.56 42.008 0.243 7.33 1.75 12.7
2/5/2021 7:30:00 PM 5.52 41.936 0.246 7.38 1.82 12.64
2/5/2021 7:45:00 PM 5.47 41.846 0.238 7.5 1.16 12.58
2/5/2021 8:00:00 PM 5.44 41.792 0.231 7.52 1 12.51
2/5/2021 8:15:00 PM 5.4 41.72 0.253 7.55 1.54 12.46
2/5/2021 8:30:00 PM 5.36 41.648 0.245 7.57 0.92 12.44
2/5/2021 8:45:00 PM 5.34 41.612 0.23 7.64 1.18 12.39
2/5/2021 9:00:00 PM 5.31 41.558 0.227 7.73 1.64 12.35
2/5/2021 9:15:00 PM 5.27 41.486 0.217 7.78 0.59 12.31
2/5/2021 9:30:00 PM 5.26 41.468 0.22 7.77 1.06 12.26
2/5/2021 9:45:00 PM 5.24 41.432 0.218 7.81 0.86 12.21
2/5/2021 10:00:00 PM 5.23 41.414 0.221 7.75 0.82 12.18
2/5/2021 10:15:00 PM 5.2 41.36 0.221 7.74 1.28 12.15
2/5/2021 10:30:00 PM 5.2 41.36 0.221 7.74 1.1 12.12
2/5/2021 10:45:00 PM 5.19 41.342 0.218 7.7 1.01 12.1
2/5/2021 11:00:00 PM 5.2 41.36 0.214 7.67 1.81 12.07
2/5/2021 11:15:00 PM 5.19 41.342 0.188 7.69 1.1 12.02
2/5/2021 11:30:00 PM 5.19 41.342 0.218 7.68 1.4 12.01
2/5/2021 11:45:00 PM 5.16 41.288 0.217 7.73 1.34 12.01
2/6/2021 12:00:00 AM 5.13 41.234 0.218 7.78 1.49 11.99
2/6/2021 12:15:00 AM 5.1 41.18 0.218 7.86 1.26 11.97
2/6/2021 12:30:00 AM 5.09 41.162 0.222 7.89 0.88 11.94
2/6/2021 12:45:00 AM 5.06 41.108 0.221 7.89 1.93 11.94
2/6/2021 1:00:00 AM 5.04 41.072 0.226 7.92 0.87 11.93
2/6/2021 1:15:00 AM 5.01 41.018 0.224 7.94 1.26 11.93
2/6/2021 1:30:00 AM 4.98 40.964 0.225 7.96 1.18 11.9
2/6/2021 1:45:00 AM 4.96 40.928 0.223 7.94 1.5 11.92
2/6/2021 2:00:00 AM 4.92 40.856 0.226 7.98 1.32 11.92
2/6/2021 2:15:00 AM 4.86 40.748 0.224 7.99 1.09 11.92
2/6/2021 2:30:00 AM 4.82 40.676 0.223 7.99 1.25 11.92
2/6/2021 2:45:00 AM 4.77 40.586 0.224 8.02 1.21 11.94
2/6/2021 3:00:00 AM 4.73 40.514 0.221 8.03 1.99 11.94
2/6/2021 3:15:00 AM 4.69 40.442 0.22 8.02 1.52 11.96
2/6/2021 3:30:00 AM 4.64 40.352 0.222 8.02 1.1 11.96
2/6/2021 3:45:00 AM 4.61 40.298 0.224 8 2.72 11.98
2/6/2021 4:00:00 AM 4.59 40.262 0.233 7.97 1.05 11.99
2/6/2021 4:15:00 AM 4.57 40.226 0.218 7.95 1.05 11.99
2/6/2021 4:30:00 AM 4.55 40.19 0.219 7.91 1.75 11.99
2/6/2021 4:45:00 AM 4.52 40.136 0.218 7.85 2.02 12
2/6/2021 5:00:00 AM 4.47 40.046 0.222 7.81 0.9 12.01
2/6/2021 5:15:00 AM 4.45 40.01 0.221 7.77 1.36 12.03
2/6/2021 5:30:00 AM 4.43 39.974 0.221 7.74 1.4 12.05
2/6/2021 5:45:00 AM 4.39 39.902 0.224 7.72 2.01 12.07
2/6/2021 6:00:00 AM 4.35 39.83 0.22 7.71 0.88 12.08
2/6/2021 6:15:00 AM 4.31 39.758 0.222 7.72 0.84 12.07
2/6/2021 6:30:00 AM 4.27 39.686 0.224 7.72 1.37 12.1
2/6/2021 6:45:00 AM 4.24 39.632 0.244 7.73 1.02 12.1
2/6/2021 7:00:00 AM 4.2 39.56 0.27 7.76 1.49 12.12
2/6/2021 7:15:00 AM 4.15 39.47 0.247 7.8 0.7 12.13
2/6/2021 7:30:00 AM 4.11 39.398 0.251 7.81 1.36 12.14
2/6/2021 7:45:00 AM 4.06 39.308 0.241 7.84 1.72 12.2
2/6/2021 8:00:00 AM 4.03 39.254 0.24 7.81 1.49 12.22
2/6/2021 8:15:00 AM 4.01 39.218 0.247 7.82 0.94 12.3
2/6/2021 8:30:00 AM 4.01 39.218 0.251 7.75 1.4 12.37
2/6/2021 8:45:00 AM 4.02 39.236 0.247 7.61 1.72 12.44
2/6/2021 9:00:00 AM 4.02 39.236 0.246 7.42 0.9 12.53
2/6/2021 9:15:00 AM 4.04 39.272 0.249 7.26 0.92 12.57
2/6/2021 9:30:00 AM 4.06 39.308 0.254 7.09 1.07 12.66
2/6/2021 9:45:00 AM 4.11 39.398 0.257 7.01 1.82 12.74
2/6/2021 10:00:00 AM 4.13 39.434 0.273 6.93 1.41 12.81
2/6/2021 10:15:00 AM 4.14 39.452 0.29 6.85 1.1 12.88
2/6/2021 10:30:00 AM 4.16 39.488 0.254 6.8 0.82 12.92
2/6/2021 10:45:00 AM 4.19 39.542 0.249 6.78 1.4 12.99
2/6/2021 11:00:00 AM 4.21 39.578 0.256 6.75 0.75 13.07
2/6/2021 11:15:00 AM 4.27 39.686 0.252 6.71 1.56 13.15
2/6/2021 11:30:00 AM 4.34 39.812 0.251 6.69 0.99 13.2
2/6/2021 11:45:00 AM 4.41 39.938 0.252 6.67 1.16 13.27
2/6/2021 12:00:00 PM 4.46 40.028 0.249 6.66 0.9 13.32
2/6/2021 12:15:00 PM 4.49 40.082 0.255 6.66 0.72 13.42
2/6/2021 12:30:00 PM 4.56 40.208 0.256 6.65 1.78 13.44
2/6/2021 12:45:00 PM 4.65 40.37 0.256 6.65 1.76 13.5
2/6/2021 1:00:00 PM 4.75 40.55 0.257 6.64 0.61 13.56
2/6/2021 1:15:00 PM 4.81 40.658 0.257 6.66 1.78 13.59
2/6/2021 1:30:00 PM 4.87 40.766 0.258 6.68 0.85 13.62
2/6/2021 1:45:00 PM 4.91 40.838 0.258 6.73 0.73 13.66
2/6/2021 2:00:00 PM 4.98 40.964 0.258 6.76 0.72 13.69
2/6/2021 2:15:00 PM 5 41 0.259 6.82 1.02 13.71
2/6/2021 2:30:00 PM 5.06 41.108 0.252 6.87 0.73 13.74
2/6/2021 2:45:00 PM 5.12 41.216 0.244 6.88 0.83 13.76
2/6/2021 3:00:00 PM 5.15 41.27 0.247 6.88 0.96 13.81
2/6/2021 3:15:00 PM 5.22 41.396 0.246 6.91 1.26 13.81
2/6/2021 3:30:00 PM 5.26 41.468 0.245 6.93 0.95 13.85
2/6/2021 3:45:00 PM 5.3 41.54 0.245 6.94 1.06 13.87
2/6/2021 4:00:00 PM 5.32 41.576 0.244 6.98 0.93 13.87
2/6/2021 4:15:00 PM 5.33 41.594 0.246 7.01 1.11 13.87
2/6/2021 4:30:00 PM 5.32 41.576 0.246 7.08 0.81 13.84
2/6/2021 4:45:00 PM 5.31 41.558 0.246 7.02 1.05 13.82
2/6/2021 5:00:00 PM 5.29 41.522 0.244 7.05 1.26 13.75
2/6/2021 5:15:00 PM 5.27 41.486 0.245 7.09 1.08 13.68
2/6/2021 5:30:00 PM 5.25 41.45 0.247 7.06 1.16 13.6
2/6/2021 5:45:00 PM 5.23 41.414 0.258 7.11 1.12 13.53
2/6/2021 6:00:00 PM 5.21 41.378 0.248 7.23 1.08 13.45
2/6/2021 6:15:00 PM 5.18 41.324 0.243 7.34 1.04 13.36
2/6/2021 6:30:00 PM 5.16 41.288 0.274 7.43 1.44 13.28
2/6/2021 6:45:00 PM 5.13 41.234 0.272 7.55 1.08 13.22
2/6/2021 7:00:00 PM 5.11 41.198 0.232 7.61 1.14 13.15
2/6/2021 7:15:00 PM 5.09 41.162 0.241 7.74 2.59 13.07
2/6/2021 7:30:00 PM 5.06 41.108 0.251 7.82 0.79 13.03
2/6/2021 7:45:00 PM 5.04 41.072 0.254 7.91 0.93 12.98
2/6/2021 8:00:00 PM 5.02 41.036 0.258 7.92 1.07 12.93
2/6/2021 8:15:00 PM 4.99 40.982 0.261 7.95 1.07 12.85
2/6/2021 8:30:00 PM 4.97 40.946 0.233 7.99 1.03 12.81
2/6/2021 8:45:00 PM 4.95 40.91 0.248 8.03 1.03 12.72
2/6/2021 9:00:00 PM 4.93 40.874 0.262 8.03 0.89 12.69
2/6/2021 9:15:00 PM 4.92 40.856 0.273 8.03 0.73 12.64
2/6/2021 9:30:00 PM 4.92 40.856 0.275 8.04 1 12.57
2/6/2021 9:45:00 PM 4.92 40.856 0.314 8.03 1.12 12.53
2/6/2021 10:00:00 PM 4.91 40.838 0.302 8.02 1.16 12.48
2/6/2021 10:15:00 PM 4.91 40.838 0.309 8.01 1.07 12.43
2/6/2021 10:30:00 PM 4.91 40.838 0.306 8.01 2.22 12.4
2/6/2021 10:45:00 PM 4.91 40.838 0.309 8.01 0.85 12.36
2/6/2021 11:00:00 PM 4.9 40.82 0.305 7.99 1.2 12.32
2/6/2021 11:15:00 PM 4.9 40.82 0.3 7.98 1.11 12.31
2/6/2021 11:30:00 PM 4.89 40.802 0.303 7.98 1.2 12.27
2/6/2021 11:45:00 PM 4.88 40.784 0.298 7.99 1.66 12.27
2/7/2021 12:00:00 AM 4.88 40.784 0.3 7.98 1.56 12.25
2/7/2021 12:15:00 AM 4.88 40.784 0.297 7.98 1.36 12.24
2/7/2021 12:30:00 AM 4.87 40.766 0.3 7.97 1.45 12.19
2/7/2021 12:45:00 AM 4.87 40.766 0.282 7.97 1.03 12.17
2/7/2021 1:00:00 AM 4.87 40.766 0.258 7.97 1.04 12.16
2/7/2021 1:15:00 AM 4.87 40.766 0.263 7.97 1.52 12.15
2/7/2021 1:30:00 AM 4.86 40.748 0.262 7.95 0.94 12.11
2/7/2021 1:45:00 AM 4.85 40.73 0.255 7.93 1.23 12.1
2/7/2021 2:00:00 AM 4.84 40.712 0.245 7.9 1.15 12.1
2/7/2021 2:15:00 AM 4.83 40.694 0.251 7.9 1.41 12.1
2/7/2021 2:30:00 AM 4.81 40.658 0.251 7.89 0.77 12.1
2/7/2021 2:45:00 AM 4.8 40.64 0.241 7.91 1.06 12.09
2/7/2021 3:00:00 AM 4.79 40.622 0.243 7.9 1.39 12.1
2/7/2021 3:15:00 AM 4.77 40.586 0.243 7.89 0.66 12.1
2/7/2021 3:30:00 AM 4.76 40.568 0.246 7.88 3.18 12.09
2/7/2021 3:45:00 AM 4.75 40.55 0.24 7.88 1.54 12.09
2/7/2021 4:00:00 AM 4.74 40.532 0.24 7.88 3.94 12.08
2/7/2021 4:15:00 AM 4.71 40.478 0.24 7.86 1.66 12.08
2/7/2021 4:30:00 AM 4.7 40.46 0.23 7.87 1.28 12.08
2/7/2021 4:45:00 AM 4.69 40.442 0.212 7.87 1.26 12.09
2/7/2021 5:00:00 AM 4.67 40.406 0.265 7.84 1.31 12.1
2/7/2021 5:15:00 AM 4.65 40.37 0.274 7.83 1.5 12.11
2/7/2021 5:30:00 AM 4.62 40.316 0.269 7.81 1.21 12.09
2/7/2021 5:45:00 AM 4.58 40.244 0.264 7.82 1.77 12.11
2/7/2021 6:00:00 AM 4.52 40.136 0.269 7.83 1.37 12.1
2/7/2021 6:15:00 AM 4.48 40.064 0.253 7.84 1.25 12.11
2/7/2021 6:30:00 AM 4.45 40.01 0.247 7.84 1.08 12.11
2/7/2021 6:45:00 AM 4.44 39.992 0.273 7.85 1.59 12.11
2/7/2021 7:00:00 AM 4.4 39.92 0.275 7.84 1.76 12.11
2/7/2021 7:15:00 AM 4.38 39.884 0.253 7.83 1.22 12.11
2/7/2021 7:30:00 AM 4.32 39.776 0.255 7.82 1.07 12.11
2/7/2021 7:45:00 AM 4.24 39.632 0.243 7.8 1.03 12.15
2/7/2021 8:00:00 AM 4.23 39.614 0.245 7.79 2.37 12.16
2/7/2021 8:15:00 AM 4.22 39.596 0.241 7.77 1.16 12.2
2/7/2021 8:30:00 AM 4.21 39.578 0.245 7.78 1.25 12.25
2/7/2021 8:45:00 AM 4.2 39.56 0.246 7.76 0.9 12.33
2/7/2021 9:00:00 AM 4.2 39.56 0.249 7.74 1.29 12.41
2/7/2021 9:15:00 AM 4.19 39.542 0.255 7.74 1.52 12.49
2/7/2021 9:30:00 AM 4.18 39.524 0.254 7.73 1.3 12.55
2/7/2021 9:45:00 AM 4.17 39.506 0.252 7.69 1.17 12.6
2/7/2021 10:00:00 AM 4.13 39.434 0.252 7.69 1.03 12.66
2/7/2021 10:15:00 AM 4.1 39.38 0.244 7.67 1.44 12.72
2/7/2021 10:30:00 AM 4.09 39.362 0.245 7.63 0.86 12.79
2/7/2021 10:45:00 AM 4.12 39.416 0.24 7.6 1.04 12.89
2/7/2021 11:00:00 AM 4.16 39.488 0.215 7.57 1.21 12.98
2/7/2021 11:15:00 AM 4.19 39.542 0.208 7.52 1.46 13.08
2/7/2021 11:30:00 AM 4.22 39.596 0.208 7.51 1.2 13.17
2/7/2021 11:45:00 AM 4.25 39.65 0.208 7.5 1.71 13.26
2/7/2021 12:00:00 PM 4.28 39.704 0.214 7.52 0.93 13.36
2/7/2021 12:15:00 PM 4.31 39.758 0.208 7.5 1.27 13.4
2/7/2021 12:30:00 PM 4.35 39.83 0.248 7.47 0.77 13.46
2/7/2021 12:45:00 PM 4.41 39.938 0.232 7.43 2.93 13.51
2/7/2021 1:00:00 PM 4.45 40.01 0.254 7.38 3.09 13.57
2/7/2021 1:15:00 PM 4.49 40.082 0.258 7.36 1.78 13.63
2/7/2021 1:30:00 PM 4.53 40.154 0.262 7.33 1.01 13.68
2/7/2021 1:45:00 PM 4.55 40.19 0.246 7.33 0.8 13.71
2/7/2021 2:00:00 PM 4.59 40.262 0.264 7.34 0.69 13.75
2/7/2021 2:15:00 PM 4.67 40.406 0.241 7.33 0.72 13.81
2/7/2021 2:30:00 PM 4.71 40.478 0.261 7.32 1.16 13.85
2/7/2021 2:45:00 PM 4.78 40.604 0.265 7.32 0.63 13.88
2/7/2021 3:00:00 PM 4.81 40.658 0.258 7.33 0.95 13.93
2/7/2021 3:15:00 PM 4.85 40.73 0.265 7.35 0.96 13.94
2/7/2021 3:30:00 PM 4.88 40.784 0.252 7.4 0.84 13.95
2/7/2021 3:45:00 PM 4.91 40.838 0.253 7.42 1.64 13.96
2/7/2021 4:00:00 PM 4.94 40.892 0.263 7.5 0.67 13.95
2/7/2021 4:15:00 PM 4.93 40.874 0.256 7.62 1.17 13.93
2/7/2021 4:30:00 PM 4.91 40.838 0.262 7.7 0.91 13.91
2/7/2021 4:45:00 PM 4.88 40.784 0.26 7.78 1.19 13.87
2/7/2021 5:00:00 PM 4.84 40.712 0.261 7.84 0.73 13.84
2/7/2021 5:15:00 PM 4.82 40.676 0.26 7.88 0.83 13.77
2/7/2021 5:30:00 PM 4.78 40.604 0.257 7.96 1.35 13.69
2/7/2021 5:45:00 PM 4.72 40.496 0.245 8.05 1.05 13.63
2/7/2021 6:00:00 PM 4.68 40.424 0.269 8.08 1.42 13.55
2/7/2021 6:15:00 PM 4.63 40.334 0.252 8.1 1.33 13.49
2/7/2021 6:30:00 PM 4.57 40.226 0.268 8.1 0.91 13.41
2/7/2021 6:45:00 PM 4.54 40.172 0.25 8.11 0.78 13.32
2/7/2021 7:00:00 PM 4.5 40.1 0.311 8.1 1.76 13.27
2/7/2021 7:15:00 PM 4.45 40.01 0.288 8.11 1.17 13.2
2/7/2021 7:30:00 PM 4.38 39.884 0.261 8.12 1.17 13.15
2/7/2021 7:45:00 PM 4.33 39.794 0.251 8.11 0.93 13.09
2/7/2021 8:00:00 PM 4.26 39.668 0.258 8.09 1.27 13.05
2/7/2021 8:15:00 PM 4.2 39.56 0.255 8.07 1.05 13.01
2/7/2021 8:30:00 PM 4.14 39.452 0.261 8.09 0.98 12.99
2/7/2021 8:45:00 PM 4.09 39.362 0.256 8.09 1.13 12.94
2/7/2021 9:00:00 PM 4.05 39.29 0.257 8.09 0.74 12.91
2/7/2021 9:15:00 PM 3.98 39.164 0.265 8.08 0.75 12.88
2/7/2021 9:30:00 PM 3.94 39.092 0.266 8.07 1.22 12.82
2/7/2021 9:45:00 PM 3.89 39.002 0.274 8.06 0.94 12.8
2/7/2021 10:00:00 PM 3.86 38.948 0.285 8.05 1 12.76
2/7/2021 10:15:00 PM 3.84 38.912 0.264 8.04 1.19 12.74
2/7/2021 10:30:00 PM 3.8 38.84 0.265 8.04 1.24 12.72
2/7/2021 10:45:00 PM 3.75 38.75 0.264 8.03 0.77 12.72
2/7/2021 11:00:00 PM 3.72 38.696 0.264 8.03 0.76 12.69
2/7/2021 11:15:00 PM 3.7 38.66 0.27 8.02 1.51 12.67
2/7/2021 11:30:00 PM 3.67 38.606 0.258 8.02 1.14 12.68
2/7/2021 11:45:00 PM 3.64 38.552 0.274 8.02 1.11 12.69
2/8/2021 12:00:00 AM 3.61 38.498 0.271 8.03 0.96 12.67
2/8/2021 12:15:00 AM 3.59 38.462 0.266 8.03 1.55 12.65
2/8/2021 12:30:00 AM 3.56 38.408 0.265 8.04 1.96 12.64
2/8/2021 12:45:00 AM 3.52 38.336 0.264 8.04 1.01 12.63
2/8/2021 1:00:00 AM 3.5 38.3 0.265 8.03 1.03 12.62
2/8/2021 1:15:00 AM 3.45 38.21 0.266 8.03 1.15 12.63
2/8/2021 1:30:00 AM 3.43 38.174 0.265 8.03 0.81 12.63
2/8/2021 1:45:00 AM 3.4 38.12 0.268 8.03 0.74 12.64
2/8/2021 2:00:00 AM 3.37 38.066 0.265 8.04 1.05 12.66
2/8/2021 2:15:00 AM 3.3 37.94 0.259 8.04 1.19 12.65
2/8/2021 2:30:00 AM 3.3 37.94 0.264 8.04 1.37 12.66
2/8/2021 2:45:00 AM 3.26 37.868 0.262 8.04 0.94 12.68
2/8/2021 3:00:00 AM 3.22 37.796 0.271 8.05 1.37 12.69
2/8/2021 3:15:00 AM 3.19 37.742 0.261 8.05 1.46 12.7
2/8/2021 3:30:00 AM 3.15 37.67 0.292 8.05 1.61 12.72
2/8/2021 3:45:00 AM 3.11 37.598 0.277 8.05 1.02 12.71
2/8/2021 4:00:00 AM 3.07 37.526 0.285 8.05 1.64 12.75
2/8/2021 4:15:00 AM 3.03 37.454 0.282 8.05 1.87 12.71
2/8/2021 4:30:00 AM 2.98 37.364 0.288 8.06 0.8 12.75
2/8/2021 4:45:00 AM 2.94 37.292 0.285 8.05 0.79 12.78
2/8/2021 5:00:00 AM 2.91 37.238 0.291 8.05 1.04 12.8
2/8/2021 5:15:00 AM 2.85 37.13 0.298 8.05 0.97 12.82
2/8/2021 5:30:00 AM 2.8 37.04 0.294 8.05 1.68 12.84
2/8/2021 5:45:00 AM 2.75 36.95 0.29 8.05 0.62 12.86
2/8/2021 6:00:00 AM 2.7 36.86 0.288 8.05 1.03 12.9
2/8/2021 6:15:00 AM 2.65 36.77 0.288 8.05 0.94 12.89
2/8/2021 6:30:00 AM 2.61 36.698 0.284 8.04 0.81 12.92
2/8/2021 6:45:00 AM 2.57 36.626 0.304 8.03 1.54 12.92
2/8/2021 7:00:00 AM 2.53 36.554 0.31 8.04 1.12 12.95
2/8/2021 7:15:00 AM 2.47 36.446 0.303 8.03 1.1 12.96
2/8/2021 7:30:00 AM 2.43 36.374 0.305 8.02 0.73 12.96
2/8/2021 7:45:00 AM 2.39 36.302 0.3 8.03 1.03 13
2/8/2021 8:00:00 AM 2.35 36.23 0.317 8.02 1.45 13.07
2/8/2021 8:15:00 AM 2.33 36.194 0.316 8.03 0.97 13.13
2/8/2021 8:30:00 AM 2.32 36.176 0.316 8.02 1.28 13.23
2/8/2021 8:45:00 AM 2.32 36.176 0.316 8.02 0.74 13.31
2/8/2021 9:00:00 AM 2.32 36.176 0.315 8.02 0.83 13.4
2/8/2021 9:15:00 AM 2.32 36.176 0.317 8.02 0.64 13.48
2/8/2021 9:30:00 AM 2.35 36.23 0.317 8.03 0.87 13.57
2/8/2021 9:45:00 AM 2.4 36.32 0.268 8.03 0.74 13.66
2/8/2021 10:00:00 AM 2.46 36.428 0.319 8.02 1.99 13.77
2/8/2021 10:15:00 AM 2.51 36.518 0.308 8.02 0.83 13.86
2/8/2021 10:30:00 AM 2.57 36.626 0.307 8.02 0.74 13.95
2/8/2021 10:45:00 AM 2.66 36.788 0.309 8.04 0.63 14.03
2/8/2021 11:00:00 AM 2.73 36.914 0.256 8.05 0.92 14.1
2/8/2021 11:15:00 AM 2.83 37.094 0.289 8.04 0.8 14.18
2/8/2021 11:30:00 AM 2.91 37.238 0.284 8.05 0.85 14.27
2/8/2021 11:45:00 AM 2.94 37.292 0.29 8.06 0.94 14.33
2/8/2021 12:00:00 PM 2.97 37.346 0.296 8.06 0.83 14.4
2/8/2021 12:15:00 PM 3.01 37.418 0.257 8.07 0.88 14.44
2/8/2021 12:30:00 PM 3.09 37.562 0.252 8.07 0.89 14.52
2/8/2021 12:45:00 PM 3.15 37.67 0.293 8.08 0.71 14.55
2/8/2021 1:00:00 PM 3.21 37.778 0.281 8.07 1.09 14.56
2/8/2021 1:15:00 PM 3.28 37.904 0.25 8.09 1.04 14.61
2/8/2021 1:30:00 PM 3.35 38.03 0.289 8.04 0.85 14.65
2/8/2021 1:45:00 PM 3.43 38.174 0.263 8.04 1.66 14.65
2/8/2021 2:00:00 PM 3.5 38.3 0.262 8.01 0.96 14.66
2/8/2021 2:15:00 PM 3.55 38.39 0.267 8.01 1.31 14.7
2/8/2021 2:30:00 PM 3.6 38.48 0.284 8 1.19 14.7
2/8/2021 2:45:00 PM 3.63 38.534 0.305 8 1.4 14.71
2/8/2021 3:00:00 PM 3.65 38.57 0.303 8 0.79 14.71
2/8/2021 3:15:00 PM 3.66 38.588 0.297 7.98 2.2 14.71
2/8/2021 3:30:00 PM 3.66 38.588 0.301 7.98 0.85 14.7
2/8/2021 3:45:00 PM 3.66 38.588 0.298 7.98 0.53 14.71
2/8/2021 4:00:00 PM 3.65 38.57 0.299 7.96 1.31 14.68
2/8/2021 4:15:00 PM 3.65 38.57 0.3 7.96 0.82 14.67
2/8/2021 4:30:00 PM 3.63 38.534 0.3 7.95 1.64 14.61
2/8/2021 4:45:00 PM 3.62 38.516 0.307 7.96 1.18 14.59
2/8/2021 5:00:00 PM 3.59 38.462 0.303 7.96 1.1 14.56
2/8/2021 5:15:00 PM 3.56 38.408 0.306 7.98 1.47 14.49
2/8/2021 5:30:00 PM 3.53 38.354 0.302 7.99 1.34 14.39
2/8/2021 5:45:00 PM 3.49 38.282 0.302 8.04 0.85 14.32
2/8/2021 6:00:00 PM 3.44 38.192 0.301 8.09 0.73 14.25
2/8/2021 6:15:00 PM 3.41 38.138 0.302 8.1 1.79 14.17
2/8/2021 6:30:00 PM 3.37 38.066 0.313 8.13 0.85 14.08
2/8/2021 6:45:00 PM 3.33 37.994 0.269 8.14 0.66 14.02
2/8/2021 7:00:00 PM 3.29 37.922 0.262 8.14 0.87 13.96
2/8/2021 7:15:00 PM 3.25 37.85 0.261 8.16 0.84 13.89
2/8/2021 7:30:00 PM 3.22 37.796 0.276 8.14 0.73 13.84
2/8/2021 7:45:00 PM 3.19 37.742 0.253 8.14 2.44 13.78
2/8/2021 8:00:00 PM 3.16 37.688 0.253 8.14 1.49 13.74
2/8/2021 8:15:00 PM 3.12 37.616 0.26 8.12 2 13.7
2/8/2021 8:30:00 PM 3.09 37.562 0.27 8.13 1.03 13.65
2/8/2021 8:45:00 PM 3.05 37.49 0.268 8.13 1.61 13.6
2/8/2021 9:00:00 PM 3.02 37.436 0.269 8.12 1.27 13.58
2/8/2021 9:15:00 PM 2.98 37.364 0.277 8.13 1.2 13.55
2/8/2021 9:30:00 PM 2.94 37.292 0.272 8.12 2.13 13.51
2/8/2021 9:45:00 PM 2.93 37.274 0.278 8.11 0.73 13.46
2/8/2021 10:00:00 PM 2.91 37.238 0.313 8.09 0.92 13.4
2/8/2021 10:15:00 PM 2.87 37.166 0.299 8.08 0.97 13.37
2/8/2021 10:30:00 PM 2.86 37.148 0.296 8.08 1.4 13.35
2/8/2021 10:45:00 PM 2.85 37.13 0.316 8.07 1.03 13.31
2/8/2021 11:00:00 PM 2.85 37.13 0.305 8.06 0.63 13.26
2/8/2021 11:15:00 PM 2.83 37.094 0.3 8.06 1.85 13.25
2/8/2021 11:30:00 PM 2.82 37.076 0.303 8.06 0.47 13.23
2/8/2021 11:45:00 PM 2.79 37.022 0.318 8.05 0.89 13.22
2/9/2021 12:00:00 AM 2.78 37.004 0.314 8.05 1.38 13.19
2/9/2021 12:15:00 AM 2.77 36.986 0.32 8.05 0.87 13.15
2/9/2021 12:30:00 AM 2.77 36.986 0.315 8.04 1.14 13.13
2/9/2021 12:45:00 AM 2.76 36.968 0.312 8.04 0.49 13.13
2/9/2021 1:00:00 AM 2.78 37.004 0.319 8.04 0.62 13.12
2/9/2021 1:15:00 AM 2.8 37.04 0.319 8.03 0.86 13.1
2/9/2021 1:30:00 AM 2.82 37.076 0.319 8.02 0.9 13.06
2/9/2021 1:45:00 AM 2.83 37.094 0.321 8.01 0.65 13.04
2/9/2021 2:00:00 AM 2.84 37.112 0.32 8.01 0.57 13.03
2/9/2021 2:15:00 AM 2.85 37.13 0.321 8 1.5 13.03
2/9/2021 2:30:00 AM 2.85 37.13 0.322 7.99 0.79 13.01
2/9/2021 2:45:00 AM 2.86 37.148 0.32 7.98 1.16 13.01
2/9/2021 3:00:00 AM 2.86 37.148 0.319 7.98 1.41 13
2/9/2021 3:15:00 AM 2.86 37.148 0.323 7.97 0.99 12.97
2/9/2021 3:30:00 AM 2.85 37.13 0.319 7.95 0.86 12.98
2/9/2021 3:45:00 AM 2.85 37.13 0.319 7.94 1.66 12.98
2/9/2021 4:00:00 AM 2.85 37.13 0.28 7.94 1.98 12.98
2/9/2021 4:15:00 AM 2.82 37.076 0.282 7.93 0.95 12.97
2/9/2021 4:30:00 AM 2.84 37.112 0.323 7.92 0.61 12.97
2/9/2021 4:45:00 AM 2.83 37.094 0.323 7.91 0.79 12.98
2/9/2021 5:00:00 AM 2.82 37.076 0.268 7.92 0.72 12.97
2/9/2021 5:15:00 AM 2.81 37.058 0.279 7.91 0.87 12.98
2/9/2021 5:30:00 AM 2.8 37.04 0.293 7.92 1.17 12.98
2/9/2021 5:45:00 AM 2.78 37.004 0.301 7.91 0.61 12.98
2/9/2021 6:00:00 AM 2.76 36.968 0.294 7.92 1.77 12.98
2/9/2021 6:15:00 AM 2.74 36.932 0.275 7.94 1.68 12.99
2/9/2021 6:30:00 AM 2.73 36.914 0.242 7.95 0.77 13
2/9/2021 6:45:00 AM 2.72 36.896 0.313 7.93 6.15 12.99
2/9/2021 7:00:00 AM 2.7 36.86 0.296 7.93 1.79 12.96
2/9/2021 7:15:00 AM 2.7 36.86 0.3 7.93 0.86 12.99
2/9/2021 7:30:00 AM 2.69 36.842 0.297 7.93 0.72 12.99
2/9/2021 7:45:00 AM 2.68 36.824 0.295 7.92 0.58 13
2/9/2021 8:00:00 AM 2.67 36.806 0.29 7.92 0.93 13.04
2/9/2021 8:15:00 AM 2.68 36.824 0.308 7.91 0.69 13.08
2/9/2021 8:30:00 AM 2.67 36.806 0.287 7.89 1.04 13.12
2/9/2021 8:45:00 AM 2.68 36.824 0.286 7.9 1.29 13.19
2/9/2021 9:00:00 AM 2.68 36.824 0.29 7.92 0.5 13.28
2/9/2021 9:15:00 AM 2.71 36.878 0.294 7.89 0.95 13.37
2/9/2021 9:30:00 AM 2.74 36.932 0.294 7.89 0.48 13.45
2/9/2021 9:45:00 AM 2.77 36.986 0.312 7.89 0.78 13.54
2/9/2021 10:00:00 AM 2.77 36.986 0.313 7.89 0.83 13.62
2/9/2021 10:15:00 AM 2.75 36.95 0.315 7.9 1.33 13.65
2/9/2021 10:30:00 AM 2.74 36.932 0.314 7.88 0.64 13.66
2/9/2021 10:45:00 AM 2.75 36.95 0.313 7.86 0.75 13.72
2/9/2021 11:00:00 AM 2.8 37.04 0.314 7.84 0.51 13.8
2/9/2021 11:15:00 AM 2.85 37.13 0.312 7.8 0.98 13.85
2/9/2021 11:30:00 AM 2.87 37.166 0.307 7.79 0.35 13.94
2/9/2021 11:45:00 AM 2.89 37.202 0.31 7.78 0.87 14.01
2/9/2021 12:00:00 PM 2.91 37.238 0.307 7.81 0.54 14.08
2/9/2021 12:15:00 PM 2.93 37.274 0.307 7.8 0.65 14.13
2/9/2021 12:30:00 PM 2.98 37.364 0.308 7.79 0.71 14.18
2/9/2021 12:45:00 PM 3.04 37.472 0.308 7.77 1.22 14.28
2/9/2021 1:00:00 PM 3.13 37.634 0.307 7.77 0.64 14.34
2/9/2021 1:15:00 PM 3.19 37.742 0.306 7.74 0.44 14.4
2/9/2021 1:30:00 PM 3.25 37.85 0.304 7.75 0.68 14.45
2/9/2021 1:45:00 PM 3.31 37.958 0.305 7.71 0.61 14.52
2/9/2021 2:00:00 PM 3.39 38.102 0.302 7.73 0.53 14.53
2/9/2021 2:15:00 PM 3.45 38.21 0.299 7.67 0.56 14.56
2/9/2021 2:30:00 PM 3.52 38.336 0.304 7.57 1.05 14.61
2/9/2021 2:45:00 PM 3.58 38.444 0.308 7.49 0.57 14.62
2/9/2021 3:00:00 PM 3.61 38.498 0.299 7.49 2.19 14.66
2/9/2021 3:15:00 PM 3.64 38.552 0.277 7.46 0.54 14.63
2/9/2021 3:30:00 PM 3.66 38.588 0.296 7.41 0.86 14.64
2/9/2021 3:45:00 PM 3.7 38.66 0.295 7.37 1.01 14.6
2/9/2021 4:00:00 PM 3.73 38.714 0.314 7.38 0.76 14.58
2/9/2021 4:15:00 PM 3.76 38.768 0.314 7.36 0.85 14.56
2/9/2021 4:30:00 PM 3.79 38.822 0.315 7.34 1.86 14.53
2/9/2021 4:45:00 PM 3.82 38.876 0.316 7.3 0.84 14.49
2/9/2021 5:00:00 PM 3.83 38.894 0.316 7.31 1.94 14.46
2/9/2021 5:15:00 PM 3.84 38.912 0.317 7.27 3.4 14.39
2/9/2021 5:30:00 PM 3.86 38.948 0.317 7.31 0.69 14.32
2/9/2021 5:45:00 PM 3.86 38.948 0.317 7.36 0.76 14.24
2/9/2021 6:00:00 PM 3.86 38.948 0.314 7.37 0.69 14.13
2/9/2021 6:15:00 PM 3.85 38.93 0.308 7.39 1.3 14.05
2/9/2021 6:30:00 PM 3.85 38.93 0.306 7.44 1.01 13.96
2/9/2021 6:45:00 PM 3.84 38.912 0.256 7.46 0.92 13.87
2/9/2021 7:00:00 PM 3.83 38.894 0.28 7.49 1.14 13.8
2/9/2021 7:15:00 PM 3.81 38.858 0.283 7.52 0.87 13.72
2/9/2021 7:30:00 PM 3.81 38.858 0.29 7.58 0.86 13.65
2/9/2021 7:45:00 PM 3.79 38.822 0.261 7.65 0.34 13.58
2/9/2021 8:00:00 PM 3.76 38.768 0.261 7.66 0.64 13.53
2/9/2021 8:15:00 PM 3.73 38.714 0.255 7.75 0.97 13.47
2/9/2021 8:30:00 PM 3.71 38.678 0.246 7.79 1.02 13.41
2/9/2021 8:45:00 PM 3.69 38.642 0.269 7.83 0.76 13.37
2/9/2021 9:00:00 PM 3.66 38.588 0.271 7.86 0.91 13.31
2/9/2021 9:15:00 PM 3.64 38.552 0.267 7.94 0.74 13.28
2/9/2021 9:30:00 PM 3.61 38.498 0.254 7.96 0.83 13.23
2/9/2021 9:45:00 PM 3.58 38.444 0.254 7.96 0.88 13.18
2/9/2021 10:00:00 PM 3.56 38.408 0.235 7.99 0.56 13.14
2/9/2021 10:15:00 PM 3.54 38.372 0.241 8 0.67 13.1
2/9/2021 10:30:00 PM 3.51 38.318 0.257 8.01 0.94 13.04
2/9/2021 10:45:00 PM 3.49 38.282 0.248 8.01 0.57 13.02
2/9/2021 11:00:00 PM 3.46 38.228 0.253 8.02 0.84 12.99
2/9/2021 11:15:00 PM 3.43 38.174 0.279 8.03 0.77 12.96
2/9/2021 11:30:00 PM 3.42 38.156 0.276 8.02 1.19 12.93
2/9/2021 11:45:00 PM 3.39 38.102 0.238 8.03 0.71 12.92
2/10/2021 12:00:00 AM 3.36 38.048 0.25 8.02 1.02 12.89
2/10/2021 12:15:00 AM 3.32 37.976 0.248 8.03 1.12 12.9
2/10/2021 12:30:00 AM 3.31 37.958 0.214 8.03 0.86 12.89
2/10/2021 12:45:00 AM 3.29 37.922 0.22 8.03 0.58 12.86
2/10/2021 1:00:00 AM 3.26 37.868 0.235 8.03 0.58 12.86
2/10/2021 1:15:00 AM 3.24 37.832 0.23 8.01 0.67 12.83
2/10/2021 1:30:00 AM 3.24 37.832 0.235 8 0.81 12.83
2/10/2021 1:45:00 AM 3.24 37.832 0.234 7.99 1.28 12.82
2/10/2021 2:00:00 AM 3.25 37.85 0.228 7.98 0.47 12.82
2/10/2021 2:15:00 AM 3.26 37.868 0.226 7.94 0.74 12.79
2/10/2021 2:30:00 AM 3.26 37.868 0.219 7.91 1.14 12.81
2/10/2021 2:45:00 AM 3.26 37.868 0.224 7.89 0.47 12.78
2/10/2021 3:00:00 AM 3.26 37.868 0.207 7.86 0.96 12.8
2/10/2021 3:15:00 AM 3.26 37.868 0.209 7.82 0.48 12.76
2/10/2021 3:30:00 AM 3.26 37.868 0.212 7.79 0.96 12.78
2/10/2021 3:45:00 AM 3.27 37.886 0.215 7.75 0.77 12.78
2/10/2021 4:00:00 AM 3.27 37.886 0.212 7.72 0.91 12.79
2/10/2021 4:15:00 AM 3.27 37.886 0.212 7.69 0.8 12.78
2/10/2021 4:30:00 AM 3.27 37.886 0.212 7.69 0.69 12.77
2/10/2021 4:45:00 AM 3.26 37.868 0.212 7.7 0.65 12.78
2/10/2021 5:00:00 AM 3.24 37.832 0.215 7.73 0.4 12.78
2/10/2021 5:15:00 AM 3.22 37.796 0.217 7.76 0.82 12.77
2/10/2021 5:30:00 AM 3.2 37.76 0.22 7.85 1.85 12.78
2/10/2021 5:45:00 AM 3.18 37.724 0.225 7.89 2.31 12.78
2/10/2021 6:00:00 AM 3.16 37.688 0.233 7.9 1.17 12.8
2/10/2021 6:15:00 AM 3.14 37.652 0.227 7.93 0.93 12.78
2/10/2021 6:30:00 AM 3.12 37.616 0.224 7.95 1.51 12.79
2/10/2021 6:45:00 AM 3.12 37.616 0.223 7.95 1.17 12.76
2/10/2021 7:00:00 AM 3.1 37.58 0.22 7.93 1.41 12.76
2/10/2021 7:15:00 AM 3.11 37.598 0.221 7.94 0.76 12.79
2/10/2021 7:30:00 AM 3.1 37.58 0.219 7.93 1.23 12.8
2/10/2021 7:45:00 AM 3.08 37.544 0.22 7.92 0.83 12.82
2/10/2021 8:00:00 AM 3.07 37.526 0.217 7.9 1.26 12.87
2/10/2021 8:15:00 AM 3.06 37.508 0.215 7.9 0.99 12.93
2/10/2021 8:30:00 AM 3.07 37.526 0.215 7.89 1.47 13.01
2/10/2021 8:45:00 AM 3.09 37.562 0.213 7.84 0.94 13.11
2/10/2021 9:00:00 AM 3.12 37.616 0.213 7.8 0.3 13.25
2/10/2021 9:15:00 AM 3.15 37.67 0.212 7.75 0.71 13.35
2/10/2021 9:30:00 AM 3.18 37.724 0.217 7.73 1.12 13.45
2/10/2021 9:45:00 AM 3.22 37.796 0.214 7.71 1.28 13.55
2/10/2021 10:00:00 AM 3.29 37.922 0.211 7.63 0.53 13.67
2/10/2021 10:15:00 AM 3.34 38.012 0.211 7.6 0.41 13.75
2/10/2021 10:30:00 AM 3.41 38.138 0.213 7.61 0.78 13.83
2/10/2021 10:45:00 AM 3.48 38.264 0.215 7.58 0.85 13.93
2/10/2021 11:00:00 AM 3.54 38.372 0.245 7.59 0.63 13.99
2/10/2021 11:15:00 AM 3.57 38.426 0.232 7.58 0.66 14.06
2/10/2021 11:30:00 AM 3.64 38.552 0.231 7.58 0.84 14.1
2/10/2021 11:45:00 AM 3.69 38.642 0.231 7.57 0.66 14.22
2/10/2021 12:00:00 PM 3.77 38.786 0.258 7.55 1.24 14.32
2/10/2021 12:15:00 PM 3.85 38.93 0.233 7.53 0.69 14.4
2/10/2021 12:30:00 PM 3.89 39.002 0.24 7.52 1.16 14.46
2/10/2021 12:45:00 PM 3.95 39.11 0.241 7.55 1.06 14.51
2/10/2021 1:00:00 PM 4.02 39.236 0.217 7.53 0.82 14.56
2/10/2021 1:15:00 PM 4.09 39.362 0.223 7.53 1.01 14.59
2/10/2021 1:30:00 PM 4.15 39.47 0.211 7.51 0.81 14.67
2/10/2021 1:45:00 PM 4.21 39.578 0.208 7.52 0.75 14.68
2/10/2021 2:00:00 PM 4.27 39.686 0.222 7.52 0.81 14.74
2/10/2021 2:15:00 PM 4.32 39.776 0.227 7.52 0.82 14.77
2/10/2021 2:30:00 PM 4.36 39.848 0.209 7.51 0.74 14.77
2/10/2021 2:45:00 PM 4.4 39.92 0.212 7.56 0.45 14.79
2/10/2021 3:00:00 PM 4.44 39.992 0.208 7.49 1.02 14.81
2/10/2021 3:15:00 PM 4.47 40.046 0.21 7.54 0.94 14.81
2/10/2021 3:30:00 PM 4.49 40.082 0.215 7.56 0.86 14.82
2/10/2021 3:45:00 PM 4.51 40.118 0.212 7.56 0.8 14.8
2/10/2021 4:00:00 PM 4.52 40.136 0.213 7.61 0.46 14.77
2/10/2021 4:15:00 PM 4.53 40.154 0.215 7.64 0.54 14.78
2/10/2021 4:30:00 PM 4.54 40.172 0.22 7.71 0.62 14.71
2/10/2021 4:45:00 PM 4.54 40.172 0.215 7.7 1.36 14.68
2/10/2021 5:00:00 PM 4.54 40.172 0.221 7.66 0.85 14.6
2/10/2021 5:15:00 PM 4.53 40.154 0.211 7.67 0.69 14.53
2/10/2021 5:30:00 PM 4.52 40.136 0.211 7.65 0.81 14.42
2/10/2021 5:45:00 PM 4.51 40.118 0.226 7.66 1.82 14.3
2/10/2021 6:00:00 PM 4.49 40.082 0.207 7.75 0.92 14.18
2/10/2021 6:15:00 PM 4.47 40.046 0.218 7.79 0.94 14.12
2/10/2021 6:30:00 PM 4.45 40.01 0.217 7.82 1.27 14.01
2/10/2021 6:45:00 PM 4.43 39.974 0.206 7.82 1.18 13.88
2/10/2021 7:00:00 PM 4.42 39.956 0.207 7.87 1.04 13.81
2/10/2021 7:15:00 PM 4.4 39.92 0.197 7.82 1.1 13.72
2/10/2021 7:30:00 PM 4.38 39.884 0.21 7.83 1.14 13.66
2/10/2021 7:45:00 PM 4.37 39.866 0.208 7.86 1.04 13.58
2/10/2021 8:00:00 PM 4.35 39.83 0.203 7.86 1.01 13.52
2/10/2021 8:15:00 PM 4.34 39.812 0.203 7.85 1.36 13.43
2/10/2021 8:30:00 PM 4.33 39.794 0.205 7.86 1.48 13.39
2/10/2021 8:45:00 PM 4.31 39.758 0.202 7.83 1.31 13.3
2/10/2021 9:00:00 PM 4.3 39.74 0.199 7.81 1.64 13.23
2/10/2021 9:15:00 PM 4.29 39.722 0.2 7.79 1.27 13.16
2/10/2021 9:30:00 PM 4.29 39.722 0.209 7.81 1.26 13.1
2/10/2021 9:45:00 PM 4.27 39.686 0.21 7.87 1.63 13.05
2/10/2021 10:00:00 PM 4.25 39.65 0.213 7.88 1.73 12.98
2/10/2021 10:15:00 PM 4.23 39.614 0.211 7.89 1.41 12.94
2/10/2021 10:30:00 PM 4.18 39.524 0.213 7.88 1.94 12.88
2/10/2021 10:45:00 PM 4.11 39.398 0.204 7.89 1.37 12.82
2/10/2021 11:00:00 PM 4.07 39.326 0.203 7.9 1.81 12.79
2/10/2021 11:15:00 PM 4 39.2 0.203 7.89 1.33 12.74
2/10/2021 11:30:00 PM 4.01 39.218 0.2 7.88 2.14 12.72
2/10/2021 11:45:00 PM 3.95 39.11 0.198 7.86 1.47 12.71
2/11/2021 12:00:00 AM 3.91 39.038 0.197 7.9 1.37 12.67
2/11/2021 12:15:00 AM 3.88 38.984 0.199 7.87 1.56 12.66
2/11/2021 12:30:00 AM 3.87 38.966 0.198 7.85 1.25 12.64
2/11/2021 12:45:00 AM 3.84 38.912 0.198 7.83 1.33 12.63
2/11/2021 1:00:00 AM 3.82 38.876 0.199 7.83 1.99 12.61
2/11/2021 1:15:00 AM 3.8 38.84 0.2 7.83 0.99 12.59
2/11/2021 1:30:00 AM 3.76 38.768 0.202 7.81 1.48 12.59
2/11/2021 1:45:00 AM 3.72 38.696 0.203 7.8 0.99 12.56
2/11/2021 2:00:00 AM 3.69 38.642 0.201 7.77 1.43 12.57
2/11/2021 2:15:00 AM 3.66 38.588 0.206 7.78 1.19 12.56
2/11/2021 2:30:00 AM 3.62 38.516 0.205 7.75 0.93 12.58
2/11/2021 2:45:00 AM 3.61 38.498 0.204 7.73 1.29 12.57
2/11/2021 3:00:00 AM 3.59 38.462 0.204 7.75 1.42 12.58
2/11/2021 3:15:00 AM 3.57 38.426 0.203 7.73 2.72 12.57
2/11/2021 3:30:00 AM 3.56 38.408 0.203 7.73 1.61 12.58
2/11/2021 3:45:00 AM 3.56 38.408 0.201 7.73 0.85 12.59
2/11/2021 4:00:00 AM 3.56 38.408 0.204 7.71 1.13 12.58
2/11/2021 4:15:00 AM 3.56 38.408 0.209 7.72 0.99 12.57
2/11/2021 4:30:00 AM 3.57 38.426 0.213 7.69 2.1 12.57
2/11/2021 4:45:00 AM 3.57 38.426 0.208 7.66 1.23 12.57
2/11/2021 5:00:00 AM 3.57 38.426 0.213 7.66 1.88 12.55
2/11/2021 5:15:00 AM 3.56 38.408 0.206 7.67 1.58 12.58
2/11/2021 5:30:00 AM 3.55 38.39 0.199 7.69 1.71 12.56
2/11/2021 5:45:00 AM 3.54 38.372 0.208 7.7 1.44 12.59
2/11/2021 6:00:00 AM 3.53 38.354 0.2 7.71 1 12.58
2/11/2021 6:15:00 AM 3.53 38.354 0.203 7.7 1.01 12.57
2/11/2021 6:30:00 AM 3.52 38.336 0.206 7.71 1.14 12.58
2/11/2021 6:45:00 AM 3.52 38.336 0.259 7.71 1.29 12.56
2/11/2021 7:00:00 AM 3.52 38.336 0.252 7.7 0.75 12.56
2/11/2021 7:15:00 AM 3.51 38.318 0.245 7.71 1.27 12.56
2/11/2021 7:30:00 AM 3.5 38.3 0.295 7.7 1.22 12.56
2/11/2021 7:45:00 AM 3.5 38.3 0.295 7.7 1.15 12.59
2/11/2021 8:00:00 AM 3.49 38.282 0.292 7.71 1.33 12.62
2/11/2021 8:15:00 AM 3.48 38.264 0.303 7.7 0.67 12.66
2/11/2021 8:30:00 AM 3.47 38.246 0.299 7.68 1.13 12.71
2/11/2021 8:45:00 AM 3.47 38.246 0.3 7.68 1.19 12.78
2/11/2021 9:00:00 AM 3.47 38.246 0.281 7.69 0.69 12.83
2/11/2021 9:15:00 AM 3.47 38.246 0.302 7.68 1.21 12.91
2/11/2021 9:30:00 AM 3.47 38.246 0.303 7.68 0.55 12.99
2/11/2021 9:45:00 AM 3.48 38.264 0.303 7.7 1.17 13.06
2/11/2021 10:00:00 AM 3.49 38.282 0.302 7.68 0.91 13.12
2/11/2021 10:15:00 AM 3.5 38.3 0.3 7.68 1.93 13.18
2/11/2021 10:30:00 AM 3.52 38.336 0.302 7.69 1.22 13.25
2/11/2021 10:45:00 AM 3.54 38.372 0.298 7.7 0.79 13.36
2/11/2021 11:00:00 AM 3.57 38.426 0.285 7.71 0.88 13.45
2/11/2021 11:15:00 AM 3.59 38.462 0.301 7.68 0.89 13.52
2/11/2021 11:30:00 AM 3.63 38.534 0.262 7.72 1 13.65
2/11/2021 11:45:00 AM 3.65 38.57 0.29 7.73 1.18 13.76
2/11/2021 12:00:00 PM 3.67 38.606 0.295 7.73 1.11 13.84
2/11/2021 12:15:00 PM 3.68 38.624 0.288 7.73 1.22 13.93
2/11/2021 12:30:00 PM 3.7 38.66 0.277 7.76 1.07 13.99
2/11/2021 12:45:00 PM 3.74 38.732 0.311 7.74 1.1 14.05
2/11/2021 1:00:00 PM 3.77 38.786 0.298 7.79 0.79 14.11
2/11/2021 1:15:00 PM 3.79 38.822 0.27 7.82 3.51 14.19
2/11/2021 1:30:00 PM 3.83 38.894 0.291 7.8 1.07 14.21
2/11/2021 1:45:00 PM 3.87 38.966 0.27 7.85 1.01 14.31
2/11/2021 2:00:00 PM 3.93 39.074 0.273 7.86 0.51 14.37
2/11/2021 2:15:00 PM 3.99 39.182 0.308 7.89 0.87 14.43
2/11/2021 2:30:00 PM 4.04 39.272 0.284 7.91 1.41 14.48
2/11/2021 2:45:00 PM 4.07 39.326 0.306 7.9 0.91 14.54
2/11/2021 3:00:00 PM 4.1 39.38 0.299 7.93 1.69 14.59
2/11/2021 3:15:00 PM 4.13 39.434 0.305 7.93 1.26 14.62
2/11/2021 3:30:00 PM 4.16 39.488 0.291 7.95 0.9 14.62
2/11/2021 3:45:00 PM 4.17 39.506 0.293 8.01 0.97 14.64
2/11/2021 4:00:00 PM 4.19 39.542 0.29 8.01 1.01 14.67
2/11/2021 4:15:00 PM 4.2 39.56 0.292 8.01 1.09 14.65
2/11/2021 4:30:00 PM 4.19 39.542 0.286 8.03 1.18 14.64
2/11/2021 4:45:00 PM 4.2 39.56 0.287 8.05 1.07 14.58
2/11/2021 5:00:00 PM 4.2 39.56 0.289 8.04 1.02 14.53
2/11/2021 5:15:00 PM 4.21 39.578 0.288 8.06 1.77 14.46
2/11/2021 5:30:00 PM 4.19 39.542 0.289 8.07 1.14 14.38
2/11/2021 5:45:00 PM 4.17 39.506 0.287 8.08 1.3 14.28
2/11/2021 6:00:00 PM 4.16 39.488 0.293 8.08 1.37 14.18
2/11/2021 6:15:00 PM 4.15 39.47 0.279 8.05 1.31 14.08
2/11/2021 6:30:00 PM 4.12 39.416 0.256 8.04 1.97 13.99
2/11/2021 6:45:00 PM 4.09 39.362 0.235 8.05 1.53 13.88
2/11/2021 7:00:00 PM 4.08 39.344 0.21 8.08 1.05 13.81
2/11/2021 7:15:00 PM 4.07 39.326 0.254 8.07 1.33 13.73
2/11/2021 7:30:00 PM 4.04 39.272 0.234 8.04 0.95 13.63
2/11/2021 7:45:00 PM 4.03 39.254 0.283 8.04 1.59 13.6
2/11/2021 8:00:00 PM 4.01 39.218 0.23 8.03 1.23 13.52
2/11/2021 8:15:00 PM 4 39.2 0.237 8.04 0.96 13.46
2/11/2021 8:30:00 PM 3.97 39.146 0.236 8.04 2.15 13.4
2/11/2021 8:45:00 PM 3.96 39.128 0.22 8.03 2.21 13.34
2/11/2021 9:00:00 PM 3.95 39.11 0.231 8.01 1.23 13.26
2/11/2021 9:15:00 PM 3.93 39.074 0.224 8 1.98 13.2
2/11/2021 9:30:00 PM 3.93 39.074 0.208 7.97 0.74 13.14
2/11/2021 9:45:00 PM 3.92 39.056 0.208 7.96 1.25 13.1
2/11/2021 10:00:00 PM 3.91 39.038 0.213 7.96 0.99 13.05
2/11/2021 10:15:00 PM 3.9 39.02 0.208 7.95 1.15 12.99
2/11/2021 10:30:00 PM 3.89 39.002 0.205 7.94 1.05 12.97
2/11/2021 10:45:00 PM 3.88 38.984 0.204 7.93 1.41 12.91
2/11/2021 11:00:00 PM 3.86 38.948 0.203 7.94 1.73 12.88
2/11/2021 11:15:00 PM 3.87 38.966 0.228 7.93 0.8 12.84
2/11/2021 11:30:00 PM 3.86 38.948 0.216 7.92 1.15 12.83
2/11/2021 11:45:00 PM 3.86 38.948 0.224 7.94 0.89 12.8
2/12/2021 12:00:00 AM 3.86 38.948 0.209 7.94 0.54 12.77
2/12/2021 12:15:00 AM 3.85 38.93 0.212 7.93 0.99 12.75
2/12/2021 12:30:00 AM 3.83 38.894 0.228 7.93 1.05 12.74
2/12/2021 12:45:00 AM 3.83 38.894 0.243 7.93 1 12.71
2/12/2021 1:00:00 AM 3.83 38.894 0.236 7.94 1.45 12.67
2/12/2021 1:15:00 AM 3.83 38.894 0.23 7.93 0.87 12.66
2/12/2021 1:30:00 AM 3.82 38.876 0.278 7.92 0.79 12.65
2/12/2021 1:45:00 AM 3.82 38.876 0.282 7.91 1.05 12.63
2/12/2021 2:00:00 AM 3.8 38.84 0.238 7.93 0.82 12.63
2/12/2021 2:15:00 AM 3.78 38.804 0.24 7.93 1.42 12.63
2/12/2021 2:30:00 AM 3.76 38.768 0.25 7.94 1.32 12.62
2/12/2021 2:45:00 AM 3.74 38.732 0.249 7.94 1.35 12.62
2/12/2021 3:00:00 AM 3.72 38.696 0.245 7.96 0.62 12.64
2/12/2021 3:15:00 AM 3.69 38.642 0.243 7.96 0.97 12.62
2/12/2021 3:30:00 AM 3.67 38.606 0.248 7.97 0.78 12.64
2/12/2021 3:45:00 AM 3.65 38.57 0.248 7.97 1.52 12.63
2/12/2021 4:00:00 AM 3.63 38.534 0.25 7.98 2.76 12.61
2/12/2021 4:15:00 AM 3.6 38.48 0.251 7.99 0.79 12.63
2/12/2021 4:30:00 AM 3.57 38.426 0.237 7.99 0.88 12.63
2/12/2021 4:45:00 AM 3.53 38.354 0.273 7.99 1.64 12.64
2/12/2021 5:00:00 AM 3.49 38.282 0.254 8 0.92 12.64
2/12/2021 5:15:00 AM 3.46 38.228 0.303 8.01 0.91 12.65
2/12/2021 5:30:00 AM 3.43 38.174 0.29 8.01 1.59 12.66
2/12/2021 5:45:00 AM 3.4 38.12 0.256 8.01 1.06 12.66
2/12/2021 6:00:00 AM 3.37 38.066 0.254 8.02 0.87 12.67
2/12/2021 6:15:00 AM 3.34 38.012 0.253 8.02 0.88 12.67
2/12/2021 6:30:00 AM 3.32 37.976 0.263 8.01 1.27 12.67
2/12/2021 6:45:00 AM 3.31 37.958 0.292 8.01 0.61 12.68
2/12/2021 7:00:00 AM 3.28 37.904 0.299 8 1.44 12.67
2/12/2021 7:15:00 AM 3.26 37.868 0.286 8 0.72 12.67
2/12/2021 7:30:00 AM 3.24 37.832 0.316 7.99 3.97 12.69
2/12/2021 7:45:00 AM 3.23 37.814 0.317 7.98 1.09 12.71
2/12/2021 8:00:00 AM 3.22 37.796 0.318 7.98 0.87 12.77
2/12/2021 8:15:00 AM 3.22 37.796 0.317 7.99 0.89 12.84
2/12/2021 8:30:00 AM 3.21 37.778 0.316 7.99 0.77 12.93
2/12/2021 8:45:00 AM 3.21 37.778 0.315 7.99 0.59 13.04
2/12/2021 9:00:00 AM 3.21 37.778 0.315 7.99 0.79 13.12
2/12/2021 9:15:00 AM 3.23 37.814 0.311 7.99 0.89 13.25
2/12/2021 9:30:00 AM 3.24 37.832 0.307 8.01 0.83 13.37
2/12/2021 9:45:00 AM 3.26 37.868 0.315 8.03 0.76 13.47
2/12/2021 10:00:00 AM 3.3 37.94 0.292 8.02 0.76 13.57
2/12/2021 10:15:00 AM 3.33 37.994 0.298 8.04 1.13 13.67
2/12/2021 10:30:00 AM 3.37 38.066 0.308 8.04 0.79 13.79
2/12/2021 10:45:00 AM 3.41 38.138 0.317 8.05 1 13.88
2/12/2021 11:00:00 AM 3.44 38.192 0.315 8.04 0.71 13.97
2/12/2021 11:15:00 AM 3.49 38.282 0.317 8.05 1.42 14.04
2/12/2021 11:30:00 AM 3.52 38.336 0.314 8.06 1.35 14.16
2/12/2021 11:45:00 AM 3.57 38.426 0.302 8.08 0.83 14.23
2/12/2021 12:00:00 PM 3.63 38.534 0.31 8.07 0.89 14.32
2/12/2021 12:15:00 PM 3.67 38.606 0.31 8.08 0.91 14.39
2/12/2021 12:30:00 PM 3.72 38.696 0.309 8.08 0.47 14.49
2/12/2021 12:45:00 PM 3.79 38.822 0.307 8.1 1 14.58
2/12/2021 1:00:00 PM 3.85 38.93 0.304 8.08 1.01 14.62
2/12/2021 1:15:00 PM 3.9 39.02 0.308 8.09 0.63 14.69
2/12/2021 1:30:00 PM 3.95 39.11 0.307 8.08 0.99 14.75
2/12/2021 1:45:00 PM 4.02 39.236 0.306 8.13 0.68 14.77
2/12/2021 2:00:00 PM 4.11 39.398 0.302 8.08 0.97 14.83
2/12/2021 2:15:00 PM 4.17 39.506 0.275 8.07 0.98 14.88
2/12/2021 2:30:00 PM 4.22 39.596 0.303 8.1 0.68 14.92
2/12/2021 2:45:00 PM 4.24 39.632 0.307 8.12 1 14.94
2/12/2021 3:00:00 PM 4.25 39.65 0.302 8.15 0.6 14.95
2/12/2021 3:15:00 PM 4.27 39.686 0.301 8.14 0.67 14.93
2/12/2021 3:30:00 PM 4.26 39.668 0.305 8.16 1.04 14.91
2/12/2021 3:45:00 PM 4.26 39.668 0.302 8.17 0.75 14.91
2/12/2021 4:00:00 PM 4.25 39.65 0.302 8.17 0.7 14.85
2/12/2021 4:15:00 PM 4.25 39.65 0.299 8.16 0.72 14.79
2/12/2021 4:30:00 PM 4.24 39.632 0.296 8.17 0.83 14.76
2/12/2021 4:45:00 PM 4.24 39.632 0.298 8.22 0.88 14.7
2/12/2021 5:00:00 PM 4.23 39.614 0.299 8.23 0.61 14.62
2/12/2021 5:15:00 PM 4.22 39.596 0.3 8.21 0.73 14.56
2/12/2021 5:30:00 PM 4.2 39.56 0.299 8.23 0.6 14.47
2/12/2021 5:45:00 PM 4.18 39.524 0.3 8.21 0.66 14.39
2/12/2021 6:00:00 PM 4.16 39.488 0.26 8.18 0.58 14.26
2/12/2021 6:15:00 PM 4.14 39.452 0.277 8.13 0.63 14.18
2/12/2021 6:30:00 PM 4.11 39.398 0.292 8.04 0.94 14.07
2/12/2021 6:45:00 PM 4.09 39.362 0.282 7.89 2.46 13.99
2/12/2021 7:00:00 PM 4.07 39.326 0.278 7.76 1.27 13.9
2/12/2021 7:15:00 PM 4.04 39.272 0.3 7.58 1.59 13.82
2/12/2021 7:30:00 PM 4.03 39.254 0.298 7.38 2.16 13.74
2/12/2021 7:45:00 PM 4.02 39.236 0.28 7.21 2.59 13.65
2/12/2021 8:00:00 PM 4.01 39.218 0.273 7.07 1.94 13.56
2/12/2021 8:15:00 PM 4.01 39.218 0.265 6.97 1.75 13.48
2/12/2021 8:30:00 PM 4 39.2 0.259 6.92 1.59 13.41
2/12/2021 8:45:00 PM 4.01 39.218 0.267 6.95 1.78 13.33
2/12/2021 9:00:00 PM 4.01 39.218 0.286 7.16 1.38 13.25
2/12/2021 9:15:00 PM 4.01 39.218 0.28 7.46 1.48 13.18
2/12/2021 9:30:00 PM 4.02 39.236 0.292 7.67 1.24 13.12
2/12/2021 9:45:00 PM 4.02 39.236 0.282 7.81 1.39 13.05
2/12/2021 10:00:00 PM 4.01 39.218 0.311 7.88 0.93 13
2/12/2021 10:15:00 PM 4.02 39.236 0.309 7.91 1.29 12.97
2/12/2021 10:30:00 PM 4.02 39.236 0.296 7.88 1.54 12.91
2/12/2021 10:45:00 PM 4.02 39.236 0.28 7.89 1.32 12.88
2/12/2021 11:00:00 PM 4.01 39.218 0.308 7.9 1.17 12.83
2/12/2021 11:15:00 PM 4 39.2 0.308 7.92 1.05 12.79
2/12/2021 11:30:00 PM 3.99 39.182 0.285 7.92 1.54 12.79
2/12/2021 11:45:00 PM 3.98 39.164 0.262 7.93 1.18 12.78
2/13/2021 12:00:00 AM 3.98 39.164 0.257 7.92 1.01 12.74
2/13/2021 12:15:00 AM 3.97 39.146 0.256 7.93 0.92 12.72
2/13/2021 12:30:00 AM 3.97 39.146 0.245 7.91 1.34 12.69
2/13/2021 12:45:00 AM 3.95 39.11 0.262 7.89 1.13 12.68
2/13/2021 1:00:00 AM 3.94 39.092 0.252 7.89 1.04 12.67
2/13/2021 1:15:00 AM 3.93 39.074 0.274 7.88 1.59 12.65
2/13/2021 1:30:00 AM 3.91 39.038 0.275 7.89 1.57 12.65
2/13/2021 1:45:00 AM 3.89 39.002 0.276 7.87 1.23 12.65
2/13/2021 2:00:00 AM 3.87 38.966 0.272 7.85 0.67 12.62
2/13/2021 2:15:00 AM 3.85 38.93 0.293 7.87 1.06 12.63
2/13/2021 2:30:00 AM 3.83 38.894 0.239 7.89 1.29 12.64
2/13/2021 2:45:00 AM 3.8 38.84 0.254 7.9 0.81 12.62
2/13/2021 3:00:00 AM 3.78 38.804 0.275 7.91 0.7 12.65
2/13/2021 3:15:00 AM 3.76 38.768 0.271 7.91 1.38 12.64
2/13/2021 3:30:00 AM 3.75 38.75 0.29 7.9 1.84 12.62
2/13/2021 3:45:00 AM 3.73 38.714 0.293 7.89 1.56 12.61
2/13/2021 4:00:00 AM 3.7 38.66 0.294 7.86 1.92 12.63
2/13/2021 4:15:00 AM 3.7 38.66 0.294 7.88 1.09 12.62
2/13/2021 4:30:00 AM 3.68 38.624 0.283 7.88 1.38 12.61
2/13/2021 4:45:00 AM 3.66 38.588 0.258 7.87 1.07 12.61
2/13/2021 5:00:00 AM 3.65 38.57 0.275 7.87 1.5 12.62
2/13/2021 5:15:00 AM 3.63 38.534 0.274 7.86 1.04 12.6
2/13/2021 5:30:00 AM 3.62 38.516 0.285 7.86 1.02 12.59
2/13/2021 5:45:00 AM 3.61 38.498 0.294 7.88 0.97 12.6
2/13/2021 6:00:00 AM 3.59 38.462 0.275 7.86 1.4 12.59
2/13/2021 6:15:00 AM 3.57 38.426 0.259 7.85 3.12 12.6
2/13/2021 6:30:00 AM 3.56 38.408 0.267 7.84 1.32 12.59
2/13/2021 6:45:00 AM 3.55 38.39 0.253 7.83 1.44 12.57
2/13/2021 7:00:00 AM 3.53 38.354 0.253 7.84 1.42 12.59
2/13/2021 7:15:00 AM 3.52 38.336 0.232 7.83 1.61 12.56
2/13/2021 7:30:00 AM 3.52 38.336 0.257 7.81 2.11 12.57
2/13/2021 7:45:00 AM 3.51 38.318 0.244 7.79 1.94 12.59
2/13/2021 8:00:00 AM 3.5 38.3 0.262 7.79 1 12.61
2/13/2021 8:15:00 AM 3.49 38.282 0.259 7.77 1.07 12.68
2/13/2021 8:30:00 AM 3.48 38.264 0.273 7.79 0.75 12.75
2/13/2021 8:45:00 AM 3.49 38.282 0.257 7.79 0.95 12.79
2/13/2021 9:00:00 AM 3.5 38.3 0.254 7.78 0.97 12.88
2/13/2021 9:15:00 AM 3.5 38.3 0.259 7.76 0.76 12.97
2/13/2021 9:30:00 AM 3.52 38.336 0.261 7.74 1.04 13.04
2/13/2021 9:45:00 AM 3.55 38.39 0.259 7.74 0.85 13.16
2/13/2021 10:00:00 AM 3.57 38.426 0.257 7.75 1.13 13.26
2/13/2021 10:15:00 AM 3.61 38.498 0.252 7.73 0.8 13.35
2/13/2021 10:30:00 AM 3.64 38.552 0.258 7.71 1.05 13.44
2/13/2021 10:45:00 AM 3.67 38.606 0.257 7.7 0.73 13.52
2/13/2021 11:00:00 AM 3.71 38.678 0.259 7.74 1.41 13.62
2/13/2021 11:15:00 AM 3.75 38.75 0.271 7.76 1.42 13.7
2/13/2021 11:30:00 AM 3.79 38.822 0.26 7.8 0.69 13.76
2/13/2021 11:45:00 AM 3.82 38.876 0.272 7.78 1.19 13.85
2/13/2021 12:00:00 PM 3.85 38.93 0.289 7.78 0.8 13.94
2/13/2021 12:15:00 PM 3.87 38.966 0.269 7.81 0.93 14
2/13/2021 12:30:00 PM 3.9 39.02 0.309 7.86 1.16 14.04
2/13/2021 12:45:00 PM 3.94 39.092 0.269 7.84 0.98 14.12
2/13/2021 1:00:00 PM 3.97 39.146 0.274 7.89 0.96 14.19
2/13/2021 1:15:00 PM 3.99 39.182 0.253 7.89 1.1 14.21
2/13/2021 1:30:00 PM 4.02 39.236 0.256 7.92 0.72 14.26
2/13/2021 1:45:00 PM 4.04 39.272 0.296 7.93 0.66 14.27
2/13/2021 2:00:00 PM 4.06 39.308 0.308 7.94 0.67 14.36
2/13/2021 2:15:00 PM 4.07 39.326 0.269 7.94 0.6 14.36
2/13/2021 2:30:00 PM 4.08 39.344 0.313 7.94 1.35 14.4
2/13/2021 2:45:00 PM 4.08 39.344 0.31 7.97 0.89 14.41
2/13/2021 3:00:00 PM 4.07 39.326 0.26 8.03 0.96 14.4
2/13/2021 3:15:00 PM 4.07 39.326 0.289 8.06 1.02 14.4
2/13/2021 3:30:00 PM 4.06 39.308 0.296 8.06 1.12 14.38
2/13/2021 3:45:00 PM 4.05 39.29 0.259 8.09 1.11 14.38
2/13/2021 4:00:00 PM 4.04 39.272 0.263 8.11 1.04 14.37
2/13/2021 4:15:00 PM 4.02 39.236 0.265 8.12 1.25 14.33
2/13/2021 4:30:00 PM 4.01 39.218 0.279 8.12 0.87 14.29
2/13/2021 4:45:00 PM 3.99 39.182 0.277 8.08 1.42 14.23
2/13/2021 5:00:00 PM 3.98 39.164 0.287 8.09 0.84 14.15
2/13/2021 5:15:00 PM 3.96 39.128 0.274 8.09 1.19 14.08
2/13/2021 5:30:00 PM 3.94 39.092 0.278 8.11 0.53 14.02
2/13/2021 5:45:00 PM 3.92 39.056 0.274 8.08 1.03 13.94
2/13/2021 6:00:00 PM 3.89 39.002 0.28 8.08 1.69 13.85
2/13/2021 6:15:00 PM 3.87 38.966 0.273 8.08 0.67 13.77
2/13/2021 6:30:00 PM 3.85 38.93 0.248 8.08 0.76 13.68
2/13/2021 6:45:00 PM 3.83 38.894 0.276 8.05 0.69 13.63
2/13/2021 7:00:00 PM 3.8 38.84 0.273 8.05 1.34 13.56
2/13/2021 7:15:00 PM 3.78 38.804 0.28 8.03 0.79 13.49
2/13/2021 7:30:00 PM 3.76 38.768 0.245 8.01 1.11 13.43
2/13/2021 7:45:00 PM 3.74 38.732 0.249 8 1.35 13.36
2/13/2021 8:00:00 PM 3.73 38.714 0.295 7.99 0.74 13.3
2/13/2021 8:15:00 PM 3.71 38.678 0.254 7.98 0.91 13.26
2/13/2021 8:30:00 PM 3.7 38.66 0.255 7.98 0.88 13.2
2/13/2021 8:45:00 PM 3.69 38.642 0.248 7.97 0.95 13.17
2/13/2021 9:00:00 PM 3.68 38.624 0.25 7.95 0.63 13.11
2/13/2021 9:15:00 PM 3.66 38.588 0.248 7.95 0.81 13.08
2/13/2021 9:30:00 PM 3.65 38.57 0.246 7.93 0.85 13.01
2/13/2021 9:45:00 PM 3.64 38.552 0.252 7.92 1.47 12.97
2/13/2021 10:00:00 PM 3.63 38.534 0.225 7.91 0.66 12.94
2/13/2021 10:15:00 PM 3.62 38.516 0.231 7.9 1.48 12.91
2/13/2021 10:30:00 PM 3.61 38.498 0.228 7.92 0.68 12.87
2/13/2021 10:45:00 PM 3.61 38.498 0.259 7.91 0.91 12.84
2/13/2021 11:00:00 PM 3.6 38.48 0.287 7.91 2.36 12.81
2/13/2021 11:15:00 PM 3.6 38.48 0.251 7.9 0.64 12.81
2/13/2021 11:30:00 PM 3.6 38.48 0.282 7.89 1.19 12.78
2/13/2021 11:45:00 PM 3.58 38.444 0.249 7.89 0.81 12.78
2/14/2021 12:00:00 AM 3.58 38.444 0.244 7.88 1.08 12.75
2/14/2021 12:15:00 AM 3.57 38.426 0.265 7.89 0.76 12.73
2/14/2021 12:30:00 AM 3.57 38.426 0.247 7.89 0.91 12.73
2/14/2021 12:45:00 AM 3.56 38.408 0.248 7.89 0.92 12.71
2/14/2021 1:00:00 AM 3.57 38.426 0.249 7.88 0.81 12.66
2/14/2021 1:15:00 AM 3.57 38.426 0.249 7.86 1.08 12.67
2/14/2021 1:30:00 AM 3.56 38.408 0.247 7.86 0.73 12.67
2/14/2021 1:45:00 AM 3.57 38.426 0.271 7.87 0.81 12.64
2/14/2021 2:00:00 AM 3.56 38.408 0.266 7.86 1.18 12.64
2/14/2021 2:15:00 AM 3.56 38.408 0.255 7.87 0.88 12.64
2/14/2021 2:30:00 AM 3.55 38.39 0.285 7.87 0.99 12.64
2/14/2021 2:45:00 AM 3.55 38.39 0.253 7.88 1.15 12.63
2/14/2021 3:00:00 AM 3.53 38.354 0.3 7.88 1.25 12.62
2/14/2021 3:15:00 AM 3.52 38.336 0.247 7.89 1.08 12.6
2/14/2021 3:30:00 AM 3.52 38.336 0.28 7.87 1.65 12.62
2/14/2021 3:45:00 AM 3.51 38.318 0.255 7.88 1.03 12.61
2/14/2021 4:00:00 AM 3.51 38.318 0.236 7.87 4.79 12.61
2/14/2021 4:15:00 AM 3.5 38.3 0.237 7.87 0.86 12.61
2/14/2021 4:30:00 AM 3.49 38.282 0.241 7.87 1.12 12.6
2/14/2021 4:45:00 AM 3.48 38.264 0.238 7.88 0.74 12.58
2/14/2021 5:00:00 AM 3.47 38.246 0.238 7.87 0.94 12.59
2/14/2021 5:15:00 AM 3.46 38.228 0.241 7.88 1.06 12.59
2/14/2021 5:30:00 AM 3.45 38.21 0.237 7.88 1.16 12.58
2/14/2021 5:45:00 AM 3.43 38.174 0.254 7.88 1.36 12.61
2/14/2021 6:00:00 AM 3.42 38.156 0.242 7.87 0.69 12.61
2/14/2021 6:15:00 AM 3.41 38.138 0.227 7.87 1.73 12.6
2/14/2021 6:30:00 AM 3.4 38.12 0.292 7.86 0.93 12.6
2/14/2021 6:45:00 AM 3.39 38.102 0.269 7.86 0.89 12.59
2/14/2021 7:00:00 AM 3.38 38.084 0.28 7.85 15.53 12.56
2/14/2021 7:15:00 AM 3.38 38.084 0.311 7.83 4.51 12.57
2/14/2021 7:30:00 AM 3.37 38.066 0.314 7.82 0.66 12.56
2/14/2021 7:45:00 AM 3.37 38.066 0.315 7.81 1.2 12.61
2/14/2021 8:00:00 AM 3.37 38.066 0.314 7.82 0.7 12.63
2/14/2021 8:15:00 AM 3.37 38.066 0.315 7.81 0.87 12.68
2/14/2021 8:30:00 AM 3.38 38.084 0.313 7.81 0.8 12.76
2/14/2021 8:45:00 AM 3.39 38.102 0.312 7.81 1.66 12.86
2/14/2021 9:00:00 AM 3.4 38.12 0.312 7.8 0.82 12.97
2/14/2021 9:15:00 AM 3.43 38.174 0.299 7.81 0.74 13.08
2/14/2021 9:30:00 AM 3.46 38.228 0.313 7.78 1.36 13.24
2/14/2021 9:45:00 AM 3.51 38.318 0.314 7.74 0.82 13.34
2/14/2021 10:00:00 AM 3.55 38.39 0.314 7.75 0.61 13.49
2/14/2021 10:15:00 AM 3.6 38.48 0.314 7.72 0.72 13.6
2/14/2021 10:30:00 AM 3.65 38.57 0.315 7.69 18.39 13.69
2/14/2021 10:45:00 AM 3.71 38.678 0.314 7.68 0.83 13.78
2/14/2021 11:00:00 AM 3.79 38.822 0.314 7.66 0.75 13.9
2/14/2021 11:15:00 AM 3.86 38.948 0.313 7.63 0.92 14.02
2/14/2021 11:30:00 AM 3.95 39.11 0.312 7.59 1.21 14.11
2/14/2021 11:45:00 AM 4.02 39.236 0.308 7.55 0.59 14.22
2/14/2021 12:00:00 PM 4.11 39.398 0.305 7.51 0.85 14.31
2/14/2021 12:15:00 PM 4.19 39.542 0.302 7.42 0.58 14.41
2/14/2021 12:30:00 PM 4.3 39.74 0.307 7.41 0.6 14.47
2/14/2021 12:45:00 PM 4.4 39.92 0.305 7.3 1.16 14.55
2/14/2021 1:00:00 PM 4.5 40.1 0.297 7.31 0.96 14.64
2/14/2021 1:15:00 PM 4.6 40.28 0.308 7.32 1.05 14.67
2/14/2021 1:30:00 PM 4.67 40.406 0.298 7.29 0.83 14.75
2/14/2021 1:45:00 PM 4.75 40.55 0.286 7.21 1.03 14.79
2/14/2021 2:00:00 PM 4.84 40.712 0.31 7.21 0.73 14.85
2/14/2021 2:15:00 PM 4.92 40.856 0.31 7.3 1.39 14.87
2/14/2021 2:30:00 PM 4.96 40.928 0.306 7.25 0.74 14.9
2/14/2021 2:45:00 PM 5.01 41.018 0.263 7.26 0.56 14.92
2/14/2021 3:00:00 PM 5.06 41.108 0.266 7.29 0.7 14.93
2/14/2021 3:15:00 PM 5.11 41.198 0.257 7.31 0.51 14.96
2/14/2021 3:30:00 PM 5.15 41.27 0.264 7.29 0.62 14.93
2/14/2021 3:45:00 PM 5.17 41.306 0.263 7.39 0.92 14.96
2/14/2021 4:00:00 PM 5.19 41.342 0.264 7.43 0.58 14.93
2/14/2021 4:15:00 PM 5.2 41.36 0.266 7.47 0.97 14.9
2/14/2021 4:30:00 PM 5.21 41.378 0.266 7.48 0.75 14.86
2/14/2021 4:45:00 PM 5.19 41.342 0.268 7.5 0.47 14.78
2/14/2021 5:00:00 PM 5.19 41.342 0.265 7.57 0.61 14.72
2/14/2021 5:15:00 PM 5.17 41.306 0.266 7.64 0.64 14.6
2/14/2021 5:30:00 PM 5.15 41.27 0.269 7.65 0.69 14.5
2/14/2021 5:45:00 PM 5.13 41.234 0.265 7.66 1.89 14.36
2/14/2021 6:00:00 PM 5.11 41.198 0.273 7.67 0.91 14.22
2/14/2021 6:15:00 PM 5.09 41.162 0.294 7.7 1.14 14.11
2/14/2021 6:30:00 PM 5.06 41.108 0.269 7.7 0.75 13.96
2/14/2021 6:45:00 PM 5.05 41.09 0.244 7.71 1.09 13.83
2/14/2021 7:00:00 PM 5.02 41.036 0.256 7.69 1.16 13.74
2/14/2021 7:15:00 PM 5.01 41.018 0.26 7.68 1.25 13.64
2/14/2021 7:30:00 PM 4.99 40.982 0.247 7.65 1.18 13.55
2/14/2021 7:45:00 PM 4.97 40.946 0.249 7.64 1.23 13.44
2/14/2021 8:00:00 PM 4.96 40.928 0.245 7.61 0.91 13.36
2/14/2021 8:15:00 PM 4.95 40.91 0.25 7.61 0.95 13.27
2/14/2021 8:30:00 PM 4.94 40.892 0.252 7.58 2.95 13.17
2/14/2021 8:45:00 PM 4.92 40.856 0.253 7.59 1.07 13.1
2/14/2021 9:00:00 PM 4.9 40.82 0.241 7.63 0.69 13
2/14/2021 9:15:00 PM 4.89 40.802 0.235 7.61 1.15 12.94
2/14/2021 9:30:00 PM 4.88 40.784 0.229 7.6 1.52 12.88
2/14/2021 9:45:00 PM 4.87 40.766 0.233 7.59 0.92 12.78
2/14/2021 10:00:00 PM 4.89 40.802 0.235 7.57 1.56 12.73
2/14/2021 10:15:00 PM 4.89 40.802 0.238 7.57 0.92 12.65
2/14/2021 10:30:00 PM 4.89 40.802 0.236 7.59 0.97 12.59
2/14/2021 10:45:00 PM 4.9 40.82 0.231 7.58 1.07 12.53
2/14/2021 11:00:00 PM 4.9 40.82 0.225 7.58 0.65 12.49
2/14/2021 11:15:00 PM 4.91 40.838 0.214 7.56 0.94 12.45
2/14/2021 11:30:00 PM 4.92 40.856 0.226 7.49 0.89 12.41
2/14/2021 11:45:00 PM 4.93 40.874 0.216 7.47 1.04 12.36
2/15/2021 12:00:00 AM 4.93 40.874 0.224 7.47 0.79 12.35
2/15/2021 12:15:00 AM 4.94 40.892 0.23 7.45 0.73 12.32
2/15/2021 12:30:00 AM 4.95 40.91 0.228 7.44 0.99 12.27
2/15/2021 12:45:00 AM 4.95 40.91 0.229 7.5 0.91 12.26
2/15/2021 1:00:00 AM 4.95 40.91 0.23 7.46 1.32 12.22
2/15/2021 1:15:00 AM 4.98 40.964 0.233 7.48 0.78 12.2
2/15/2021 1:30:00 AM 4.98 40.964 0.234 7.5 1.84 12.17
2/15/2021 1:45:00 AM 4.98 40.964 0.233 7.46 0.74 12.12
2/15/2021 2:00:00 AM 4.99 40.982 0.234 7.46 0.64 12.1
2/15/2021 2:15:00 AM 5 41 0.232 7.45 1.12 12.08
2/15/2021 2:30:00 AM 5 41 0.229 7.46 1.39 12.06
2/15/2021 2:45:00 AM 5.01 41.018 0.233 7.48 0.58 12.06
2/15/2021 3:00:00 AM 5 41 0.196 7.49 1.19 12.05
2/15/2021 3:15:00 AM 5 41 0.207 7.49 1.41 12.04
2/15/2021 3:30:00 AM 5 41 0.221 7.52 1.36 12.03
2/15/2021 3:45:00 AM 5 41 0.212 7.55 1.01 12.01
2/15/2021 4:00:00 AM 4.99 40.982 0.208 7.56 2.09 12.01
2/15/2021 4:15:00 AM 5 41 0.204 7.57 1.26 11.98
2/15/2021 4:30:00 AM 5 41 0.208 7.56 0.88 11.98
2/15/2021 4:45:00 AM 4.99 40.982 0.2 7.58 1.01 11.93
2/15/2021 5:00:00 AM 4.97 40.946 0.205 7.58 0.58 11.96
2/15/2021 5:15:00 AM 4.96 40.928 0.22 7.61 1.26 11.95
2/15/2021 5:30:00 AM 4.94 40.892 0.221 7.64 0.67 11.95
2/15/2021 5:45:00 AM 4.93 40.874 0.22 7.62 1.17 11.96
2/15/2021 6:00:00 AM 4.91 40.838 0.218 7.62 1.62 11.94
2/15/2021 6:15:00 AM 4.9 40.82 0.219 7.64 0.91 11.96
2/15/2021 6:30:00 AM 4.89 40.802 0.218 7.63 0.95 11.96
2/15/2021 6:45:00 AM 4.87 40.766 0.219 7.63 0.84 11.95
2/15/2021 7:00:00 AM 4.86 40.748 0.225 7.64 0.87 11.93
2/15/2021 7:15:00 AM 4.85 40.73 0.232 7.62 0.94 11.93
2/15/2021 7:30:00 AM 4.83 40.694 0.23 7.62 0.73 11.93
2/15/2021 7:45:00 AM 4.83 40.694 0.232 7.63 1.27 11.94
2/15/2021 8:00:00 AM 4.82 40.676 0.232 7.63 0.73 11.96
2/15/2021 8:15:00 AM 4.81 40.658 0.232 7.63 1.77 12.01
2/15/2021 8:30:00 AM 4.8 40.64 0.236 7.62 1.3 12.06
2/15/2021 8:45:00 AM 4.8 40.64 0.225 7.59 1.38 12.13
2/15/2021 9:00:00 AM 4.82 40.676 0.239 7.55 1.43 12.24
2/15/2021 9:15:00 AM 4.84 40.712 0.224 7.52 1.14 12.4
2/15/2021 9:30:00 AM 4.85 40.73 0.24 7.47 1.19 12.53
2/15/2021 9:45:00 AM 4.89 40.802 0.233 7.41 1.06 12.66
2/15/2021 10:00:00 AM 4.9 40.82 0.233 7.42 0.75 12.8
2/15/2021 10:15:00 AM 4.93 40.874 0.231 7.38 0.63 12.92
2/15/2021 10:30:00 AM 4.95 40.91 0.239 7.38 1.01 13.04
2/15/2021 10:45:00 AM 4.98 40.964 0.242 7.38 1.58 13.15
2/15/2021 11:00:00 AM 5.02 41.036 0.236 7.35 0.65 13.27
2/15/2021 11:15:00 AM 5.03 41.054 0.235 7.36 0.71 13.36
2/15/2021 11:30:00 AM 5.04 41.072 0.238 7.4 1 13.44
2/15/2021 11:45:00 AM 5.07 41.126 0.24 7.47 0.9 13.52
2/15/2021 12:00:00 PM 5.12 41.216 0.244 7.46 0.78 13.66
2/15/2021 12:15:00 PM 5.17 41.306 0.235 7.39 1.44 13.76
2/15/2021 12:30:00 PM 5.26 41.468 0.237 7.36 0.93 13.86
2/15/2021 12:45:00 PM 5.36 41.648 0.233 7.35 0.88 13.98
2/15/2021 1:00:00 PM 5.41 41.738 0.235 7.33 0.6 14.08
2/15/2021 1:15:00 PM 5.44 41.792 0.236 7.29 0.47 14.17
2/15/2021 1:30:00 PM 5.48 41.864 0.228 7.33 0.86 14.23
2/15/2021 1:45:00 PM 5.51 41.918 0.23 7.43 1.29 14.27
2/15/2021 2:00:00 PM 5.53 41.954 0.251 7.4 0.74 14.35
2/15/2021 2:15:00 PM 5.55 41.99 0.225 7.46 0.85 14.35
2/15/2021 2:30:00 PM 5.56 42.008 0.22 7.49 0.77 14.36
2/15/2021 2:45:00 PM 5.58 42.044 0.241 7.45 0.8 14.37
2/15/2021 3:00:00 PM 5.59 42.062 0.237 7.49 0.79 14.39
2/15/2021 3:15:00 PM 5.6 42.08 0.232 7.59 1.12 14.37
2/15/2021 3:30:00 PM 5.59 42.062 0.231 7.66 0.45 14.34
2/15/2021 3:45:00 PM 5.59 42.062 0.234 7.76 0.89 14.27
2/15/2021 4:00:00 PM 5.59 42.062 0.232 7.79 0.91 14.17
2/15/2021 4:15:00 PM 5.59 42.062 0.243 7.86 0.92 14.06
2/15/2021 4:30:00 PM 5.57 42.026 0.238 7.85 0.62 13.96
2/15/2021 4:45:00 PM 5.58 42.044 0.233 7.88 0.69 13.86
2/15/2021 5:00:00 PM 5.56 42.008 0.228 7.86 0.52 13.76
2/15/2021 5:15:00 PM 5.56 42.008 0.227 7.91 0.89 13.67
2/15/2021 5:30:00 PM 5.54 41.972 0.23 7.89 0.94 13.55
2/15/2021 5:45:00 PM 5.52 41.936 0.217 7.89 0.67 13.46
2/15/2021 6:00:00 PM 5.49 41.882 0.228 7.9 1.29 13.34
2/15/2021 6:15:00 PM 5.49 41.882 0.275 7.89 1.33 13.25
2/15/2021 6:30:00 PM 5.47 41.846 0.275 7.87 0.76 13.15
2/15/2021 6:45:00 PM 5.46 41.828 0.276 7.8 1.37 13.04
2/15/2021 7:00:00 PM 5.45 41.81 0.256 7.8 0.94 12.99
2/15/2021 7:15:00 PM 5.44 41.792 0.229 7.79 7.16 12.88
2/15/2021 7:30:00 PM 5.42 41.756 0.254 7.78 0.83 12.8
2/15/2021 7:45:00 PM 5.41 41.738 0.246 7.77 1.85 12.72
2/15/2021 8:00:00 PM 5.4 41.72 0.265 7.74 1 12.65
2/15/2021 8:15:00 PM 5.38 41.684 0.246 7.72 1.02 12.58
2/15/2021 8:30:00 PM 5.36 41.648 0.261 7.71 0.88 12.51
2/15/2021 8:45:00 PM 5.35 41.63 0.264 7.73 0.82 12.45
2/15/2021 9:00:00 PM 5.34 41.612 0.262 7.72 0.82 12.39
2/15/2021 9:15:00 PM 5.33 41.594 0.266 7.71 0.88 12.34
2/15/2021 9:30:00 PM 5.32 41.576 0.242 7.67 1.38 12.28
2/15/2021 9:45:00 PM 5.31 41.558 0.25 7.64 0.77 12.25
2/15/2021 10:00:00 PM 5.31 41.558 0.254 7.65 1.1 12.2
2/15/2021 10:15:00 PM 5.3 41.54 0.26 7.63 1.49 12.13
2/15/2021 10:30:00 PM 5.28 41.504 0.26 7.58 1.99 12.11
2/15/2021 10:45:00 PM 5.27 41.486 0.239 7.57 1.16 12.08
2/15/2021 11:00:00 PM 5.24 41.432 0.243 7.54 2.95 12.07
2/15/2021 11:15:00 PM 5.19 41.342 0.255 7.48 2.46 12.05
2/15/2021 11:30:00 PM 5.21 41.378 0.24 7.42 2.71 12.03
2/15/2021 11:45:00 PM 5.2 41.36 0.242 7.42 2.13 12.01
2/16/2021 12:00:00 AM 5.19 41.342 0.249 7.4 3.65 11.98
2/16/2021 12:15:00 AM 5.19 41.342 0.254 7.35 5.81 11.97
2/16/2021 12:30:00 AM 5.19 41.342 0.256 7.32 4.77 11.95
2/16/2021 12:45:00 AM 5.18 41.324 0.25 7.3 5.56 11.91
2/16/2021 1:00:00 AM 5.18 41.324 0.257 7.21 5.18 11.91
2/16/2021 1:15:00 AM 5.17 41.306 0.258 7.12 3.58 11.89
2/16/2021 1:30:00 AM 5.15 41.27 0.259 7.01 4.76 11.9
2/16/2021 1:45:00 AM 5.14 41.252 0.258 6.88 4.59 11.87
2/16/2021 2:00:00 AM 5.11 41.198 0.253 6.75 5.36 11.88
2/16/2021 2:15:00 AM 5.09 41.162 0.231 6.61 5.25 11.87
2/16/2021 2:30:00 AM 5.04 41.072 0.238 6.51 6.87 11.9
2/16/2021 2:45:00 AM 5 41 0.248 6.45 7.73 11.9
2/16/2021 3:00:00 AM 4.95 40.91 0.265 6.37 9.42 11.92
2/16/2021 3:15:00 AM 4.92 40.856 0.265 6.31 7.92 11.92
2/16/2021 3:30:00 AM 4.88 40.784 0.276 6.27 10.53 11.93
2/16/2021 3:45:00 AM 4.85 40.73 0.268 6.2 12.35 11.93
2/16/2021 4:00:00 AM 4.81 40.658 0.266 6.16 10.91 11.93
2/16/2021 4:15:00 AM 4.78 40.604 0.267 6.11 17.02 11.94
2/16/2021 4:30:00 AM 4.73 40.514 0.277 6.06 27.19 11.94
2/16/2021 4:45:00 AM 4.68 40.424 0.285 6.03 12.14 11.96
2/16/2021 5:00:00 AM 4.6 40.28 0.301 5.97 27.3 11.99
2/16/2021 5:15:00 AM 4.54 40.172 0.293 5.92 35.07 12.01
2/16/2021 5:30:00 AM 4.48 40.064 0.28 5.91 31.72 12.01
2/16/2021 5:45:00 AM 4.43 39.974 0.273 5.86 30.29 12.02
2/16/2021 6:00:00 AM 4.39 39.902 0.29 5.84 42.64 12.04
2/16/2021 6:15:00 AM 4.37 39.866 0.26 5.79 40.28 12.04
2/16/2021 6:30:00 AM 4.36 39.848 0.267 5.77 27.17 12.02
2/16/2021 6:45:00 AM 4.37 39.866 0.277 5.74 37.54 11.99
2/16/2021 7:00:00 AM 4.39 39.902 0.271 5.69 24.62 11.99
2/16/2021 7:15:00 AM 4.4 39.92 0.266 5.71 24.15 11.98
2/16/2021 7:30:00 AM 4.43 39.974 0.272 5.7 23.07 11.96
2/16/2021 7:45:00 AM 4.45 40.01 0.259 5.71 18.98 11.96
2/16/2021 8:00:00 AM 4.5 40.1 0.279 5.73 16.73 11.96
2/16/2021 8:15:00 AM 4.53 40.154 0.257 5.72 14.68 11.98
2/16/2021 8:30:00 AM 4.54 40.172 0.272 5.72 14.78 12.03
2/16/2021 8:45:00 AM 4.52 40.136 0.274 5.71 15.42 12.05
2/16/2021 9:00:00 AM 4.48 40.064 0.296 5.73 11.39 12.1
2/16/2021 9:15:00 AM 4.43 39.974 0.268 5.73 15.44 12.17
2/16/2021 9:30:00 AM 4.41 39.938 0.279 5.72 13.84 12.28
2/16/2021 9:45:00 AM 4.41 39.938 0.271 5.72 14.81 12.36
2/16/2021 10:00:00 AM 4.43 39.974 0.277 5.72 14.37 12.44
2/16/2021 10:15:00 AM 4.47 40.046 0.263 5.72 12.52 12.53
2/16/2021 10:30:00 AM 4.5 40.1 0.287 5.71 11.11 12.61
2/16/2021 10:45:00 AM 4.54 40.172 0.303 5.74 12.56 12.7
2/16/2021 11:00:00 AM 4.55 40.19 0.355 5.73 13.19 12.77
2/16/2021 11:15:00 AM 4.62 40.316 0.317 5.74 15.02 12.86
2/16/2021 11:30:00 AM 4.66 40.388 0.272 5.76 13.93 12.95
2/16/2021 11:45:00 AM 4.72 40.496 0.278 5.75 14.68 13.02
2/16/2021 12:00:00 PM 4.75 40.55 0.31 5.75 19.59 13.07
2/16/2021 12:15:00 PM 4.81 40.658 0.323 5.76 12.63 13.1
2/16/2021 12:30:00 PM 4.89 40.802 0.299 5.8 14.27 13.17
2/16/2021 12:45:00 PM 4.97 40.946 0.299 5.8 20.31 13.2
2/16/2021 1:00:00 PM 5.05 41.09 0.315 5.83 14.95 13.23
2/16/2021 1:15:00 PM 5.13 41.234 0.289 5.85 12.85 13.26
2/16/2021 1:30:00 PM 5.21 41.378 0.312 5.84 16.03 13.27
2/16/2021 1:45:00 PM 5.25 41.45 0.293 5.93 20.11 13.32
2/16/2021 2:00:00 PM 5.26 41.468 0.301 5.91 16.43 13.31
2/16/2021 2:15:00 PM 5.27 41.486 0.261 5.89 17.11 13.28
2/16/2021 2:30:00 PM 5.29 41.522 0.259 5.86 15.24 13.27
2/16/2021 2:45:00 PM 5.31 41.558 0.279 5.87 17.32 13.23
2/16/2021 3:00:00 PM 5.33 41.594 0.331 4.6 15.53 13.23
2/16/2021 3:15:00 PM 5.34 41.612 0.315 5.17 14.17 13.22
2/16/2021 3:30:00 PM 5.36 41.648 0.329 5.31 14.59 13.21
2/16/2021 3:45:00 PM 5.37 41.666 0.336 6.07 22.16 13.19
2/16/2021 4:00:00 PM 5.36 41.648 0.325 6.05 13.41 13.16
2/16/2021 4:15:00 PM 5.34 41.612 0.294 6.01 23.96 13.11
2/16/2021 4:30:00 PM 5.33 41.594 0.293 5.98 18.2 13.08
2/16/2021 4:45:00 PM 5.3 41.54 0.307 5.96 14.94 13.03
2/16/2021 5:00:00 PM 5.27 41.486 0.284 5.96 15.1 12.98
2/16/2021 5:15:00 PM 5.25 41.45 0.257 5.95 12.83 12.93
2/16/2021 5:30:00 PM 5.22 41.396 0.23 5.95 14.25 12.88
2/16/2021 5:45:00 PM 5.2 41.36 0.246 5.9 15.77 12.85
2/16/2021 6:00:00 PM 5.18 41.324 0.264 5.9 19.5 12.83
2/16/2021 6:15:00 PM 5.18 41.324 0.279 5.87 16.07 12.76
2/16/2021 6:30:00 PM 5.2 41.36 0.268 5.86 11.1 12.73
2/16/2021 6:45:00 PM 5.22 41.396 0.29 5.91 12.64 12.66
2/16/2021 7:00:00 PM 5.23 41.414 0.25 5.88 14.24 12.6
2/16/2021 7:15:00 PM 5.23 41.414 0.258 5.86 12.85 12.57
2/16/2021 7:30:00 PM 5.22 41.396 0.248 5.87 25.21 12.53
2/16/2021 7:45:00 PM 5.2 41.36 0.246 5.94 16.71 12.53
2/16/2021 8:00:00 PM 5.19 41.342 0.244 5.91 23.09 12.5
2/16/2021 8:15:00 PM 5.18 41.324 0.233 5.89 13.07 12.49
2/16/2021 8:30:00 PM 5.17 41.306 0.246 5.9 16.7 12.47
2/16/2021 8:45:00 PM 5.17 41.306 0.232 5.9 11.51 12.45
2/16/2021 9:00:00 PM 5.17 41.306 0.224 5.9 13.33 12.44
2/16/2021 9:15:00 PM 5.18 41.324 0.227 5.9 15.33 12.41
2/16/2021 9:30:00 PM 5.16 41.288 0.23 5.92 15.53 12.4
2/16/2021 9:45:00 PM 5.13 41.234 0.232 5.87 19.83 12.38
2/16/2021 10:00:00 PM 5.08 41.144 0.231 5.87 11.47 12.36
2/16/2021 10:15:00 PM 5.04 41.072 0.246 5.85 22.6 12.34
2/16/2021 10:30:00 PM 4.98 40.964 0.248 5.83 16.06 12.35
2/16/2021 10:45:00 PM 4.92 40.856 0.251 5.82 12.25 12.34
2/16/2021 11:00:00 PM 4.85 40.73 0.254 5.81 16.05 12.34
2/16/2021 11:15:00 PM 4.79 40.622 0.236 5.81 11.61 12.36
2/16/2021 11:30:00 PM 4.71 40.478 0.248 5.81 10.62 12.35
2/16/2021 11:45:00 PM 4.64 40.352 0.24 5.78 13.51 12.35
2/17/2021 12:00:00 AM 4.57 40.226 0.273 5.77 17.17 12.37
2/17/2021 12:15:00 AM 4.51 40.118 0.239 5.76 8.46 12.37
2/17/2021 12:30:00 AM 4.44 39.992 0.258 5.76 19.36 12.35
2/17/2021 12:45:00 AM 4.37 39.866 0.248 5.76 14.1 12.35
2/17/2021 1:00:00 AM 4.32 39.776 0.245 5.73 15.33 12.33
2/17/2021 1:15:00 AM 4.26 39.668 0.246 5.73 9.03 12.35
2/17/2021 1:30:00 AM 4.21 39.578 0.244 5.7 10.57 12.35
2/17/2021 1:45:00 AM 4.14 39.452 0.236 5.68 11.74 12.35
2/17/2021 2:00:00 AM 4.09 39.362 0.244 5.65 12.49 12.34
2/17/2021 2:15:00 AM 4.04 39.272 0.234 5.64 16.62 12.32
2/17/2021 2:30:00 AM 3.99 39.182 0.271 5.61 13.32 12.35
2/17/2021 2:45:00 AM 3.94 39.092 0.294 5.6 11.51 12.37
2/17/2021 3:00:00 AM 3.89 39.002 0.305 5.59 17.14 12.35
2/17/2021 3:15:00 AM 3.85 38.93 0.308 5.57 14.06 12.37
2/17/2021 3:30:00 AM 3.81 38.858 0.276 5.57 11.57 12.36
2/17/2021 3:45:00 AM 3.78 38.804 0.247 5.53 12.29 12.34
2/17/2021 4:00:00 AM 3.75 38.75 0.269 5.54 11.59 12.37
2/17/2021 4:15:00 AM 3.72 38.696 0.27 5.52 8.42 12.37
2/17/2021 4:30:00 AM 3.68 38.624 0.255 5.5 10.04 12.36
2/17/2021 4:45:00 AM 3.65 38.57 0.254 5.52 7.35 12.39
2/17/2021 5:00:00 AM 3.62 38.516 0.257 5.49 7.83 12.38
2/17/2021 5:15:00 AM 3.59 38.462 0.243 5.49 8.08 12.39
2/17/2021 5:30:00 AM 3.55 38.39 0.23 5.52 8.73 12.42
2/17/2021 5:45:00 AM 3.52 38.336 0.249 5.52 9.76 12.44
2/17/2021 6:00:00 AM 3.49 38.282 0.231 5.52 8.7 12.4
2/17/2021 6:15:00 AM 3.45 38.21 0.278 5.5 12.28 12.44
2/17/2021 6:30:00 AM 3.42 38.156 0.245 5.52 9.62 12.46
2/17/2021 6:45:00 AM 3.4 38.12 0.269 5.49 8.58 12.46
2/17/2021 7:00:00 AM 3.37 38.066 0.293 5.47 8.26 12.47
2/17/2021 7:15:00 AM 3.34 38.012 0.293 5.48 6.27 12.48
2/17/2021 7:30:00 AM 3.31 37.958 0.29 5.47 9.11 12.5
2/17/2021 7:45:00 AM 3.28 37.904 0.282 5.47 11.88 12.55
2/17/2021 8:00:00 AM 3.26 37.868 0.282 5.49 9.2 12.6
2/17/2021 8:15:00 AM 3.22 37.796 0.284 5.48 8.88 12.66
2/17/2021 8:30:00 AM 3.2 37.76 0.279 5.47 8.61 12.76
2/17/2021 8:45:00 AM 3.18 37.724 0.285 5.47 8.31 12.82
2/17/2021 9:00:00 AM 3.18 37.724 0.285 5.47 7.92 12.9
2/17/2021 9:15:00 AM 3.18 37.724 0.284 5.5 8.17 13
2/17/2021 9:30:00 AM 3.17 37.706 0.277 5.53 5.74 13.07
2/17/2021 9:45:00 AM 3.19 37.742 0.281 5.54 6.18 13.14
2/17/2021 10:00:00 AM 3.19 37.742 0.28 5.54 7.05 13.22
2/17/2021 10:15:00 AM 3.24 37.832 0.285 5.54 6.35 13.3
2/17/2021 10:30:00 AM 3.28 37.904 0.28 5.55 7.96 13.38
2/17/2021 10:45:00 AM 3.32 37.976 0.261 5.56 6.99 13.48
2/17/2021 11:00:00 AM 3.36 38.048 0.268 5.55 8.67 13.56
2/17/2021 11:15:00 AM 3.39 38.102 0.272 5.58 5.81 13.67
2/17/2021 11:30:00 AM 3.46 38.228 0.25 5.6 6.22 13.72
2/17/2021 11:45:00 AM 3.51 38.318 0.271 5.61 7.6 13.82
2/17/2021 12:00:00 PM 3.56 38.408 0.272 5.61 7.09 13.88
2/17/2021 12:15:00 PM 3.59 38.462 0.28 5.62 5.24 13.94
2/17/2021 12:30:00 PM 3.64 38.552 0.281 5.64 6.01 13.99
2/17/2021 12:45:00 PM 3.69 38.642 0.255 5.66 6.89 14.08
2/17/2021 1:00:00 PM 3.73 38.714 0.26 5.69 7.15 14.12
2/17/2021 1:15:00 PM 3.77 38.786 0.247 5.73 4.52 14.19
2/17/2021 1:30:00 PM 3.81 38.858 0.248 5.75 6.51 14.22
2/17/2021 1:45:00 PM 3.86 38.948 0.253 5.8 5.72 14.25
2/17/2021 2:00:00 PM 3.88 38.984 0.242 5.81 5.18 14.3
2/17/2021 2:15:00 PM 3.89 39.002 0.237 5.82 7.83 14.33
2/17/2021 2:30:00 PM 3.93 39.074 0.238 5.88 4.86 14.34
2/17/2021 2:45:00 PM 3.96 39.128 0.249 5.9 7.31 14.35
2/17/2021 3:00:00 PM 3.99 39.182 0.259 5.9 4.8 14.38
2/17/2021 3:15:00 PM 4 39.2 0.254 5.9 6.37 14.38
2/17/2021 3:30:00 PM 4.01 39.218 0.234 5.91 5.09 14.39
2/17/2021 3:45:00 PM 4.01 39.218 0.259 5.89 6.16 14.4
2/17/2021 4:00:00 PM 4.02 39.236 0.214 5.94 4.11 14.39
2/17/2021 4:15:00 PM 4.01 39.218 0.209 5.91 3.98 14.39
2/17/2021 4:30:00 PM 4 39.2 0.22 5.9 4.81 14.35
2/17/2021 4:45:00 PM 3.97 39.146 0.207 5.91 5.31 14.33
2/17/2021 5:00:00 PM 3.94 39.092 0.216 5.92 3.85 14.26
2/17/2021 5:15:00 PM 3.91 39.038 0.232 5.86 4.81 14.2
2/17/2021 5:30:00 PM 3.88 38.984 0.237 5.89 4.29 14.14
2/17/2021 5:45:00 PM 3.84 38.912 0.215 5.9 4.62 14.08
2/17/2021 6:00:00 PM 3.81 38.858 0.225 5.88 5.64 14.02
2/17/2021 6:15:00 PM 3.77 38.786 0.217 5.87 4.98 13.93
2/17/2021 6:30:00 PM 3.74 38.732 0.246 5.85 4.38 13.88
2/17/2021 6:45:00 PM 3.71 38.678 0.215 5.86 3.95 13.82
2/17/2021 7:00:00 PM 3.68 38.624 0.219 5.81 3.94 13.78
2/17/2021 7:15:00 PM 3.67 38.606 0.248 5.85 4.92 13.72
2/17/2021 7:30:00 PM 3.66 38.588 0.213 5.83 4.07 13.66
2/17/2021 7:45:00 PM 3.65 38.57 0.212 5.82 4.31 13.61
2/17/2021 8:00:00 PM 3.65 38.57 0.204 5.76 4.21 13.56
2/17/2021 8:15:00 PM 3.65 38.57 0.198 5.79 3.26 13.5
2/17/2021 8:30:00 PM 3.64 38.552 0.184 5.76 4.27 13.45
2/17/2021 8:45:00 PM 3.63 38.534 0.195 5.77 4.08 13.39
2/17/2021 9:00:00 PM 3.63 38.534 0.21 5.71 4.61 13.35
2/17/2021 9:15:00 PM 3.62 38.516 0.22 5.74 5.15 13.32
2/17/2021 9:30:00 PM 3.62 38.516 0.222 5.74 5.26 13.28
2/17/2021 9:45:00 PM 3.62 38.516 0.223 5.75 3.49 13.25
2/17/2021 10:00:00 PM 3.62 38.516 0.246 5.7 4.44 13.22
2/17/2021 10:15:00 PM 3.62 38.516 0.248 5.68 3.47 13.2
2/17/2021 10:30:00 PM 3.62 38.516 0.264 5.66 4.69 13.17
2/17/2021 10:45:00 PM 3.63 38.534 0.227 5.69 4.97 13.14
2/17/2021 11:00:00 PM 3.63 38.534 0.238 5.69 6.5 13.11
2/17/2021 11:15:00 PM 3.63 38.534 0.205 5.71 4.22 13.08
2/17/2021 11:30:00 PM 3.63 38.534 0.226 5.7 3.89 13.04
2/17/2021 11:45:00 PM 3.62 38.516 0.255 5.75 3.93 13.03
2/18/2021 12:00:00 AM 3.62 38.516 0.23 5.75 4.41 13
2/18/2021 12:15:00 AM 3.6 38.48 0.211 5.81 3.9 12.98
2/18/2021 12:30:00 AM 3.59 38.462 0.213 5.77 4.62 12.98
2/18/2021 12:45:00 AM 3.58 38.444 0.271 5.7 3.68 12.96
2/18/2021 1:00:00 AM 3.56 38.408 0.268 5.65 3.92 12.97
2/18/2021 1:15:00 AM 3.54 38.372 0.233 5.65 3.57 12.94
2/18/2021 1:30:00 AM 3.53 38.354 0.244 5.64 4.32 12.94
2/18/2021 1:45:00 AM 3.52 38.336 0.251 5.68 3.36 12.94
2/18/2021 2:00:00 AM 3.52 38.336 0.239 5.68 3.82 12.92
2/18/2021 2:15:00 AM 3.51 38.318 0.24 5.64 3.46 12.89
2/18/2021 2:30:00 AM 3.5 38.3 0.241 5.62 3.18 12.89
2/18/2021 2:45:00 AM 3.48 38.264 0.248 5.65 3.74 12.87
2/18/2021 3:00:00 AM 3.47 38.246 0.223 5.63 6.39 12.87
2/18/2021 3:15:00 AM 3.44 38.192 0.233 5.64 2.47 12.88
2/18/2021 3:30:00 AM 3.42 38.156 0.228 5.64 4.62 12.86
2/18/2021 3:45:00 AM 3.39 38.102 0.222 5.62 3.61 12.86
2/18/2021 4:00:00 AM 3.37 38.066 0.219 5.61 2.2 12.87
2/18/2021 4:15:00 AM 3.34 38.012 0.214 5.61 3.07 12.85
2/18/2021 4:30:00 AM 3.31 37.958 0.222 5.61 5.11 12.87
2/18/2021 4:45:00 AM 3.29 37.922 0.221 5.6 3.81 12.87
2/18/2021 5:00:00 AM 3.26 37.868 0.231 5.59 2.75 12.85
2/18/2021 5:15:00 AM 3.24 37.832 0.246 5.58 4.38 12.84
2/18/2021 5:30:00 AM 3.21 37.778 0.239 5.59 4.46 12.83
2/18/2021 5:45:00 AM 3.16 37.688 0.211 5.6 2.98 12.86
2/18/2021 6:00:00 AM 3.07 37.526 0.26 5.59 2.6 12.87
2/18/2021 6:15:00 AM 2.94 37.292 0.252 5.56 5.05 12.88
2/18/2021 6:30:00 AM 2.8 37.04 0.234 5.6 3.9 12.9
2/18/2021 6:45:00 AM 2.73 36.914 0.225 5.58 3.82 12.92
2/18/2021 7:00:00 AM 2.69 36.842 0.224 5.54 4.3 12.92
2/18/2021 7:15:00 AM 2.65 36.77 0.222 5.48 3.22 12.94
2/18/2021 7:30:00 AM 2.61 36.698 0.225 5.51 3.13 12.97
2/18/2021 7:45:00 AM 2.55 36.59 0.226 5.5 2.84 12.98
2/18/2021 8:00:00 AM 2.49 36.482 0.226 5.5 5.6 12.99
2/18/2021 8:15:00 AM 2.45 36.41 0.23 5.49 3.1 13.03
2/18/2021 8:30:00 AM 2.39 36.302 0.234 5.47 4.16 13.09
2/18/2021 8:45:00 AM 2.32 36.176 0.226 5.48 2.81 13.13
2/18/2021 9:00:00 AM 2.17 35.906 0.246 5.49 2.57 13.19
2/18/2021 9:15:00 AM 2.11 35.798 0.236 5.5 3.02 13.23
2/18/2021 9:30:00 AM 2.05 35.69 0.242 5.5 2.78 13.32
2/18/2021 9:45:00 AM 1.97 35.546 0.249 5.52 3.05 13.44
2/18/2021 10:00:00 AM 1.96 35.528 0.241 5.52 2.62 13.48
2/18/2021 10:15:00 AM 1.96 35.528 0.216 5.53 2.59 13.58
2/18/2021 10:30:00 AM 1.95 35.51 0.199 5.52 3.14 13.65
2/18/2021 10:45:00 AM 1.92 35.456 0.2 5.47 2.72 13.73
2/18/2021 11:00:00 AM 1.86 35.348 0.255 5.54 2.44 13.8
2/18/2021 11:15:00 AM 1.77 35.186 0.253 5.54 2.35 13.86
2/18/2021 11:30:00 AM 1.79 35.222 0.228 5.43 3.28 13.93
2/18/2021 11:45:00 AM 1.82 35.276 0.246 5.51 3.06 14.04
2/18/2021 12:00:00 PM 1.84 35.312 0.234 5.49 2.28 14.06
2/18/2021 12:15:00 PM 1.85 35.33 0.243 5.52 2.29 14.14
2/18/2021 12:30:00 PM 1.87 35.366 0.232 5.52 2.79 14.18
2/18/2021 12:45:00 PM 1.9 35.42 0.217 5.54 3.78 14.19
2/18/2021 1:00:00 PM 1.92 35.456 0.206 5.56 5.24 14.25
2/18/2021 1:15:00 PM 1.94 35.492 0.202 5.56 2.78 14.27
2/18/2021 1:30:00 PM 1.97 35.546 0.209 5.57 3.41 14.33
2/18/2021 1:45:00 PM 2.01 35.618 0.213 5.54 2.55 14.38
2/18/2021 2:00:00 PM 2.02 35.636 0.204 5.6 2.78 14.46
2/18/2021 2:15:00 PM 2.05 35.69 0.203 5.61 2.32 14.49
2/18/2021 2:30:00 PM 2.09 35.762 0.207 5.65 2.07 14.52
2/18/2021 2:45:00 PM 2.13 35.834 0.205 5.66 2.12 14.59
2/18/2021 3:00:00 PM 2.17 35.906 0.201 5.68 2.23 14.61
2/18/2021 3:15:00 PM 2.2 35.96 0.219 5.69 2.92 14.65
2/18/2021 3:30:00 PM 2.23 36.014 0.214 5.72 2.91 14.67
2/18/2021 3:45:00 PM 2.26 36.068 0.216 5.71 2.65 14.67
2/18/2021 4:00:00 PM 2.27 36.086 0.212 5.72 2.68 14.69
2/18/2021 4:15:00 PM 2.29 36.122 0.218 5.76 6.08 14.72
2/18/2021 4:30:00 PM 2.29 36.122 0.216 5.75 2.87 14.68
2/18/2021 4:45:00 PM 2.3 36.14 0.213 5.78 2.23 14.67
2/18/2021 5:00:00 PM 2.31 36.158 0.214 5.78 2.76 14.64
2/18/2021 5:15:00 PM 2.31 36.158 0.211 5.76 2.92 14.6
2/18/2021 5:30:00 PM 2.32 36.176 0.229 5.76 2.1 14.53
2/18/2021 5:45:00 PM 2.32 36.176 0.235 5.74 2.89 14.46
2/18/2021 6:00:00 PM 2.32 36.176 0.226 5.73 2.79 14.38
2/18/2021 6:15:00 PM 2.31 36.158 0.24 5.72 2.31 14.32
2/18/2021 6:30:00 PM 2.31 36.158 0.214 5.72 1.96 14.26
2/18/2021 6:45:00 PM 2.31 36.158 0.25 5.73 2.85 14.19
2/18/2021 7:00:00 PM 2.32 36.176 0.233 5.73 3.14 14.15
2/18/2021 7:15:00 PM 2.31 36.158 0.266 5.72 2.4 14.08
2/18/2021 7:30:00 PM 2.31 36.158 0.242 5.71 2.51 14.03
2/18/2021 7:45:00 PM 2.32 36.176 0.239 5.71 3.81 13.98
2/18/2021 8:00:00 PM 2.34 36.212 0.251 5.71 2.11 13.93
2/18/2021 8:15:00 PM 2.35 36.23 0.227 5.69 2.28 13.89
2/18/2021 8:30:00 PM 2.36 36.248 0.264 5.68 2.54 13.81
2/18/2021 8:45:00 PM 2.37 36.266 0.253 5.69 2.58 13.76
2/18/2021 9:00:00 PM 2.38 36.284 0.259 5.69 2.44 13.74
2/18/2021 9:15:00 PM 2.39 36.302 0.256 5.69 2.77 13.71
2/18/2021 9:30:00 PM 2.39 36.302 0.26 5.69 2.25 13.67
2/18/2021 9:45:00 PM 2.38 36.284 0.25 5.7 2.05 13.65
2/18/2021 10:00:00 PM 2.39 36.302 0.249 5.69 2.44 13.64
2/18/2021 10:15:00 PM 2.37 36.266 0.242 5.67 2.21 13.61
2/18/2021 10:30:00 PM 2.36 36.248 0.239 5.67 1.98 13.59
2/18/2021 10:45:00 PM 2.36 36.248 0.215 5.68 2.8 13.55
2/18/2021 11:00:00 PM 2.37 36.266 0.234 5.61 2.27 13.54
2/18/2021 11:15:00 PM 2.39 36.302 0.233 5.65 2.01 13.46
2/18/2021 11:30:00 PM 2.41 36.338 0.237 5.66 2.59 13.47
2/18/2021 11:45:00 PM 2.43 36.374 0.241 5.7 2.97 13.44
2/19/2021 12:00:00 AM 2.44 36.392 0.247 5.67 1.94 13.4
2/19/2021 12:15:00 AM 2.45 36.41 0.233 5.66 2.24 13.4
2/19/2021 12:30:00 AM 2.45 36.41 0.226 5.61 2.12 13.38
2/19/2021 12:45:00 AM 2.45 36.41 0.233 5.61 2.2 13.36
2/19/2021 1:00:00 AM 2.44 36.392 0.229 5.61 2.18 13.35
2/19/2021 1:15:00 AM 2.44 36.392 0.226 5.64 2.07 13.33
2/19/2021 1:30:00 AM 2.44 36.392 0.234 5.66 1.91 13.33
2/19/2021 1:45:00 AM 2.44 36.392 0.232 5.67 1.85 13.34
2/19/2021 2:00:00 AM 2.45 36.41 0.247 5.66 1.95 13.31
2/19/2021 2:15:00 AM 2.45 36.41 0.251 5.67 2.28 13.29
2/19/2021 2:30:00 AM 2.46 36.428 0.25 5.68 2.14 13.26
2/19/2021 2:45:00 AM 2.47 36.446 0.248 5.69 2.21 13.22
2/19/2021 3:00:00 AM 2.46 36.428 0.246 5.7 2.65 13.21
2/19/2021 3:15:00 AM 2.46 36.428 0.261 5.72 2.79 13.22
2/19/2021 3:30:00 AM 2.46 36.428 0.228 5.73 2.63 13.2
2/19/2021 3:45:00 AM 2.45 36.41 0.223 5.75 1.36 13.18
2/19/2021 4:00:00 AM 2.43 36.374 0.226 5.74 2.7 13.18
2/19/2021 4:15:00 AM 2.42 36.356 0.225 5.73 1.96 13.19
2/19/2021 4:30:00 AM 2.4 36.32 0.245 5.73 1.68 13.16
2/19/2021 4:45:00 AM 2.39 36.302 0.224 5.75 1.6 13.15
2/19/2021 5:00:00 AM 2.38 36.284 0.221 5.75 2.36 13.13
2/19/2021 5:15:00 AM 2.38 36.284 0.216 5.74 1.66 13.11
2/19/2021 5:30:00 AM 2.38 36.284 0.226 5.72 5.99 13.11
2/19/2021 5:45:00 AM 2.39 36.302 0.221 5.71 3.19 13.07
2/19/2021 6:00:00 AM 2.39 36.302 0.223 5.73 2.41 13.07
2/19/2021 6:15:00 AM 2.38 36.284 0.224 5.73 2.03 13.07
2/19/2021 6:30:00 AM 2.38 36.284 0.203 5.74 2.7 13.08
2/19/2021 6:45:00 AM 2.37 36.266 0.216 5.74 2.72 13.07
2/19/2021 7:00:00 AM 2.35 36.23 0.189 5.74 3.15 13.07
2/19/2021 7:15:00 AM 2.34 36.212 0.246 5.74 4.76 13.06
2/19/2021 7:30:00 AM 2.33 36.194 0.237 5.74 2.52 13.07
2/19/2021 7:45:00 AM 2.33 36.194 0.251 5.72 2.06 13.06
2/19/2021 8:00:00 AM 2.35 36.23 0.253 5.69 2.47 13.11
2/19/2021 8:15:00 AM 2.34 36.212 0.262 5.68 2.73 13.12
2/19/2021 8:30:00 AM 2.35 36.23 0.265 5.67 2.36 13.13
2/19/2021 8:45:00 AM 2.34 36.212 0.254 5.68 2.12 13.17
2/19/2021 9:00:00 AM 2.34 36.212 0.255 5.67 2.22 13.19
2/19/2021 9:15:00 AM 2.35 36.23 0.254 5.68 1.64 13.28
2/19/2021 9:30:00 AM 2.37 36.266 0.261 5.68 2.51 13.33
2/19/2021 9:45:00 AM 2.39 36.302 0.26 5.69 1.56 13.42
2/19/2021 10:00:00 AM 2.4 36.32 0.249 5.68 2.04 13.52
2/19/2021 10:15:00 AM 2.4 36.32 0.258 5.69 1.47 13.59
2/19/2021 10:30:00 AM 2.42 36.356 0.244 5.7 1.67 13.68
2/19/2021 10:45:00 AM 2.44 36.392 0.241 5.72 2.58 13.76
2/19/2021 11:00:00 AM 2.47 36.446 0.236 5.72 3.05 13.83
2/19/2021 11:15:00 AM 2.52 36.536 0.239 5.71 2.37 13.92
2/19/2021 11:30:00 AM 2.58 36.644 0.243 5.74 1.24 14.01
2/19/2021 11:45:00 AM 2.64 36.752 0.243 5.75 1.97 14.08
2/19/2021 12:00:00 PM 2.71 36.878 0.245 5.77 1.93 14.19
2/19/2021 12:15:00 PM 2.77 36.986 0.229 5.78 1.8 14.27
2/19/2021 12:30:00 PM 2.84 37.112 0.224 5.82 1.56 14.37
2/19/2021 12:45:00 PM 2.93 37.274 0.241 5.79 4.13 14.42
2/19/2021 1:00:00 PM 3.05 37.49 0.243 5.81 1.55 14.51
2/19/2021 1:15:00 PM 3.17 37.706 0.239 5.82 1.84 14.56
2/19/2021 1:30:00 PM 3.3 37.94 0.228 5.85 1.78 14.62
2/19/2021 1:45:00 PM 3.41 38.138 0.22 5.88 2.11 14.64
2/19/2021 2:00:00 PM 3.51 38.318 0.224 5.87 2.13 14.71
2/19/2021 2:15:00 PM 3.61 38.498 0.218 5.92 1.73 14.73
2/19/2021 2:30:00 PM 3.68 38.624 0.221 5.94 1.77 14.76
2/19/2021 2:45:00 PM 3.76 38.768 0.248 5.96 1.96 14.77
2/19/2021 3:00:00 PM 3.82 38.876 0.241 5.98 1.48 14.81
2/19/2021 3:15:00 PM 3.86 38.948 0.239 6.01 1.22 14.81
2/19/2021 3:30:00 PM 3.91 39.038 0.237 6.03 2 14.83
2/19/2021 3:45:00 PM 3.95 39.11 0.235 6.05 1.79 14.82
2/19/2021 4:00:00 PM 3.97 39.146 0.233 6.07 2.11 14.77
2/19/2021 4:15:00 PM 3.96 39.128 0.233 6.07 2.06 14.71
2/19/2021 4:30:00 PM 3.96 39.128 0.235 6.08 1.72 14.66
2/19/2021 4:45:00 PM 3.96 39.128 0.231 6.07 1.61 14.58
2/19/2021 5:00:00 PM 3.95 39.11 0.251 6.06 1.16 14.49
2/19/2021 5:15:00 PM 3.96 39.128 0.248 6.09 1.73 14.4
2/19/2021 5:30:00 PM 3.96 39.128 0.243 6.07 2.22 14.3
2/19/2021 5:45:00 PM 3.98 39.164 0.249 6.04 1.88 14.2
2/19/2021 6:00:00 PM 3.98 39.164 0.242 6.03 2.42 14.11
2/19/2021 6:15:00 PM 3.98 39.164 0.237 6.02 1.74 13.99
2/19/2021 6:30:00 PM 3.99 39.182 0.232 5.98 2.17 13.91
2/19/2021 6:45:00 PM 3.99 39.182 0.263 5.98 2.06 13.78
2/19/2021 7:00:00 PM 3.99 39.182 0.29 5.98 2.04 13.73
2/19/2021 7:15:00 PM 3.98 39.164 0.256 5.98 2.3 13.66
2/19/2021 7:30:00 PM 3.98 39.164 0.261 5.99 1.7 13.57
2/19/2021 7:45:00 PM 3.97 39.146 0.241 5.97 2.17 13.47
2/19/2021 8:00:00 PM 3.96 39.128 0.244 5.97 1.82 13.39
2/19/2021 8:15:00 PM 3.96 39.128 0.242 5.96 1.53 13.33
2/19/2021 8:30:00 PM 3.97 39.146 0.251 5.92 1.62 13.26
2/19/2021 8:45:00 PM 3.97 39.146 0.247 5.9 1.85 13.19
2/19/2021 9:00:00 PM 3.97 39.146 0.26 5.91 2.29 13.13
2/19/2021 9:15:00 PM 3.97 39.146 0.259 5.88 1.9 13.08
2/19/2021 9:30:00 PM 3.97 39.146 0.25 5.88 1.45 13.04
2/19/2021 9:45:00 PM 3.97 39.146 0.254 5.9 1.74 12.99
2/19/2021 10:00:00 PM 3.96 39.128 0.25 5.88 2.71 12.94
2/19/2021 10:15:00 PM 3.95 39.11 0.246 5.9 1.63 12.91
2/19/2021 10:30:00 PM 3.94 39.092 0.239 5.9 1.81 12.88
2/19/2021 10:45:00 PM 3.92 39.056 0.246 5.9 1.12 12.85
2/19/2021 11:00:00 PM 3.92 39.056 0.246 5.89 1.85 12.82
2/19/2021 11:15:00 PM 3.91 39.038 0.26 5.89 1.93 12.78
2/19/2021 11:30:00 PM 3.94 39.092 0.265 5.85 2.02 12.76
2/19/2021 11:45:00 PM 3.94 39.092 0.274 5.84 2.2 12.71
2/20/2021 12:00:00 AM 3.94 39.092 0.262 5.75 3.85 12.67
2/20/2021 12:15:00 AM 3.94 39.092 0.285 5.62 1.64 12.66
2/20/2021 12:30:00 AM 3.93 39.074 0.283 5.65 1.83 12.63
2/20/2021 12:45:00 AM 3.9 39.02 0.24 5.78 1.6 12.62
2/20/2021 1:00:00 AM 3.86 38.948 0.259 5.79 1.93 12.61
2/20/2021 1:15:00 AM 3.83 38.894 0.256 5.81 1.79 12.61
2/20/2021 1:30:00 AM 3.8 38.84 0.255 5.8 1.78 12.61
2/20/2021 1:45:00 AM 3.76 38.768 0.263 5.75 1.85 12.61
2/20/2021 2:00:00 AM 3.74 38.732 0.264 5.8 2.37 12.61
2/20/2021 2:15:00 AM 3.7 38.66 0.268 5.75 1.72 12.59
2/20/2021 2:30:00 AM 3.67 38.606 0.252 5.81 1.69 12.57
2/20/2021 2:45:00 AM 3.65 38.57 0.249 5.78 2.07 12.57
2/20/2021 3:00:00 AM 3.61 38.498 0.258 5.77 2.78 12.57
2/20/2021 3:15:00 AM 3.58 38.444 0.266 5.78 1.62 12.56
2/20/2021 3:30:00 AM 3.54 38.372 0.248 5.8 1.59 12.55
2/20/2021 3:45:00 AM 3.49 38.282 0.268 5.78 1.94 12.55
2/20/2021 4:00:00 AM 3.44 38.192 0.284 5.78 2.53 12.58
2/20/2021 4:15:00 AM 3.4 38.12 0.271 5.76 2.36 12.54
2/20/2021 4:30:00 AM 3.36 38.048 0.281 5.64 1.85 12.56
2/20/2021 4:45:00 AM 3.3 37.94 0.272 5.67 4.34 12.59
2/20/2021 5:00:00 AM 3.25 37.85 0.271 5.68 2.46 12.59
2/20/2021 5:15:00 AM 3.22 37.796 0.256 5.78 2.02 12.57
2/20/2021 5:30:00 AM 3.17 37.706 0.259 5.71 2.71 12.58
2/20/2021 5:45:00 AM 3.13 37.634 0.244 5.76 1.37 12.58
2/20/2021 6:00:00 AM 3.09 37.562 0.255 5.68 1.62 12.58
2/20/2021 6:15:00 AM 3.05 37.49 0.253 5.75 1.98 12.6
2/20/2021 6:30:00 AM 3.01 37.418 0.296 5.67 3.02 12.59
2/20/2021 6:45:00 AM 2.96 37.328 0.272 5.78 1.53 12.6
2/20/2021 7:00:00 AM 2.92 37.256 0.274 5.76 1.39 12.6
2/20/2021 7:15:00 AM 2.87 37.166 0.269 5.65 2.04 12.64
2/20/2021 7:30:00 AM 2.84 37.112 0.269 5.75 2.16 12.69
2/20/2021 7:45:00 AM 2.8 37.04 0.266 5.73 1.71 12.74
2/20/2021 8:00:00 AM 2.79 37.022 0.265 5.76 1.56 12.83
2/20/2021 8:15:00 AM 2.79 37.022 0.263 5.78 2.35 12.94
2/20/2021 8:30:00 AM 2.81 37.058 0.294 5.78 2.26 13.02
2/20/2021 8:45:00 AM 2.84 37.112 0.304 5.81 1.14 13.12
2/20/2021 9:00:00 AM 2.85 37.13 0.271 5.83 1.71 13.22
2/20/2021 9:15:00 AM 2.86 37.148 0.27 5.82 1.85 13.36
2/20/2021 9:30:00 AM 2.89 37.202 0.267 5.88 1.49 13.44
2/20/2021 9:45:00 AM 2.93 37.274 0.265 5.89 1.71 13.57
2/20/2021 10:00:00 AM 2.96 37.328 0.268 5.88 1.13 13.69
2/20/2021 10:15:00 AM 3.01 37.418 0.265 5.85 1.26 13.78
2/20/2021 10:30:00 AM 3.06 37.508 0.271 5.85 1.49 13.87
2/20/2021 10:45:00 AM 3.12 37.616 0.271 5.87 1.91 13.97
2/20/2021 11:00:00 AM 3.13 37.634 0.276 5.89 1.27 14.04
2/20/2021 11:15:00 AM 3.15 37.67 0.288 5.92 3.95 14.14
2/20/2021 11:30:00 AM 3.19 37.742 0.245 5.97 1.42 14.21
2/20/2021 11:45:00 AM 3.25 37.85 0.273 6 2.19 14.29
2/20/2021 12:00:00 PM 3.33 37.994 0.279 6.02 1.99 14.36
2/20/2021 12:15:00 PM 3.42 38.156 0.286 6.05 1.21 14.44
2/20/2021 12:30:00 PM 3.52 38.336 0.302 6.11 1.55 14.47
2/20/2021 12:45:00 PM 3.65 38.57 0.279 6.14 1.28 14.56
2/20/2021 1:00:00 PM 3.78 38.804 0.269 6.19 1.78 14.59
2/20/2021 1:15:00 PM 3.87 38.966 0.278 6.23 1.16 14.63
2/20/2021 1:30:00 PM 3.96 39.128 0.268 6.25 1.33 14.68
2/20/2021 1:45:00 PM 4.02 39.236 0.3 6.3 1 14.72
2/20/2021 2:00:00 PM 4.09 39.362 0.285 6.33 0.84 14.74
2/20/2021 2:15:00 PM 4.14 39.452 0.301 6.39 0.9 14.78
2/20/2021 2:30:00 PM 4.19 39.542 0.341 6.43 1.56 14.82
2/20/2021 2:45:00 PM 4.19 39.542 0.298 6.41 1.32 14.82
2/20/2021 3:00:00 PM 4.22 39.596 0.309 6.52 2.22 14.83
2/20/2021 3:15:00 PM 4.22 39.596 0.302 6.56 1.89 14.84
2/20/2021 3:30:00 PM 4.19 39.542 0.274 6.59 1.4 14.82
2/20/2021 3:45:00 PM 4.18 39.524 0.287 6.55 1.69 14.82
2/20/2021 4:00:00 PM 4.18 39.524 0.283 6.45 1.31 14.79
2/20/2021 4:15:00 PM 4.15 39.47 0.282 6.59 1.19 14.76
2/20/2021 4:30:00 PM 4.12 39.416 0.278 6.63 1.46 14.74
2/20/2021 4:45:00 PM 4.08 39.344 0.282 6.67 1.36 14.69
2/20/2021 5:00:00 PM 4.05 39.29 0.283 6.68 0.93 14.65
2/20/2021 5:15:00 PM 4.01 39.218 0.282 6.67 1.46 14.61
2/20/2021 5:30:00 PM 3.99 39.182 0.327 6.67 1.61 14.52
2/20/2021 5:45:00 PM 3.95 39.11 0.327 6.66 0.88 14.42
2/20/2021 6:00:00 PM 3.91 39.038 0.278 6.67 1.34 14.3
2/20/2021 6:15:00 PM 3.88 38.984 0.276 6.67 0.88 14.22
2/20/2021 6:30:00 PM 3.85 38.93 0.324 6.67 1.5 14.11
2/20/2021 6:45:00 PM 3.81 38.858 0.305 6.68 1.07 14.02
2/20/2021 7:00:00 PM 3.79 38.822 0.253 6.7 1.3 13.94
2/20/2021 7:15:00 PM 3.76 38.768 0.255 6.73 1.34 13.83
2/20/2021 7:30:00 PM 3.73 38.714 0.257 6.74 1.4 13.78
2/20/2021 7:45:00 PM 3.71 38.678 0.266 6.74 2.29 13.7
2/20/2021 8:00:00 PM 3.68 38.624 0.251 6.76 1.13 13.63
2/20/2021 8:15:00 PM 3.65 38.57 0.252 6.77 4.03 13.56
2/20/2021 8:30:00 PM 3.62 38.516 0.259 6.82 1.88 13.52
2/20/2021 8:45:00 PM 3.6 38.48 0.222 6.87 1.1 13.45
2/20/2021 9:00:00 PM 3.58 38.444 0.25 6.96 0.87 13.38
2/20/2021 9:15:00 PM 3.55 38.39 0.245 7.05 1.31 13.31
2/20/2021 9:30:00 PM 3.53 38.354 0.24 7.13 0.96 13.25
2/20/2021 9:45:00 PM 3.52 38.336 0.209 7.22 1.54 13.2
2/20/2021 10:00:00 PM 3.51 38.318 0.219 7.3 1.38 13.16
2/20/2021 10:15:00 PM 3.48 38.264 0.218 7.37 1.32 13.12
2/20/2021 10:30:00 PM 3.47 38.246 0.248 7.41 1.39 13.07
2/20/2021 10:45:00 PM 3.45 38.21 0.219 7.42 1.65 13.05
2/20/2021 11:00:00 PM 3.44 38.192 0.224 7.43 1.42 13.04
2/20/2021 11:15:00 PM 3.42 38.156 0.236 7.42 1.83 13.01
2/20/2021 11:30:00 PM 3.39 38.102 0.232 7.41 2.16 13
2/20/2021 11:45:00 PM 3.39 38.102 0.23 7.4 1.19 12.97
2/21/2021 12:00:00 AM 3.36 38.048 0.222 7.39 2.12 12.93
2/21/2021 12:15:00 AM 3.35 38.03 0.2 7.38 1.76 12.92
2/21/2021 12:30:00 AM 3.34 38.012 0.209 7.35 1.54 12.91
2/21/2021 12:45:00 AM 3.3 37.94 0.207 7.31 1.41 12.88
2/21/2021 1:00:00 AM 3.26 37.868 0.214 7.27 1.56 12.89
2/21/2021 1:15:00 AM 3.23 37.814 0.213 7.23 1.72 12.88
2/21/2021 1:30:00 AM 3.19 37.742 0.212 7.17 1.46 12.89
2/21/2021 1:45:00 AM 3.13 37.634 0.211 7.13 1.84 12.89
2/21/2021 2:00:00 AM 3.06 37.508 0.205 7.07 1.31 12.91
2/21/2021 2:15:00 AM 3.02 37.436 0.201 7.04 1.88 12.9
2/21/2021 2:30:00 AM 2.97 37.346 0.223 7.01 2.37 12.91
2/21/2021 2:45:00 AM 2.92 37.256 0.248 7 1.3 12.92
2/21/2021 3:00:00 AM 2.87 37.166 0.228 6.99 1.61 12.92
2/21/2021 3:15:00 AM 2.82 37.076 0.219 6.98 1.15 12.93
2/21/2021 3:30:00 AM 2.77 36.986 0.25 6.95 1.89 12.92
2/21/2021 3:45:00 AM 2.73 36.914 0.261 6.94 1.22 12.93
2/21/2021 4:00:00 AM 2.68 36.824 0.259 6.93 1.14 12.93
2/21/2021 4:15:00 AM 2.62 36.716 0.275 6.91 1.55 12.96
2/21/2021 4:30:00 AM 2.57 36.626 0.241 6.92 3.25 12.97
2/21/2021 4:45:00 AM 2.52 36.536 0.229 6.92 1.92 12.98
2/21/2021 5:00:00 AM 2.46 36.428 0.215 6.91 1.39 13
2/21/2021 5:15:00 AM 2.41 36.338 0.225 6.9 1.51 13
2/21/2021 5:30:00 AM 2.36 36.248 0.225 6.89 1.79 13.02
2/21/2021 5:45:00 AM 2.31 36.158 0.232 6.88 1.82 13
2/21/2021 6:00:00 AM 2.26 36.068 0.216 6.87 1.26 13.02
2/21/2021 6:15:00 AM 2.21 35.978 0.219 6.88 2.74 13.04
2/21/2021 6:30:00 AM 2.16 35.888 0.207 6.91 1.61 13.05
2/21/2021 6:45:00 AM 2.11 35.798 0.284 6.92 4.48 13.07
2/21/2021 7:00:00 AM 2.06 35.708 0.238 6.97 1.42 13.09
2/21/2021 7:15:00 AM 2.01 35.618 0.263 7.01 2.04 13.1
2/21/2021 7:30:00 AM 1.96 35.528 0.262 7.05 1.75 13.17
2/21/2021 7:45:00 AM 1.91 35.438 0.269 7.1 1.68 13.24
2/21/2021 8:00:00 AM 1.88 35.384 0.267 7.13 1.4 13.32
2/21/2021 8:15:00 AM 1.86 35.348 0.254 7.16 1.71 13.43
2/21/2021 8:30:00 AM 1.87 35.366 0.253 7.15 1.22 13.53
2/21/2021 8:45:00 AM 1.92 35.456 0.269 7.1 1.51 13.65
2/21/2021 9:00:00 AM 1.95 35.51 0.267 7.05 1.29 13.75
2/21/2021 9:15:00 AM 1.97 35.546 0.261 7 1.11 13.88
2/21/2021 9:30:00 AM 1.99 35.582 0.275 6.93 1.64 13.99
2/21/2021 9:45:00 AM 2.03 35.654 0.28 6.87 1.38 14.09
2/21/2021 10:00:00 AM 2.08 35.744 0.278 6.82 1.51 14.19
2/21/2021 10:15:00 AM 2.14 35.852 0.28 6.81 2.29 14.26
2/21/2021 10:30:00 AM 2.21 35.978 0.278 6.83 1.02 14.36
2/21/2021 10:45:00 AM 2.32 36.176 0.276 6.86 1.4 14.44
2/21/2021 11:00:00 AM 2.39 36.302 0.277 6.91 1.11 14.54
2/21/2021 11:15:00 AM 2.49 36.482 0.278 6.93 0.9 14.62
2/21/2021 11:30:00 AM 2.59 36.662 0.275 6.99 1.08 14.71
2/21/2021 11:45:00 AM 2.7 36.86 0.274 7.05 0.94 14.77
2/21/2021 12:00:00 PM 2.79 37.022 0.276 7.13 1.26 14.83
2/21/2021 12:15:00 PM 2.91 37.238 0.276 7.19 0.92 14.89
2/21/2021 12:30:00 PM 3.03 37.454 0.275 7.25 1.37 14.93
2/21/2021 12:45:00 PM 3.13 37.634 0.275 7.28 1.08 14.96
2/21/2021 1:00:00 PM 3.25 37.85 0.274 7.32 1.06 15.01
2/21/2021 1:15:00 PM 3.35 38.03 0.275 7.35 1.14 15.04
2/21/2021 1:30:00 PM 3.45 38.21 0.27 7.36 0.96 15.04
2/21/2021 1:45:00 PM 3.56 38.408 0.27 7.38 1.29 15.08
2/21/2021 2:00:00 PM 3.64 38.552 0.267 7.4 1.15 15.11
2/21/2021 2:15:00 PM 3.71 38.678 0.269 7.41 1.73 15.1
2/21/2021 2:30:00 PM 3.78 38.804 0.268 7.42 1.03 15.13
2/21/2021 2:45:00 PM 3.83 38.894 0.268 7.44 0.92 15.13
2/21/2021 3:00:00 PM 3.89 39.002 0.268 7.45 1.41 15.14
2/21/2021 3:15:00 PM 3.93 39.074 0.267 7.47 1.43 15.13
2/21/2021 3:30:00 PM 3.98 39.164 0.265 7.49 1.35 15.11
2/21/2021 3:45:00 PM 4 39.2 0.265 7.52 1.18 15.11
2/21/2021 4:00:00 PM 4.01 39.218 0.265 7.55 0.63 15.07
2/21/2021 4:15:00 PM 4.03 39.254 0.263 7.57 1.55 15.04
2/21/2021 4:30:00 PM 4.03 39.254 0.264 7.58 1.69 14.97
2/21/2021 4:45:00 PM 4.02 39.236 0.264 7.58 0.97 14.95
2/21/2021 5:00:00 PM 4 39.2 0.267 7.58 1.43 14.87
2/21/2021 5:15:00 PM 3.97 39.146 0.26 7.6 1.06 14.79
2/21/2021 5:30:00 PM 3.95 39.11 0.267 7.61 1.35 14.68
2/21/2021 5:45:00 PM 3.91 39.038 0.267 7.63 1.32 14.59
2/21/2021 6:00:00 PM 3.87 38.966 0.266 7.66 1.86 14.5
2/21/2021 6:15:00 PM 3.83 38.894 0.219 7.68 1.37 14.39
2/21/2021 6:30:00 PM 3.78 38.804 0.233 7.71 1.12 14.28
2/21/2021 6:45:00 PM 3.74 38.732 0.24 7.78 0.9 14.17
2/21/2021 7:00:00 PM 3.71 38.678 0.228 7.78 1.13 14.08
2/21/2021 7:15:00 PM 3.67 38.606 0.247 7.82 1.51 13.99
2/21/2021 7:30:00 PM 3.63 38.534 0.21 7.81 1.3 13.9
2/21/2021 7:45:00 PM 3.59 38.462 0.241 7.79 1.44 13.84
2/21/2021 8:00:00 PM 3.56 38.408 0.232 7.8 1.07 13.78
2/21/2021 8:15:00 PM 3.53 38.354 0.238 7.79 1.04 13.72
2/21/2021 8:30:00 PM 3.5 38.3 0.241 7.8 1.5 13.65
2/21/2021 8:45:00 PM 3.48 38.264 0.23 7.79 0.87 13.59
2/21/2021 9:00:00 PM 3.48 38.264 0.226 7.79 1.71 13.53
2/21/2021 9:15:00 PM 3.47 38.246 0.234 7.8 1.15 13.47
2/21/2021 9:30:00 PM 3.47 38.246 0.24 7.78 1.14 13.4
2/21/2021 9:45:00 PM 3.47 38.246 0.245 7.75 1.43 13.35
2/21/2021 10:00:00 PM 3.48 38.264 0.251 7.73 1.29 13.27
2/21/2021 10:15:00 PM 3.47 38.246 0.244 7.75 0.95 13.22
2/21/2021 10:30:00 PM 3.51 38.318 0.259 7.75 0.96 13.16
2/21/2021 10:45:00 PM 3.53 38.354 0.26 7.72 1.32 13.1
2/21/2021 11:00:00 PM 3.55 38.39 0.251 7.69 1.46 13.06
2/21/2021 11:15:00 PM 3.57 38.426 0.259 7.67 1.11 13.04
2/21/2021 11:30:00 PM 3.59 38.462 0.259 7.65 1.14 12.99
2/21/2021 11:45:00 PM 3.62 38.516 0.248 7.62 1.11 12.95
2/22/2021 12:00:00 AM 3.64 38.552 0.253 7.59 1.17 12.9
2/22/2021 12:15:00 AM 3.67 38.606 0.258 7.57 1.4 12.86
2/22/2021 12:30:00 AM 3.69 38.642 0.255 7.53 1.53 12.82
2/22/2021 12:45:00 AM 3.72 38.696 0.255 7.48 1.7 12.78
2/22/2021 1:00:00 AM 3.74 38.732 0.265 7.43 1.97 12.74
2/22/2021 1:15:00 AM 3.74 38.732 0.254 7.36 1.45 12.71
2/22/2021 1:30:00 AM 3.74 38.732 0.253 7.28 1.61 12.7
2/22/2021 1:45:00 AM 3.74 38.732 0.229 7.19 1.37 12.69
2/22/2021 2:00:00 AM 3.73 38.714 0.239 7.1 1.71 12.67
2/22/2021 2:15:00 AM 3.72 38.696 0.248 7.01 24.23 12.66
2/22/2021 2:30:00 AM 3.71 38.678 0.291 6.93 2.36 12.63
2/22/2021 2:45:00 AM 3.71 38.678 0.296 6.88 1.76 12.63
2/22/2021 3:00:00 AM 3.7 38.66 0.282 6.84 2.93 12.62
2/22/2021 3:15:00 AM 3.69 38.642 0.266 6.79 2.29 12.61
2/22/2021 3:30:00 AM 3.67 38.606 0.268 6.74 1.9 12.6
2/22/2021 3:45:00 AM 3.65 38.57 0.263 6.69 1.55 12.59
2/22/2021 4:00:00 AM 3.62 38.516 0.294 6.65 2.02 12.59
2/22/2021 4:15:00 AM 3.59 38.462 0.256 6.62 1.45 12.58
2/22/2021 4:30:00 AM 3.57 38.426 0.242 6.6 3.8 12.57
2/22/2021 4:45:00 AM 3.54 38.372 0.208 6.57 2.65 12.58
2/22/2021 5:00:00 AM 3.52 38.336 0.217 6.55 4.07 12.57
2/22/2021 5:15:00 AM 3.49 38.282 0.206 6.52 2.09 12.57
2/22/2021 5:30:00 AM 3.47 38.246 0.211 6.49 2.34 12.56
2/22/2021 5:45:00 AM 3.46 38.228 0.212 6.47 1.64 12.56
2/22/2021 6:00:00 AM 3.45 38.21 0.227 6.44 1.84 12.53
2/22/2021 6:15:00 AM 3.43 38.174 0.256 6.42 0.96 12.53
2/22/2021 6:30:00 AM 3.42 38.156 0.25 6.41 1.22 12.5
2/22/2021 6:45:00 AM 3.4 38.12 0.253 6.39 1.61 12.52
2/22/2021 7:00:00 AM 3.38 38.084 0.237 6.38 1.51 12.51
2/22/2021 7:15:00 AM 3.37 38.066 0.251 6.38 2.74 12.5
2/22/2021 7:30:00 AM 3.37 38.066 0.255 6.36 1.54 12.53
2/22/2021 7:45:00 AM 3.36 38.048 0.255 6.36 2.39 12.56
2/22/2021 8:00:00 AM 3.31 37.958 0.253 6.36 1.25 12.57
2/22/2021 8:15:00 AM 3.29 37.922 0.256 6.37 2.18 12.61
2/22/2021 8:30:00 AM 3.26 37.868 0.208 6.36 2.76 12.64
2/22/2021 8:45:00 AM 3.22 37.796 0.206 6.36 1.1 12.68
2/22/2021 9:00:00 AM 3.13 37.634 0.206 6.36 1.13 12.72
2/22/2021 9:15:00 AM 3.01 37.418 0.204 6.35 1.46 12.76
2/22/2021 9:30:00 AM 2.87 37.166 0.204 6.35 1.01 12.81
2/22/2021 9:45:00 AM 2.75 36.95 0.194 6.35 1.64 12.87
2/22/2021 10:00:00 AM 2.7 36.86 0.193 6.32 0.92 12.92
2/22/2021 10:15:00 AM 2.64 36.752 0.194 6.29 2.05 13
2/22/2021 10:30:00 AM 2.55 36.59 0.193 6.28 1.47 13.1
2/22/2021 10:45:00 AM 2.47 36.446 0.192 6.26 1.32 13.17
2/22/2021 11:00:00 AM 2.42 36.356 0.191 6.25 1.2 13.26
2/22/2021 11:15:00 AM 2.39 36.302 0.204 6.22 1.74 13.35
2/22/2021 11:30:00 AM 2.38 36.284 0.193 6.2 1.06 13.44
2/22/2021 11:45:00 AM 2.41 36.338 0.19 6.18 0.79 13.56
2/22/2021 12:00:00 PM 2.4 36.32 0.19 6.17 1.13 13.68
2/22/2021 12:15:00 PM 2.42 36.356 0.191 6.19 1.51 13.77
2/22/2021 12:30:00 PM 2.45 36.41 0.19 6.18 1.39 13.86
2/22/2021 12:45:00 PM 2.51 36.518 0.202 6.18 1.06 13.94
2/22/2021 1:00:00 PM 2.58 36.644 0.223 6.17 1.37 14.03
2/22/2021 1:15:00 PM 2.63 36.734 0.2 6.19 1.52 14.09
2/22/2021 1:30:00 PM 2.7 36.86 0.221 6.19 1.86 14.16
2/22/2021 1:45:00 PM 2.77 36.986 0.215 6.2 1.35 14.25
2/22/2021 2:00:00 PM 2.83 37.094 0.273 6.2 3.47 14.3
2/22/2021 2:15:00 PM 2.89 37.202 0.226 6.22 0.82 14.35
2/22/2021 2:30:00 PM 2.96 37.328 0.24 6.23 1.71 14.4
2/22/2021 2:45:00 PM 3.03 37.454 0.225 6.24 1.54 14.41
2/22/2021 3:00:00 PM 3.1 37.58 0.225 6.23 1.24 14.49
2/22/2021 3:15:00 PM 3.15 37.67 0.224 6.25 1.31 14.54
2/22/2021 3:30:00 PM 3.19 37.742 0.232 6.27 1.08 14.56
2/22/2021 3:45:00 PM 3.24 37.832 0.227 6.27 1.21 14.57
2/22/2021 4:00:00 PM 3.31 37.958 0.26 6.28 1.28 14.58
2/22/2021 4:15:00 PM 3.36 38.048 0.281 6.29 1.08 14.63
2/22/2021 4:30:00 PM 3.38 38.084 0.278 6.26 1.33 14.64
2/22/2021 4:45:00 PM 3.4 38.12 0.279 6.27 0.99 14.6
2/22/2021 5:00:00 PM 3.42 38.156 0.254 6.29 0.97 14.58
2/22/2021 5:15:00 PM 3.43 38.174 0.234 6.27 1.33 14.5
2/22/2021 5:30:00 PM 3.44 38.192 0.245 6.27 1.03 14.44
2/22/2021 5:45:00 PM 3.45 38.21 0.294 6.26 1.56 14.34
2/22/2021 6:00:00 PM 3.46 38.228 0.283 6.26 1.05 14.23
2/22/2021 6:15:00 PM 3.46 38.228 0.263 6.23 0.9 14.1
2/22/2021 6:30:00 PM 3.46 38.228 0.285 6.2 1.2 14.02
2/22/2021 6:45:00 PM 3.46 38.228 0.262 6.19 1.06 13.91
2/22/2021 7:00:00 PM 3.46 38.228 0.3 6.18 1.26 13.81
2/22/2021 7:15:00 PM 3.44 38.192 0.248 6.17 1.14 13.74
2/22/2021 7:30:00 PM 3.44 38.192 0.258 6.17 0.97 13.66
2/22/2021 7:45:00 PM 3.43 38.174 0.252 6.16 1.82 13.59
2/22/2021 8:00:00 PM 3.42 38.156 0.275 6.15 1.38 13.49
2/22/2021 8:15:00 PM 3.41 38.138 0.276 6.13 1.29 13.46
2/22/2021 8:30:00 PM 3.4 38.12 0.279 6.12 1.17 13.38
2/22/2021 8:45:00 PM 3.38 38.084 0.279 6.1 0.96 13.33
2/22/2021 9:00:00 PM 3.37 38.066 0.284 6.1 0.77 13.23
2/22/2021 9:15:00 PM 3.36 38.048 0.282 6.07 1.31 13.18
2/22/2021 9:30:00 PM 3.34 38.012 0.279 6.06 1.29 13.14
2/22/2021 9:45:00 PM 3.31 37.958 0.289 6.06 7.03 13.11
2/22/2021 10:00:00 PM 3.29 37.922 0.289 6.07 1.53 13.06
2/22/2021 10:15:00 PM 3.27 37.886 0.299 6.06 1.9 13.04
2/22/2021 10:30:00 PM 3.25 37.85 0.299 6.08 1.3 13.02
2/22/2021 10:45:00 PM 3.22 37.796 0.292 6.08 1.42 13
2/22/2021 11:00:00 PM 3.22 37.796 0.282 6.09 1.62 12.98
2/22/2021 11:15:00 PM 3.21 37.778 0.284 6.1 3.72 12.97
2/22/2021 11:30:00 PM 3.22 37.796 0.293 6.08 1.34 12.93
2/22/2021 11:45:00 PM 3.24 37.832 0.282 6.09 1.37 12.91
2/23/2021 12:00:00 AM 3.26 37.868 0.28 6.08 1.14 12.87
2/23/2021 12:15:00 AM 3.27 37.886 0.285 6.12 1.19 12.83
2/23/2021 12:30:00 AM 3.27 37.886 0.295 6.12 1 12.8
2/23/2021 12:45:00 AM 3.27 37.886 0.286 6.15 1.72 12.78
2/23/2021 1:00:00 AM 3.29 37.922 0.279 6.15 1.24 12.76
2/23/2021 1:15:00 AM 3.29 37.922 0.28 6.16 0.77 12.74
2/23/2021 1:30:00 AM 3.29 37.922 0.283 6.18 1.12 12.71
2/23/2021 1:45:00 AM 3.29 37.922 0.27 6.19 1.43 12.72
2/23/2021 2:00:00 AM 3.27 37.886 0.253 6.19 1.24 12.71
2/23/2021 2:15:00 AM 3.27 37.886 0.247 6.19 1.18 12.68
2/23/2021 2:30:00 AM 3.26 37.868 0.275 6.2 1.48 12.66
2/23/2021 2:45:00 AM 3.25 37.85 0.287 6.21 2.03 12.65
2/23/2021 3:00:00 AM 3.24 37.832 0.261 6.24 1.15 12.63
2/23/2021 3:15:00 AM 3.24 37.832 0.245 6.29 1.2 12.61
2/23/2021 3:30:00 AM 3.22 37.796 0.247 6.32 1.27 12.6
2/23/2021 3:45:00 AM 3.21 37.778 0.248 6.35 1.11 12.58
2/23/2021 4:00:00 AM 3.19 37.742 0.258 6.38 1.53 12.57
2/23/2021 4:15:00 AM 3.18 37.724 0.232 6.41 1.47 12.56
2/23/2021 4:30:00 AM 3.15 37.67 0.267 6.41 1.03 12.55
2/23/2021 4:45:00 AM 3.13 37.634 0.252 6.41 1.31 12.54
2/23/2021 5:00:00 AM 3.1 37.58 0.251 6.43 0.91 12.53
2/23/2021 5:15:00 AM 3.07 37.526 0.246 6.44 1.07 12.54
2/23/2021 5:30:00 AM 3.04 37.472 0.278 6.45 1.53 12.53
2/23/2021 5:45:00 AM 3.02 37.436 0.247 6.45 2.27 12.51
2/23/2021 6:00:00 AM 2.99 37.382 0.301 6.45 1.7 12.48
2/23/2021 6:15:00 AM 2.97 37.346 0.237 6.47 1.6 12.47
2/23/2021 6:30:00 AM 2.94 37.292 0.284 6.48 5.52 12.49
2/23/2021 6:45:00 AM 2.92 37.256 0.262 6.48 1.59 12.47
2/23/2021 7:00:00 AM 2.89 37.202 0.26 6.48 1.13 12.47
2/23/2021 7:15:00 AM 2.89 37.202 0.29 6.49 1.28 12.5
2/23/2021 7:30:00 AM 2.88 37.184 0.266 6.49 1.9 12.53
2/23/2021 7:45:00 AM 2.88 37.184 0.259 6.49 2.12 12.59
2/23/2021 8:00:00 AM 2.89 37.202 0.255 6.49 1.17 12.65
2/23/2021 8:15:00 AM 2.92 37.256 0.254 6.47 1.09 12.73
2/23/2021 8:30:00 AM 2.97 37.346 0.265 6.44 1.69 12.82
2/23/2021 8:45:00 AM 3.01 37.418 0.228 6.42 1.25 12.94
2/23/2021 9:00:00 AM 3.07 37.526 0.255 6.38 1.1 13.06
2/23/2021 9:15:00 AM 3.13 37.634 0.264 6.29 1.1 13.2
2/23/2021 9:30:00 AM 3.2 37.76 0.243 6.31 1.75 13.32
2/23/2021 9:45:00 AM 3.33 37.994 0.244 6.28 1.27 13.44
2/23/2021 10:00:00 AM 3.45 38.21 0.24 6.28 1.07 13.6
2/23/2021 10:15:00 AM 3.54 38.372 0.228 6.27 1.2 13.7
2/23/2021 10:30:00 AM 3.6 38.48 0.234 6.26 1.2 13.82
2/23/2021 10:45:00 AM 3.63 38.534 0.245 6.27 1.23 13.9
2/23/2021 11:00:00 AM 3.68 38.624 0.222 6.27 1.01 13.97
2/23/2021 11:15:00 AM 3.74 38.732 0.231 6.24 1.25 14
2/23/2021 11:30:00 AM 3.81 38.858 0.223 6.23 1.37 14.11
2/23/2021 11:45:00 AM 3.89 39.002 0.224 6.22 1.21 14.18
2/23/2021 12:00:00 PM 3.99 39.182 0.228 6.19 1.4 14.26
2/23/2021 12:15:00 PM 4.1 39.38 0.281 6.18 0.67 14.34
2/23/2021 12:30:00 PM 4.22 39.596 0.242 6.18 1.08 14.41
2/23/2021 12:45:00 PM 4.36 39.848 0.248 6.18 1.21 14.47
2/23/2021 1:00:00 PM 4.46 40.028 0.245 6.22 1.15 14.56
2/23/2021 1:15:00 PM 4.55 40.19 0.245 6.23 0.89 14.62
2/23/2021 1:30:00 PM 4.66 40.388 0.247 6.24 1.05 14.66
2/23/2021 1:45:00 PM 4.74 40.532 0.245 6.25 1.19 14.67
2/23/2021 2:00:00 PM 4.8 40.64 0.236 6.14 1.01 14.73
2/23/2021 2:15:00 PM 4.85 40.73 0.251 6.17 1.09 14.75
2/23/2021 2:30:00 PM 4.87 40.766 0.279 6.21 1.93 14.75
2/23/2021 2:45:00 PM 4.92 40.856 0.261 6.26 1.58 14.75
2/23/2021 3:00:00 PM 4.97 40.946 0.26 6.26 1.5 14.76
2/23/2021 3:15:00 PM 5.03 41.054 0.249 6.27 1.23 14.78
2/23/2021 3:30:00 PM 5.08 41.144 0.244 6.25 1.82 14.73
2/23/2021 3:45:00 PM 5.14 41.252 0.226 6.23 0.95 14.78
2/23/2021 4:00:00 PM 5.19 41.342 0.277 6.22 1.02 14.76
2/23/2021 4:15:00 PM 5.24 41.432 0.26 6.25 1.86 14.76
2/23/2021 4:30:00 PM 5.28 41.504 0.273 6.25 0.98 14.71
2/23/2021 4:45:00 PM 5.31 41.558 0.274 6.27 1.3 14.68
2/23/2021 5:00:00 PM 5.33 41.594 0.272 6.29 1.74 14.57
2/23/2021 5:15:00 PM 5.33 41.594 0.274 6.28 1.42 14.49
2/23/2021 5:30:00 PM 5.33 41.594 0.279 6.27 1.06 14.37
2/23/2021 5:45:00 PM 5.32 41.576 0.276 6.24 1.79 14.23
2/23/2021 6:00:00 PM 5.31 41.558 0.232 6.26 1.5 14.08
2/23/2021 6:15:00 PM 5.3 41.54 0.246 6.23 1.49 13.93
2/23/2021 6:30:00 PM 5.3 41.54 0.273 6.21 2.5 13.76
2/23/2021 6:45:00 PM 5.29 41.522 0.263 6.07 1.44 13.63
2/23/2021 7:00:00 PM 5.27 41.486 0.268 6.11 1.06 13.5
2/23/2021 7:15:00 PM 5.26 41.468 0.298 6.11 2.56 13.38
2/23/2021 7:30:00 PM 5.24 41.432 0.272 6.17 1.45 13.26
2/23/2021 7:45:00 PM 5.23 41.414 0.272 6.13 1.21 13.17
2/23/2021 8:00:00 PM 5.21 41.378 0.283 6.15 1.51 13.08
2/23/2021 8:15:00 PM 5.2 41.36 0.268 6.15 1.18 13
2/23/2021 8:30:00 PM 5.18 41.324 0.299 6.15 1.02 12.9
2/23/2021 8:45:00 PM 5.17 41.306 0.263 6.15 1.38 12.82
2/23/2021 9:00:00 PM 5.16 41.288 0.255 6.17 1.58 12.74
2/23/2021 9:15:00 PM 5.15 41.27 0.296 6.13 1.71 12.66
2/23/2021 9:30:00 PM 5.14 41.252 0.286 6.11 1.42 12.58
2/23/2021 9:45:00 PM 5.13 41.234 0.325 6.12 1.36 12.51
2/23/2021 10:00:00 PM 5.12 41.216 0.276 6.1 1.37 12.42
2/23/2021 10:15:00 PM 5.12 41.216 0.276 6.08 2.42 12.4
2/23/2021 10:30:00 PM 5.11 41.198 0.271 6.12 1.94 12.35
2/23/2021 10:45:00 PM 5.11 41.198 0.265 6.16 1.45 12.29
2/23/2021 11:00:00 PM 5.11 41.198 0.279 6.17 1.84 12.27
2/23/2021 11:15:00 PM 5.11 41.198 0.263 6.19 1.32 12.22
2/23/2021 11:30:00 PM 5.12 41.216 0.263 6.2 1.87 12.19
2/23/2021 11:45:00 PM 5.12 41.216 0.265 6.19 1.29 12.17
2/24/2021 12:00:00 AM 5.14 41.252 0.263 6.2 2.44 12.12
2/24/2021 12:15:00 AM 5.13 41.234 0.282 6.2 1.7 12.09
2/24/2021 12:30:00 AM 5.13 41.234 0.278 6.18 1.54 12.07
2/24/2021 12:45:00 AM 5.12 41.216 0.292 6.19 1.48 12.02
2/24/2021 1:00:00 AM 5.1 41.18 0.293 6.19 1.58 11.99
2/24/2021 1:15:00 AM 5.09 41.162 0.287 6.19 1.47 11.98
2/24/2021 1:30:00 AM 5.07 41.126 0.283 6.21 1.86 11.97
2/24/2021 1:45:00 AM 5.06 41.108 0.266 6.19 1.76 11.97
2/24/2021 2:00:00 AM 5.02 41.036 0.321 6.16 1.42 11.95
2/24/2021 2:15:00 AM 5 41 0.329 6.18 1.87 11.94
2/24/2021 2:30:00 AM 4.97 40.946 0.281 6.15 1.8 11.93
2/24/2021 2:45:00 AM 4.94 40.892 0.284 5.94 2.04 11.92
2/24/2021 3:00:00 AM 4.9 40.82 0.299 6.05 2.29 11.91
2/24/2021 3:15:00 AM 4.87 40.766 0.296 6.07 2.68 11.9
2/24/2021 3:30:00 AM 4.82 40.676 0.243 6.04 1.82 11.9
2/24/2021 3:45:00 AM 4.78 40.604 0.327 6.06 1.56 11.91
2/24/2021 4:00:00 AM 4.73 40.514 0.279 6.08 1.99 11.91
2/24/2021 4:15:00 AM 4.68 40.424 0.324 6.03 1.28 11.89
2/24/2021 4:30:00 AM 4.63 40.334 0.291 5.94 2.26 11.91
2/24/2021 4:45:00 AM 4.58 40.244 0.301 5.99 2.01 11.9
2/24/2021 5:00:00 AM 4.53 40.154 0.31 5.97 1.84 11.93
2/24/2021 5:15:00 AM 4.48 40.064 0.305 5.97 1.36 11.91
2/24/2021 5:30:00 AM 4.44 39.992 0.288 5.94 1.9 11.91
2/24/2021 5:45:00 AM 4.4 39.92 0.281 5.91 2.19 11.9
2/24/2021 6:00:00 AM 4.36 39.848 0.279 5.88 2.45 11.91
2/24/2021 6:15:00 AM 4.32 39.776 0.308 5.88 1.82 11.9
2/24/2021 6:30:00 AM 4.27 39.686 0.298 5.86 2.24 11.91
2/24/2021 6:45:00 AM 4.24 39.632 0.291 5.86 1.68 11.93
2/24/2021 7:00:00 AM 4.2 39.56 0.313 5.86 1.38 11.93
2/24/2021 7:15:00 AM 4.16 39.488 0.342 5.85 2.21 11.94
2/24/2021 7:30:00 AM 4.13 39.434 0.339 5.89 2.51 12.01
2/24/2021 7:45:00 AM 4.11 39.398 0.338 5.88 1.93 12.07
2/24/2021 8:00:00 AM 4.09 39.362 0.334 5.89 2.32 12.17
2/24/2021 8:15:00 AM 4.1 39.38 0.289 5.89 2.43 12.29
2/24/2021 8:30:00 AM 4.12 39.416 0.245 5.88 2.99 12.4
2/24/2021 8:45:00 AM 4.15 39.47 0.29 5.78 3.52 12.56
2/24/2021 9:00:00 AM 4.18 39.524 0.288 5.84 2.41 12.69
2/24/2021 9:15:00 AM 4.24 39.632 0.274 5.89 1.63 12.85
2/24/2021 9:30:00 AM 4.3 39.74 0.296 5.96 2.44 12.98
2/24/2021 9:45:00 AM 4.38 39.884 0.298 5.99 1.68 13.08
2/24/2021 10:00:00 AM 4.43 39.974 0.292 5.94 1.99 13.21
2/24/2021 10:15:00 AM 4.51 40.118 0.273 5.97 1.52 13.32
2/24/2021 10:30:00 AM 4.61 40.298 0.281 5.94 1.88 13.46
2/24/2021 10:45:00 AM 4.71 40.478 0.283 5.92 1.6 13.57
2/24/2021 11:00:00 AM 4.82 40.676 0.282 5.92 1.24 13.68
2/24/2021 11:15:00 AM 4.95 40.91 0.286 5.95 1.22 13.78
2/24/2021 11:30:00 AM 5.07 41.126 0.278 5.98 1.61 13.87
2/24/2021 11:45:00 AM 5.21 41.378 0.3 6 1 13.94
2/24/2021 12:00:00 PM 5.34 41.612 0.286 6 1.41 14.02
2/24/2021 12:15:00 PM 5.48 41.864 0.268 5.97 2.1 14.1
2/24/2021 12:30:00 PM 5.6 42.08 0.297 6.01 1.18 14.13
2/24/2021 12:45:00 PM 5.74 42.332 0.278 6.06 2.58 14.18
2/24/2021 1:00:00 PM 5.87 42.566 0.284 6.08 1.62 14.21
2/24/2021 1:15:00 PM 5.99 42.782 0.277 6.12 1.98 14.22
2/24/2021 1:30:00 PM 6.11 42.998 0.277 6.02 1.83 14.27
2/24/2021 1:45:00 PM 6.22 43.196 0.255 6.14 2.13 14.28
2/24/2021 2:00:00 PM 6.34 43.412 0.263 6.2 1.48 14.29
2/24/2021 2:15:00 PM 6.43 43.574 0.276 6.19 1.89 14.32
2/24/2021 2:30:00 PM 6.53 43.754 0.278 6.21 1.92 14.32
2/24/2021 2:45:00 PM 6.61 43.898 0.263 6.29 1.56 14.31
2/24/2021 3:00:00 PM 6.7 44.06 0.26 6.28 1.62 14.29
2/24/2021 3:15:00 PM 6.76 44.168 0.251 6.31 2.27 14.28
2/24/2021 3:30:00 PM 6.81 44.258 0.258 6.35 1.76 14.25
2/24/2021 3:45:00 PM 6.86 44.348 0.274 6.37 1.6 14.21
2/24/2021 4:00:00 PM 6.89 44.402 0.272 6.37 1.88 14.17
2/24/2021 4:15:00 PM 6.92 44.456 0.265 6.34 3.32 14.12
2/24/2021 4:30:00 PM 6.93 44.474 0.245 6.36 2.73 14.05
2/24/2021 4:45:00 PM 6.92 44.456 0.246 6.34 2.85 13.96
2/24/2021 5:00:00 PM 6.91 44.438 0.256 6.36 3.7 13.84
2/24/2021 5:15:00 PM 6.89 44.402 0.275 6.36 6.88 13.72
2/24/2021 5:30:00 PM 6.86 44.348 0.273 6.31 6.19 13.57
2/24/2021 5:45:00 PM 6.82 44.276 0.267 6.3 6.53 13.42
2/24/2021 6:00:00 PM 6.78 44.204 0.267 6.32 7.6 13.26
2/24/2021 6:15:00 PM 6.74 44.132 0.281 6.27 8.24 13.11
2/24/2021 6:30:00 PM 6.71 44.078 0.319 6.28 13.64 12.98
2/24/2021 6:45:00 PM 6.69 44.042 0.283 6.27 10.35 12.85
2/24/2021 7:00:00 PM 6.67 44.006 0.272 6.25 8.02 12.74
2/24/2021 7:15:00 PM 6.65 43.97 0.298 6.26 9.85 12.64
2/24/2021 7:30:00 PM 6.65 43.97 0.263 6.23 13.41 12.56
2/24/2021 7:45:00 PM 6.66 43.988 0.286 6.21 7.46 12.47
2/24/2021 8:00:00 PM 6.67 44.006 0.289 6.17 7.82 12.36
2/24/2021 8:15:00 PM 6.69 44.042 0.268 6.17 9.33 12.27
2/24/2021 8:30:00 PM 6.72 44.096 0.263 6.15 5.24 12.19
2/24/2021 8:45:00 PM 6.75 44.15 0.261 6.18 8.78 12.09
2/24/2021 9:00:00 PM 6.78 44.204 0.258 6.17 6.55 11.99
2/24/2021 9:15:00 PM 6.82 44.276 0.259 6.18 7.74 11.92
2/24/2021 9:30:00 PM 6.85 44.33 0.254 6.2 5.33 11.87
2/24/2021 9:45:00 PM 6.88 44.384 0.238 6.2 9.66 11.8
2/24/2021 10:00:00 PM 6.92 44.456 0.25 6.23 10.58 11.75
2/24/2021 10:15:00 PM 6.95 44.51 0.25 6.23 6.9 11.7
2/24/2021 10:30:00 PM 6.98 44.564 0.249 6.2 7.82 11.66
2/24/2021 10:45:00 PM 7 44.6 0.259 6.25 6.51 11.62
2/24/2021 11:00:00 PM 7.01 44.618 0.261 6.25 6.61 11.58
2/24/2021 11:15:00 PM 7 44.6 0.275 6.19 8.96 11.54
2/24/2021 11:30:00 PM 6.98 44.564 0.247 6.25 12.24 11.52
2/24/2021 11:45:00 PM 6.95 44.51 0.246 6.27 6.05 11.48
2/25/2021 12:00:00 AM 6.91 44.438 0.267 6.25 7.09 11.48
2/25/2021 12:15:00 AM 6.85 44.33 0.283 6.3 6.16 11.44
2/25/2021 12:30:00 AM 6.79 44.222 0.267 6.29 7.45 11.45
2/25/2021 12:45:00 AM 6.74 44.132 0.273 6.25 8.7 11.44
2/25/2021 1:00:00 AM 6.69 44.042 0.244 6.25 7.8 11.43
2/25/2021 1:15:00 AM 6.65 43.97 0.217 6.21 7.57 11.39
2/25/2021 1:30:00 AM 6.61 43.898 0.23 6.2 7.8 11.38
2/25/2021 1:45:00 AM 6.56 43.808 0.251 6.17 9.55 11.35
2/25/2021 2:00:00 AM 6.51 43.718 0.242 6.13 6.41 11.34
2/25/2021 2:15:00 AM 6.45 43.61 0.24 6.11 10.67 11.32
2/25/2021 2:30:00 AM 6.4 43.52 0.249 6.1 8.05 11.32
2/25/2021 2:45:00 AM 6.34 43.412 0.273 6.07 8.68 11.32
2/25/2021 3:00:00 AM 6.29 43.322 0.265 6.08 6.95 11.31
2/25/2021 3:15:00 AM 6.23 43.214 0.231 6.07 9.23 11.33
2/25/2021 3:30:00 AM 6.18 43.124 0.237 6.06 9.1 11.31
2/25/2021 3:45:00 AM 6.14 43.052 0.238 6.02 8.7 11.32
2/25/2021 4:00:00 AM 6.09 42.962 0.265 6.02 16.81 11.32
2/25/2021 4:15:00 AM 6.05 42.89 0.267 5.94 9.35 11.31
2/25/2021 4:30:00 AM 6.01 42.818 0.278 5.98 8.35 11.3
2/25/2021 4:45:00 AM 5.97 42.746 0.245 5.97 13.03 11.28
2/25/2021 5:00:00 AM 5.93 42.674 0.265 5.96 9.32 11.28
2/25/2021 5:15:00 AM 5.89 42.602 0.28 5.95 6.35 11.28
2/25/2021 5:30:00 AM 5.85 42.53 0.275 5.95 7.6 11.29
2/25/2021 5:45:00 AM 5.8 42.44 0.296 5.94 7.59 11.31
2/25/2021 6:00:00 AM 5.75 42.35 0.341 5.93 8.09 11.31
2/25/2021 6:15:00 AM 5.7 42.26 0.339 5.96 8.9 11.33
2/25/2021 6:30:00 AM 5.66 42.188 0.242 5.9 8.13 11.35
2/25/2021 6:45:00 AM 5.62 42.116 0.288 5.87 8.65 11.34
2/25/2021 7:00:00 AM 5.59 42.062 0.241 5.9 8.33 11.38
2/25/2021 7:15:00 AM 5.56 42.008 0.259 5.85 8.67 11.39
2/25/2021 7:30:00 AM 5.53 41.954 0.27 5.84 10.04 11.39
2/25/2021 7:45:00 AM 5.51 41.918 0.269 5.84 8.68 11.43
2/25/2021 8:00:00 AM 5.5 41.9 0.25 5.76 8.44 11.48
2/25/2021 8:15:00 AM 5.49 41.882 0.267 5.71 9.44 11.54
2/25/2021 8:30:00 AM 5.5 41.9 0.261 5.8 6.34 11.64
2/25/2021 8:45:00 AM 5.51 41.918 0.259 5.84 7.22 11.75
2/25/2021 9:00:00 AM 5.53 41.954 0.255 5.83 6.57 11.85
2/25/2021 9:15:00 AM 5.54 41.972 0.254 5.87 6.17 11.95
2/25/2021 9:30:00 AM 5.57 42.026 0.251 5.88 8.76 12.07
2/25/2021 9:45:00 AM 5.61 42.098 0.251 5.88 7.09 12.16
2/25/2021 10:00:00 AM 5.66 42.188 0.248 5.88 8.49 12.27
2/25/2021 10:15:00 AM 5.72 42.296 0.233 5.85 6.56 12.36
2/25/2021 10:30:00 AM 5.8 42.44 0.229 5.82 4.07 12.46
2/25/2021 10:45:00 AM 5.87 42.566 0.237 5.88 7.78 12.58
2/25/2021 11:00:00 AM 5.95 42.71 0.254 5.89 6.19 12.67
2/25/2021 11:15:00 AM 6.04 42.872 0.262 5.92 5.94 12.79
2/25/2021 11:30:00 AM 6.13 43.034 0.257 5.93 4.99 12.9
2/25/2021 11:45:00 AM 6.22 43.196 0.243 5.92 6.52 13
2/25/2021 12:00:00 PM 6.31 43.358 0.223 5.93 4.95 13.07
2/25/2021 12:15:00 PM 6.41 43.538 0.24 5.96 6.63 13.16
2/25/2021 12:30:00 PM 6.51 43.718 0.234 5.94 6.22 13.25
2/25/2021 12:45:00 PM 6.6 43.88 0.235 6.01 6.75 13.32
2/25/2021 1:00:00 PM 6.7 44.06 0.238 6.01 5.25 13.4
2/25/2021 1:15:00 PM 6.79 44.222 0.231 6.05 5.21 13.45
2/25/2021 1:30:00 PM 6.89 44.402 0.246 6.06 4.01 13.5
2/25/2021 1:45:00 PM 6.98 44.564 0.242 6.07 4.44 13.52
2/25/2021 2:00:00 PM 7.06 44.708 0.245 6.12 5.56 13.56
2/25/2021 2:15:00 PM 7.12 44.816 0.262 6.16 4.28 13.6
2/25/2021 2:30:00 PM 7.19 44.942 0.207 6.22 4.74 13.61
2/25/2021 2:45:00 PM 7.25 45.05 0.254 6.26 4.54 13.64
2/25/2021 3:00:00 PM 7.29 45.122 0.242 6.32 4.82 13.66
2/25/2021 3:15:00 PM 7.33 45.194 0.228 6.32 5.29 13.66
2/25/2021 3:30:00 PM 7.37 45.266 0.235 6.29 4.94 13.64
2/25/2021 3:45:00 PM 7.39 45.302 0.218 6.3 4.61 13.63
2/25/2021 4:00:00 PM 7.41 45.338 0.219 6.31 6.31 13.58
2/25/2021 4:15:00 PM 7.42 45.356 0.223 6.27 9.1 13.51
2/25/2021 4:30:00 PM 7.42 45.356 0.249 6.26 5.05 13.47
2/25/2021 4:45:00 PM 7.42 45.356 0.232 6.26 8.74 13.38
2/25/2021 5:00:00 PM 7.4 45.32 0.226 6.3 5.49 13.3
2/25/2021 5:15:00 PM 7.38 45.284 0.216 6.31 5.87 13.22
2/25/2021 5:30:00 PM 7.37 45.266 0.226 6.33 7.16 13.13
2/25/2021 5:45:00 PM 7.35 45.23 0.229 6.33 4.63 13.01
2/25/2021 6:00:00 PM 7.33 45.194 0.287 6.32 5.48 12.93
2/25/2021 6:15:00 PM 7.3 45.14 0.263 6.31 6.06 12.82
2/25/2021 6:30:00 PM 7.28 45.104 0.243 6.3 6.1 12.7
2/25/2021 6:45:00 PM 7.27 45.086 0.299 6.28 7.41 12.6
2/25/2021 7:00:00 PM 7.25 45.05 0.288 6.27 9.55 12.5
2/25/2021 7:15:00 PM 7.25 45.05 0.268 6.29 7.54 12.41
2/25/2021 7:30:00 PM 7.23 45.014 0.22 6.31 6.19 12.35
2/25/2021 7:45:00 PM 7.21 44.978 0.256 6.29 6.81 12.27
2/25/2021 8:00:00 PM 7.19 44.942 0.254 6.27 8.06 12.23
2/25/2021 8:15:00 PM 7.17 44.906 0.252 6.31 5.88 12.16
2/25/2021 8:30:00 PM 7.14 44.852 0.239 6.29 8.31 12.11
2/25/2021 8:45:00 PM 7.11 44.798 0.242 6.32 8.21 12.06
2/25/2021 9:00:00 PM 7.07 44.726 0.247 6.33 7.29 12.02
2/25/2021 9:15:00 PM 7.05 44.69 0.242 6.33 5.24 12
2/25/2021 9:30:00 PM 7.01 44.618 0.253 6.31 10.21 11.96
2/25/2021 9:45:00 PM 6.98 44.564 0.244 5.6 7.99 11.91
2/25/2021 10:00:00 PM 6.94 44.492 0.262 6.11 6.96 11.86
2/25/2021 10:15:00 PM 6.9 44.42 0.239 6.26 10.82 11.84
2/25/2021 10:30:00 PM 6.86 44.348 0.227 6.21 6.63 11.81
2/25/2021 10:45:00 PM 6.8 44.24 0.221 6.16 8.36 11.79
2/25/2021 11:00:00 PM 6.75 44.15 0.226 5.99 10.11 11.77
2/25/2021 11:15:00 PM 6.7 44.06 0.211 6.18 6.95 11.75
2/25/2021 11:30:00 PM 6.65 43.97 0.225 5.92 12.35 11.73
2/25/2021 11:45:00 PM 6.59 43.862 0.257 6.16 7.55 11.73
2/26/2021 12:00:00 AM 6.54 43.772 0.231 6.16 7.39 11.71
2/26/2021 12:15:00 AM 6.49 43.682 0.23 6.2 8.61 11.67
2/26/2021 12:30:00 AM 6.44 43.592 0.224 6.06 10.52 11.66
2/26/2021 12:45:00 AM 6.4 43.52 0.231 6.1 22.68 11.64
2/26/2021 1:00:00 AM 6.35 43.43 0.217 6.02 8.71 11.62
2/26/2021 1:15:00 AM 6.31 43.358 0.217 6.04 10.09 11.6
2/26/2021 1:30:00 AM 6.26 43.268 0.226 6.08 6.87 11.59
2/26/2021 1:45:00 AM 6.22 43.196 0.22 6 6.74 11.56
2/26/2021 2:00:00 AM 6.17 43.106 0.23 5.96 9.11 11.55
2/26/2021 2:15:00 AM 6.13 43.034 0.19 6.04 6.45 11.57
2/26/2021 2:30:00 AM 6.08 42.944 0.215 6.03 8.43 11.55
2/26/2021 2:45:00 AM 6.04 42.872 0.214 5.98 10.55 11.53
2/26/2021 3:00:00 AM 6 42.8 0.266 5.98 7.84 11.55
2/26/2021 3:15:00 AM 5.96 42.728 0.251 5.94 7.13 11.52
2/26/2021 3:30:00 AM 5.92 42.656 0.251 5.96 8.16 11.51
2/26/2021 3:45:00 AM 5.89 42.602 0.243 5.96 10.34 11.51
2/26/2021 4:00:00 AM 5.86 42.548 0.245 5.95 6.81 11.5
2/26/2021 4:15:00 AM 5.83 42.494 0.246 5.95 8.92 11.49
2/26/2021 4:30:00 AM 5.8 42.44 0.218 5.95 8.99 11.49
2/26/2021 4:45:00 AM 5.76 42.368 0.247 5.96 5.99 11.49
2/26/2021 5:00:00 AM 5.73 42.314 0.236 5.88 12.04 11.49
2/26/2021 5:15:00 AM 5.69 42.242 0.224 5.9 14.3 11.5
2/26/2021 5:30:00 AM 5.66 42.188 0.232 5.89 7.66 11.49
2/26/2021 5:45:00 AM 5.63 42.134 0.246 5.94 7.16 11.51
2/26/2021 6:00:00 AM 5.58 42.044 0.241 5.95 13.93 11.52
2/26/2021 6:15:00 AM 5.55 41.99 0.229 5.95 10.52 11.52
2/26/2021 6:30:00 AM 5.51 41.918 0.229 5.92 6.75 11.54
2/26/2021 6:45:00 AM 5.47 41.846 0.263 5.9 8.37 11.53
2/26/2021 7:00:00 AM 5.45 41.81 0.239 5.86 8.82 11.53
2/26/2021 7:15:00 AM 5.42 41.756 0.243 5.89 6.47 11.54
2/26/2021 7:30:00 AM 5.39 41.702 0.236 5.83 5.09 11.56
2/26/2021 7:45:00 AM 5.37 41.666 0.241 5.83 4.5 11.59
2/26/2021 8:00:00 AM 5.36 41.648 0.22 5.82 7.69 11.65
2/26/2021 8:15:00 AM 5.36 41.648 0.209 5.82 7.18 11.73
2/26/2021 8:30:00 AM 5.38 41.684 0.213 5.82 9.39 11.83
2/26/2021 8:45:00 AM 5.41 41.738 0.216 5.84 5.55 11.93
2/26/2021 9:00:00 AM 5.44 41.792 0.224 5.86 5.23 12.05
2/26/2021 9:15:00 AM 5.47 41.846 0.243 5.87 5.08 12.15
2/26/2021 9:30:00 AM 5.51 41.918 0.227 5.88 4.73 12.26
2/26/2021 9:45:00 AM 5.55 41.99 0.223 5.81 5.46 12.35
2/26/2021 10:00:00 AM 5.62 42.116 0.219 5.81 5.21 12.46
2/26/2021 10:15:00 AM 5.69 42.242 0.217 5.77 6.04 12.56
2/26/2021 10:30:00 AM 5.76 42.368 0.213 5.78 5.76 12.65
2/26/2021 10:45:00 AM 5.85 42.53 0.212 5.84 8.05 12.78
2/26/2021 11:00:00 AM 5.94 42.692 0.207 5.83 3.9 12.9
2/26/2021 11:15:00 AM 6.02 42.836 0.22 5.84 5.18 13
2/26/2021 11:30:00 AM 6.1 42.98 0.216 5.92 4.76 13.12
2/26/2021 11:45:00 AM 6.18 43.124 0.191 5.98 4.6 13.24
2/26/2021 12:00:00 PM 6.25 43.25 0.174 5.99 3.85 13.34
2/26/2021 12:15:00 PM 6.34 43.412 0.17 5.94 5.29 13.45
2/26/2021 12:30:00 PM 6.41 43.538 0.193 5.97 3.92 13.54
2/26/2021 12:45:00 PM 6.48 43.664 0.178 6.05 3.92 13.65
2/26/2021 1:00:00 PM 6.54 43.772 0.176 6.09 3.63 13.7
2/26/2021 1:15:00 PM 6.6 43.88 0.187 6.16 3.37 13.78
2/26/2021 1:30:00 PM 6.66 43.988 0.197 6.18 3.51 13.85
2/26/2021 1:45:00 PM 6.71 44.078 0.197 6.19 3.89 13.93
2/26/2021 2:00:00 PM 6.77 44.186 0.185 6.24 5.11 13.97
2/26/2021 2:15:00 PM 6.82 44.276 0.178 6.29 5.48 14.03
2/26/2021 2:30:00 PM 6.86 44.348 0.184 6.33 4.17 14.08
2/26/2021 2:45:00 PM 6.89 44.402 0.188 6.34 4.23 14.12
2/26/2021 3:00:00 PM 6.92 44.456 0.177 6.37 3.77 14.12
2/26/2021 3:15:00 PM 6.94 44.492 0.171 6.39 4.71 14.17
2/26/2021 3:30:00 PM 6.96 44.528 0.173 6.4 3.77 14.18
2/26/2021 3:45:00 PM 6.97 44.546 0.172 6.39 3.75 14.17
2/26/2021 4:00:00 PM 6.98 44.564 0.172 6.41 3.41 14.16
2/26/2021 4:15:00 PM 6.99 44.582 0.175 6.4 3.19 14.12
2/26/2021 4:30:00 PM 7 44.6 0.192 6.45 2.96 14.07
2/26/2021 4:45:00 PM 6.99 44.582 0.207 6.46 5.37 13.96
2/26/2021 5:00:00 PM 6.99 44.582 0.201 6.47 3.65 13.87
2/26/2021 5:15:00 PM 6.98 44.564 0.197 6.46 5.44 13.79
2/26/2021 5:30:00 PM 6.97 44.546 0.196 6.43 2.87 13.65
2/26/2021 5:45:00 PM 6.96 44.528 0.191 6.35 3.77 13.56
2/26/2021 6:00:00 PM 6.94 44.492 0.181 5.89 4.64 13.44
2/26/2021 6:15:00 PM 6.93 44.474 0.247 6.27 3.54 13.33
2/26/2021 6:30:00 PM 6.92 44.456 0.25 6.32 4.76 13.21
2/26/2021 6:45:00 PM 6.92 44.456 0.23 6.41 4.45 13.09
2/26/2021 7:00:00 PM 6.92 44.456 0.246 6.4 4.23 12.98
2/26/2021 7:15:00 PM 6.92 44.456 0.245 6.41 5.77 12.84
2/26/2021 7:30:00 PM 6.93 44.474 0.219 6.41 5.37 12.74
2/26/2021 7:45:00 PM 6.93 44.474 0.21 6.4 3.06 12.64
2/26/2021 8:00:00 PM 6.93 44.474 0.203 6.38 5.09 12.53
2/26/2021 8:15:00 PM 6.92 44.456 0.211 6.39 7.1 12.47
2/26/2021 8:30:00 PM 6.91 44.438 0.21 6.41 3.38 12.39
2/26/2021 8:45:00 PM 6.9 44.42 0.217 6.36 4.2 12.33
2/26/2021 9:00:00 PM 6.89 44.402 0.219 6.43 3.33 12.28
2/26/2021 9:15:00 PM 6.87 44.366 0.208 6.43 3.94 12.24
2/26/2021 9:30:00 PM 6.86 44.348 0.231 6.44 3.28 12.19
2/26/2021 9:45:00 PM 6.85 44.33 0.252 6.42 4.74 12.14
2/26/2021 10:00:00 PM 6.84 44.312 0.228 6.43 4.51 12.09
2/26/2021 10:15:00 PM 6.83 44.294 0.252 6.41 3.94 12.03
2/26/2021 10:30:00 PM 6.82 44.276 0.237 6.33 4.17 11.95
2/26/2021 10:45:00 PM 6.81 44.258 0.224 6.32 3.86 11.92
2/26/2021 11:00:00 PM 6.79 44.222 0.228 6.37 5.42 11.89
2/26/2021 11:15:00 PM 6.77 44.186 0.226 6.39 4.11 11.85
2/26/2021 11:30:00 PM 6.74 44.132 0.223 6.4 4.96 11.8
2/26/2021 11:45:00 PM 6.71 44.078 0.21 6.4 4.47 11.8
2/27/2021 12:00:00 AM 6.68 44.024 0.218 6.4 3.33 11.75
2/27/2021 12:15:00 AM 6.64 43.952 0.209 6.39 4.64 11.74
2/27/2021 12:30:00 AM 6.6 43.88 0.215 6.32 5.29 11.7
2/27/2021 12:45:00 AM 6.57 43.826 0.226 6.36 4.52 11.69
2/27/2021 1:00:00 AM 6.54 43.772 0.203 6.34 5.02 11.65
2/27/2021 1:15:00 AM 6.51 43.718 0.269 6.34 3.37 11.62
2/27/2021 1:30:00 AM 6.47 43.646 0.234 6.29 4.69 11.57
2/27/2021 1:45:00 AM 6.42 43.556 0.208 6.29 8.98 11.54
2/27/2021 2:00:00 AM 6.36 43.448 0.247 6.29 3.87 11.52
2/27/2021 2:15:00 AM 6.28 43.304 0.241 6.26 3.32 11.52
2/27/2021 2:30:00 AM 6.22 43.196 0.225 6.25 3.75 11.5
2/27/2021 2:45:00 AM 6.18 43.124 0.235 6.24 4.3 11.47
2/27/2021 3:00:00 AM 6.11 42.998 0.224 6.23 4.02 11.49
2/27/2021 3:15:00 AM 6.05 42.89 0.221 6.22 4.39 11.47
2/27/2021 3:30:00 AM 6.02 42.836 0.229 6.19 4.91 11.47
2/27/2021 3:45:00 AM 6 42.8 0.232 6.2 7.39 11.47
2/27/2021 4:00:00 AM 5.97 42.746 0.225 6.18 4.6 11.46
2/27/2021 4:15:00 AM 5.95 42.71 0.241 6.16 5.54 11.43
2/27/2021 4:30:00 AM 5.93 42.674 0.233 6.16 3.42 11.44
2/27/2021 4:45:00 AM 5.91 42.638 0.213 6.14 3.52 11.42
2/27/2021 5:00:00 AM 5.89 42.602 0.209 6.12 5.01 11.42
2/27/2021 5:15:00 AM 5.87 42.566 0.215 6.11 3.9 11.42
2/27/2021 5:30:00 AM 5.84 42.512 0.213 6.13 5.22 11.41
2/27/2021 5:45:00 AM 5.82 42.476 0.214 6.11 3.92 11.43
2/27/2021 6:00:00 AM 5.81 42.458 0.218 6.11 7.86 11.43
2/27/2021 6:15:00 AM 5.8 42.44 0.23 6.1 4.7 11.44
2/27/2021 6:30:00 AM 5.79 42.422 0.219 6.12 4.43 11.43
2/27/2021 6:45:00 AM 5.78 42.404 0.222 6.12 7.33 11.43
2/27/2021 7:00:00 AM 5.77 42.386 0.211 6.11 4.51 11.41
2/27/2021 7:15:00 AM 5.76 42.368 0.209 6.11 5.81 11.42
2/27/2021 7:30:00 AM 5.75 42.35 0.225 6.11 5.6 11.41
2/27/2021 7:45:00 AM 5.75 42.35 0.225 6.1 6.05 11.42
2/27/2021 8:00:00 AM 5.74 42.332 0.206 6.1 3.98 11.45
2/27/2021 8:15:00 AM 5.73 42.314 0.233 6.09 4.04 11.48
2/27/2021 8:30:00 AM 5.72 42.296 0.238 6.11 4.53 11.52
2/27/2021 8:45:00 AM 5.71 42.278 0.22 6.11 5.87 11.58
2/27/2021 9:00:00 AM 5.71 42.278 0.223 6.11 5.12 11.67
2/27/2021 9:15:00 AM 5.72 42.296 0.222 6.14 3.51 11.76
2/27/2021 9:30:00 AM 5.71 42.278 0.23 6.13 4.26 11.82
2/27/2021 9:45:00 AM 5.72 42.296 0.222 6.13 5.59 11.87
2/27/2021 10:00:00 AM 5.73 42.314 0.217 6.14 5.05 11.97
2/27/2021 10:15:00 AM 5.76 42.368 0.239 6.14 4.2 12.06
2/27/2021 10:30:00 AM 5.79 42.422 0.233 6.14 4.17 12.18
2/27/2021 10:45:00 AM 5.81 42.458 0.217 6.17 4.82 12.29
2/27/2021 11:00:00 AM 5.82 42.476 0.208 6.2 4.11 12.38
2/27/2021 11:15:00 AM 5.84 42.512 0.212 6.22 4.58 12.48
2/27/2021 11:30:00 AM 5.88 42.584 0.232 6.21 4.65 12.59
2/27/2021 11:45:00 AM 5.91 42.638 0.211 6.24 4.9 12.7
2/27/2021 12:00:00 PM 5.95 42.71 0.198 6.27 4.78 12.82
2/27/2021 12:15:00 PM 5.99 42.782 0.196 6.27 4.5 12.92
2/27/2021 12:30:00 PM 6.04 42.872 0.2 6.3 4.75 13.03
2/27/2021 12:45:00 PM 6.08 42.944 0.197 6.32 3.74 13.1
2/27/2021 1:00:00 PM 6.13 43.034 0.196 6.34 5.04 13.17
2/27/2021 1:15:00 PM 6.19 43.142 0.205 6.36 3.91 13.24
2/27/2021 1:30:00 PM 6.26 43.268 0.191 6.38 4.75 13.31
2/27/2021 1:45:00 PM 6.38 43.484 0.206 6.38 4.03 13.4
2/27/2021 2:00:00 PM 6.47 43.646 0.209 6.34 7.88 13.48
2/27/2021 2:15:00 PM 6.53 43.754 0.206 6.37 4.01 13.54
2/27/2021 2:30:00 PM 6.58 43.844 0.234 6.37 5.05 13.57
2/27/2021 2:45:00 PM 6.62 43.916 0.218 6.37 4.92 13.58
2/27/2021 3:00:00 PM 6.67 44.006 0.211 6.39 3.96 13.62
2/27/2021 3:15:00 PM 6.72 44.096 0.218 6.4 6.5 13.62
2/27/2021 3:30:00 PM 6.76 44.168 0.19 6.44 4.35 13.63
2/27/2021 3:45:00 PM 6.8 44.24 0.209 6.45 5.3 13.63
2/27/2021 4:00:00 PM 6.83 44.294 0.213 6.44 4.69 13.58
2/27/2021 4:15:00 PM 6.86 44.348 0.215 6.47 5.48 13.54
2/27/2021 4:30:00 PM 6.9 44.42 0.213 6.52 4.56 13.51
2/27/2021 4:45:00 PM 6.92 44.456 0.208 6.53 4.72 13.49
2/27/2021 5:00:00 PM 6.93 44.474 0.206 6.55 4.81 13.42
2/27/2021 5:15:00 PM 6.93 44.474 0.236 6.51 5.5 13.32
2/27/2021 5:30:00 PM 6.93 44.474 0.2 6.54 7.22 13.23
2/27/2021 5:45:00 PM 6.93 44.474 0.24 6.55 4.66 13.1
2/27/2021 6:00:00 PM 6.93 44.474 0.217 6.54 5.57 13.02
2/27/2021 6:15:00 PM 6.93 44.474 0.229 6.48 8.48 12.92
2/27/2021 6:30:00 PM 6.92 44.456 0.219 6.45 5.54 12.84
2/27/2021 6:45:00 PM 6.91 44.438 0.262 6.45 5.51 12.75
2/27/2021 7:00:00 PM 6.89 44.402 0.196 6.45 8.42 12.64
2/27/2021 7:15:00 PM 6.87 44.366 0.2 6.43 9.56 12.55
2/27/2021 7:30:00 PM 6.84 44.312 0.222 6.42 8.71 12.47
2/27/2021 7:45:00 PM 6.82 44.276 0.241 6.42 8.55 12.42
2/27/2021 8:00:00 PM 6.8 44.24 0.237 6.41 6.14 12.34
2/27/2021 8:15:00 PM 6.78 44.204 0.235 6.42 7.97 12.29
2/27/2021 8:30:00 PM 6.76 44.168 0.254 6.41 8.87 12.25
2/27/2021 8:45:00 PM 6.74 44.132 0.262 6.39 10.47 12.22
2/27/2021 9:00:00 PM 6.73 44.114 0.258 6.39 5.25 12.18
2/27/2021 9:15:00 PM 6.72 44.096 0.258 6.39 10.93 12.13
2/27/2021 9:30:00 PM 6.7 44.06 0.244 6.4 7.75 12.08
2/27/2021 9:45:00 PM 6.69 44.042 0.24 6.36 6.99 12.02
2/27/2021 10:00:00 PM 6.68 44.024 0.232 6.37 6.82 11.96
2/27/2021 10:15:00 PM 6.66 43.988 0.276 6.28 7.62 11.91
2/27/2021 10:30:00 PM 6.64 43.952 0.233 6.32 6.61 11.88
2/27/2021 10:45:00 PM 6.61 43.898 0.229 6.32 7.93 11.86
2/27/2021 11:00:00 PM 6.59 43.862 0.233 6.33 8.82 11.84
2/27/2021 11:15:00 PM 6.57 43.826 0.214 6.32 9.6 11.8
2/27/2021 11:30:00 PM 6.54 43.772 0.217 6.32 7.4 11.77
2/27/2021 11:45:00 PM 6.52 43.736 0.214 6.33 9.34 11.74
2/28/2021 12:00:00 AM 6.5 43.7 0.229 6.31 7.28 11.69
2/28/2021 12:15:00 AM 6.48 43.664 0.238 6.3 8.66 11.67
2/28/2021 12:30:00 AM 6.47 43.646 0.234 6.3 14.59 11.63
2/28/2021 12:45:00 AM 6.45 43.61 0.223 6.29 6.95 11.57
2/28/2021 1:00:00 AM 6.43 43.574 0.229 6.24 8.97 11.55
2/28/2021 1:15:00 AM 6.4 43.52 0.2 6.2 6.72 11.51
2/28/2021 1:30:00 AM 6.38 43.484 0.213 6.08 9.08 11.5
2/28/2021 1:45:00 AM 6.35 43.43 0.171 6.12 12.85 11.5
2/28/2021 2:00:00 AM 6.33 43.394 0.192 6.14 9.35 11.46
2/28/2021 2:15:00 AM 6.31 43.358 0.212 6.13 8.44 11.44
2/28/2021 2:30:00 AM 6.29 43.322 0.213 6.13 8.99 11.45
2/28/2021 2:45:00 AM 6.27 43.286 0.198 6.16 8.4 11.43
2/28/2021 3:00:00 AM 6.25 43.25 0.205 6.15 6.44 11.42
2/28/2021 3:15:00 AM 6.23 43.214 0.222 6.14 19.32 11.42
2/28/2021 3:30:00 AM 6.22 43.196 0.227 6.16 7.38 11.39
2/28/2021 3:45:00 AM 6.2 43.16 0.198 6.16 9.72 11.38
2/28/2021 4:00:00 AM 6.18 43.124 0.208 6.16 8.02 11.37
2/28/2021 4:15:00 AM 6.16 43.088 0.205 6.15 7.94 11.37
2/28/2021 4:30:00 AM 6.14 43.052 0.212 6.15 8.78 11.35
2/28/2021 4:45:00 AM 6.12 43.016 0.218 6.14 7.56 11.36
2/28/2021 5:00:00 AM 6.11 42.998 0.224 6.14 18.36 11.37
2/28/2021 5:15:00 AM 6.09 42.962 0.222 6.14 5.87 11.38
2/28/2021 5:30:00 AM 6.08 42.944 0.236 6.14 8.51 11.38
2/28/2021 5:45:00 AM 6.07 42.926 0.226 6.13 11.95 11.38
2/28/2021 6:00:00 AM 6.07 42.926 0.223 6.16 6.88 11.36
2/28/2021 6:15:00 AM 6.07 42.926 0.234 6.13 9.42 11.36
2/28/2021 6:30:00 AM 6.08 42.944 0.188 6.12 5.72 11.36
2/28/2021 6:45:00 AM 6.08 42.944 0.19 6.13 7.42 11.33
2/28/2021 7:00:00 AM 6.09 42.962 0.201 6.14 6.16 11.35
2/28/2021 7:15:00 AM 6.09 42.962 0.194 6.16 7.36 11.35
2/28/2021 7:30:00 AM 6.09 42.962 0.174 6.15 6.84 11.36
2/28/2021 7:45:00 AM 6.09 42.962 0.173 6.15 7.15 11.37
2/28/2021 8:00:00 AM 6.1 42.98 0.185 6.15 6.18 11.38
2/28/2021 8:15:00 AM 6.11 42.998 0.173 6.15 5.98 11.39
2/28/2021 8:30:00 AM 6.13 43.034 0.183 6.17 6.84 11.42
2/28/2021 8:45:00 AM 6.14 43.052 0.176 6.16 8.45 11.47
2/28/2021 9:00:00 AM 6.16 43.088 0.18 6.08 8.82 11.49
2/28/2021 9:15:00 AM 6.17 43.106 0.183 6.14 5.38 11.49
2/28/2021 9:30:00 AM 6.19 43.142 0.166 6.16 5.44 11.5
2/28/2021 9:45:00 AM 6.21 43.178 0.169 6.16 6.89 11.53
2/28/2021 10:00:00 AM 6.22 43.196 0.179 6.15 8.34 11.55
2/28/2021 10:15:00 AM 6.22 43.196 0.197 6.18 7.92 11.59
2/28/2021 10:30:00 AM 6.23 43.214 0.191 6.19 7.26 11.63
2/28/2021 10:45:00 AM 6.